Site Date LOGGERID PROGID AIRTEMP_MEAN_150_0_04 AIRTEMP_MEAN_250_0_03 AIRTEMP_MEAN_350_0_02 AIRTEMP_MEAN_450_0_01 AIRTEMP_MEAN_350_0_08 RELHUM_MEAN_150_0_04 RELHUM_MEAN_450_0_01 DEWPT_MEAN_150_0_04 DEWPT_MEAN_450_0_01 SOILTEMP_MEAN_0_10_01 SOILTEMP_MEAN_0_20_02 SOILTEMP_MEAN_0_50_03 SOILTEMP_MEAN_0_100_04 SOILWC_MEAN_0_10_01 SOILWC_MEAN_0_20_02 SOILWC_MEAN_0_50_03 SOILWC_MEAN_0_100_04 WINDSPEED_Avg WIND_DIR PRECIP_INST_455_0_01 PRECIP_TOT_455_0_01 AIRTEMP_150_DIAG AIRTEMP_250_DIAG AIRTEMP_MAX_150_0_04 AIRTEMP_MAX_250_0_03 AIRTEMP_MAX_350_0_02 AIRTEMP_MAX_350_0_08 AIRTEMP_MAX_450_0_01 DEWPT_MAX_150_0_04 DEWPT_MAX_450_0_01 WSPD_PRO_MAX_1000_0_01 AIRTEMP_MIN_150_0_04 AIRTEMP_MIN_250_0_03 AIRTEMP_MIN_350_0_02 AIRTEMP_MIN_350_0_08 AIRTEMP_MIN_450_0_01 DEWPT_MIN_150_0_04 DEWPT_MIN_450_0_01 WSPD_PRO_MEAN_1000_0_01 WDIR_PRO_MEAN_1000_0_01 WDIR_PRO_STDDEV_1000_0_01 WUX_SNC_MEAN_1000_0_02 WUY_SNC_MEAN_1000_0_02 WAIR_SNC_MEAN_1000_0_02 WUX_SNC_STDEV_1000_0_02 WUY_SNC_STDEV_1000_0_02 WAIR_SNC_STDDEV_1000_0_02 WSPD_SNC_MEAN_1000_0_02 WDIR_SNC_MEAN_1000_0_02 WDIR_SNC_STDDEV_1000_0_02 WSPD_SNC_MAX_1000_0_02 BATTERY_V_CHECK PUMPVOLTS_Avg PUMPVOLTS_CHECK SATVP_MEAN_150_0_04 VAP_MEAN_150_0_04 VPD_MEAN_150_0_04 SATVP_MEAN_450_0_01 VAP_MEAN_450_0_01 VPD_MEAN_450_0_01
UPLMET_235 2018-04-20 12:25:00 235 46891.0   13.320 13.120 13.050 10.790   37.180   -1.231 0.127 0.492 0.879 4.216 0.405 0.293 0.437 0.614     397.900 0.00 0 1   13.830 13.540 11.220 13.350   -0.875 2.1740   12.920 12.820 10.440 12.870   -1.496 0.9050 0.42 60.77                       145.10         15.025 5.582 9.439
UPLMET_235 2018-04-20 12:20:00 235 46891.0   12.740 12.550 12.380 11.010   39.320   -1.083 0.127 0.493 0.879 4.216 0.405 0.293 0.437 0.614     398.000 0.00 0 1   13.550 13.330 11.270 13.030   -0.396 0.9270   12.210 12.080 10.560 12.010   -1.636 0.3540 301.60 57.30                       145.10         14.380 5.643 8.726
UPLMET_235 2018-04-20 12:15:00 235 46891.0   11.710 11.680 11.670 10.370   42.720   -0.572 0.128 0.493 0.879 4.216 0.406 0.293 0.437 0.614     397.900 0.00 0 1   12.120 12.010 10.500 11.990   -0.227 2.3970   11.480 11.450 10.250 11.360   -1.267 1.4120 70.42 32.23                       145.10         13.722 5.858 7.860
UPLMET_235 2018-04-20 12:10:00 235 46891.0   11.930 11.880 11.760 10.490   40.600   -1.208 0.128 0.493 0.879 4.216 0.406 0.293 0.437 0.614     398.000 0.00 0 1   12.230 12.100 10.660 11.950   -0.536 2.8330   11.550 11.530 10.250 11.460   -3.352 1.7650 174.40 59.15                       145.10         13.804 5.591 8.200
UPLMET_235 2018-04-20 12:05:00 235 46891.0   12.220 12.190 12.340 10.360   37.030   -1.958 0.127 0.492 0.879 4.217 0.406 0.293 0.437 0.614     398.300 0.00 0 1   12.300 12.400 10.670 12.590   -0.503 1.8170   12.090 12.020 10.180 11.960   -3.089 1.2760 86.20 50.31                       145.10         14.342 5.290 9.031
UPLMET_235 2018-04-20 12:00:00 235 46891.0   12.220 12.210 12.260 10.210   38.810   -1.408 0.128 0.493 0.879 4.217 0.406 0.293 0.437 0.614     398.300 0.00 0 1   12.530 12.690 10.420 12.650   -0.469 1.8800   11.890 11.820 10.010 11.900   -4.014 1.0490 141.60 63.24                       145.10         14.267 5.510 8.730
UPLMET_235 2018-04-20 11:55:00 235 46891.0   12.920 12.770 13.100 10.410   37.340   -1.139 0.127 0.493 0.879 4.217 0.406 0.293 0.437 0.614     398.200 0.00 0 1   13.440 13.430 10.800 13.550   0.014 2.6820   12.310 12.190 10.150 12.440   -2.655 1.4720 228.80 99.30                       145.20         15.075 5.620 9.446
UPLMET_235 2018-04-20 11:50:00 235 46891.0   13.730 13.760 13.620 10.890   36.890   -0.843 0.127 0.493 0.878 4.216 0.406 0.293 0.437 0.614     398.100 0.00 0 1   13.920 14.030 11.100 13.820   0.185 1.5680   13.450 13.460 10.490 13.450   -1.629 0.5020 269.30 41.17                       145.20         15.595 5.743 9.842
UPLMET_235 2018-04-20 11:45:00 235 46891.0   13.620 13.360 13.080 10.600   36.660   -1.405 0.127 0.493 0.878 4.217 0.406 0.293 0.437 0.614     398.100 0.00 0 1   14.040 13.730 10.930 13.410   -0.964 1.0690   13.110 12.640 10.400 12.650   -1.949 0.2810 254.20 50.30                       145.20         15.055 5.511 9.536
UPLMET_235 2018-04-20 11:40:00 235 46891.0   12.820 12.220 12.540 10.360   38.650   -1.158 0.127 0.493 0.879 4.217 0.406 0.293 0.437 0.614     398.100 0.00 0 1   13.060 12.620 10.650 12.940   -0.917 2.1650   12.540 11.970 10.150 12.400   -1.500 1.2120 316.60 37.45                       145.30         14.532 5.612 8.915
UPLMET_235 2018-04-20 11:35:00 235 46891.0   12.650 12.620 12.620 10.240   38.710   -1.069 0.127 0.493 0.879 4.217 0.406 0.293 0.438 0.614     397.900 0.00 0 1   13.290 12.810 10.580 13.010   -0.568 1.6210   12.280 12.390 9.970 12.100   -1.615 0.7950 343.30 70.02                       145.30         14.608 5.649 8.953
UPLMET_235 2018-04-20 11:30:00 235 46891.0   13.090 13.280 12.700 10.130   38.590   -1.041 0.127 0.493 0.878 4.217 0.406 0.293 0.438 0.614     397.900 0.00 0 1   13.500 13.710 10.420 12.950   -0.500 2.2630   12.480 12.580 9.960 12.240   -1.704 0.6410 296.80 63.29                       145.40         14.685 5.660 9.018
UPLMET_235 2018-04-20 11:25:00 235 46891.0   12.400 12.770 12.210 9.950   42.020   -0.312 0.127 0.493 0.878 4.217 0.406 0.293 0.438 0.614     397.900 0.00 0 1   12.990 13.320 10.370 12.660   0.316 1.1230   11.670 12.090 9.530 11.880   -0.765 0.3470 37.33 85.80                       145.40         14.220 5.971 8.245
UPLMET_235 2018-04-20 11:20:00 235 46891.0   12.120 12.310 11.970 9.620   45.530   0.544 0.126 0.493 0.878 4.217 0.406 0.293 0.438 0.614     397.800 0.00 0 1   12.380 12.580 9.870 12.150   1.629 1.6480   11.690 12.030 9.370 11.840   -1.655 0.9010 278.20 75.58                       145.40         13.997 6.354 7.624
UPLMET_235 2018-04-20 11:15:00 235 46891.0   11.800 12.050 11.900 9.620   46.930   0.922 0.127 0.493 0.879 4.217 0.406 0.293 0.438 0.614     398.000 0.00 0 1   12.270 12.530 9.830 12.260   1.790 1.7370   11.450 11.670 9.390 11.510   -0.768 0.6980 232.70 71.29                       145.50         13.932 6.530 7.394
UPLMET_235 2018-04-20 11:10:00 235 46891.0   11.410 11.540 11.440 9.540   49.390   1.212 0.127 0.493 0.879 4.218 0.406 0.293 0.438 0.614     398.000 0.00 0 1   11.960 11.860 10.020 11.650   1.652 2.1740   11.150 11.240 9.280 11.320   0.016 1.2320 315.90 45.56                       145.60         13.515 6.668 6.840
UPLMET_235 2018-04-20 11:05:00 235 46891.0   11.830 11.660 11.500 9.650   44.970   -0.023 0.127 0.493 0.878 4.217 0.406 0.293 0.438 0.614     398.000 0.00 0 1   11.980 11.990 9.810 11.980   0.503 2.1560   11.680 11.390 9.510 11.160   -0.710 1.4310 225.90 40.03                       145.60         13.569 6.098 7.467
UPLMET_235 2018-04-20 11:00:00 235 46891.0   12.130 12.150 11.890 9.620   41.740   -0.696 0.127 0.493 0.879 4.218 0.406 0.293 0.438 0.614     398.200 0.00 0 1   12.420 12.360 10.030 12.000   -0.216 1.6130   11.910 11.840 9.260 11.720   -1.055 0.8520 259.80 46.11                       145.60         13.923 5.805 8.112
UPLMET_235 2018-04-20 10:55:00 235 46891.0   12.350 12.460 11.960 9.550   39.120   -1.519 0.127 0.493 0.879 4.218 0.406 0.293 0.438 0.614     398.300 0.00 0 1   12.640 12.670 9.770 12.200   -1.040 1.6210   12.110 12.190 9.350 11.690   -1.865 0.8810 237.40 63.17                       145.70         13.988 5.465 8.516
UPLMET_235 2018-04-20 10:50:00 235 46891.0   12.100 12.300 11.870 9.470   37.710   -2.103 0.127 0.493 0.879 4.218 0.406 0.293 0.438 0.614     398.300 0.00 0 1   12.310 12.670 9.730 12.210   -1.018 1.5950   11.880 11.830 9.220 11.380   -2.943 0.8170 271.00 39.61                       145.80         13.905 5.234 8.661
UPLMET_235 2018-04-20 10:45:00 235 46891.0   11.450 11.430 11.090 9.290   35.880   -3.461 0.127 0.494 0.878 4.219 0.406 0.293 0.438 0.614     398.300 0.00 0 1   11.920 11.850 9.610 11.440   -3.038 2.1560   11.110 11.110 8.920 10.780   -5.167 1.0780 181.40 44.34                       145.80         13.205 4.730 8.467
UPLMET_235 2018-04-20 10:40:00 235 46891.0   11.350 11.590 11.370 9.290   33.400   -4.176 0.127 0.494 0.879 4.219 0.406 0.293 0.438 0.614     398.200 0.00 0 1   11.540 11.830 9.520 11.510   -3.560 1.6300   11.110 11.350 9.060 11.170   -5.451 0.8630 190.50 61.08                       145.90         13.452 4.483 8.959
UPLMET_235 2018-04-20 10:35:00 235 46891.0   11.010 11.260 11.360 8.960   37.140   -2.781 0.127 0.494 0.879 4.219 0.406 0.293 0.438 0.614     398.200 0.00 0 1   11.410 11.590 9.350 11.630   -0.095 1.2030   10.710 10.940 8.800 11.080   -4.305 0.6040 311.80 71.99                       145.90         13.444 4.977 8.451
UPLMET_235 2018-04-20 10:30:00 235 46891.0   11.500 11.340 11.220 8.690   45.510   -0.111 0.127 0.493 0.879 4.219 0.406 0.293 0.438 0.614     398.200 0.00 0 1   11.940 11.810 9.000 11.590   0.146 1.3100   11.150 11.120 8.450 10.960   -0.356 0.7520 146.70 30.84                       146.00         13.319 6.059 7.258
UPLMET_235 2018-04-20 10:25:00 235 46891.0   11.830 11.810 11.710 8.640   44.410   -0.008 0.127 0.494 0.879 4.218 0.406 0.293 0.438 0.614     398.200 0.00 0 1   12.080 12.060 9.170 11.790   0.361 1.3720   11.490 11.570 8.390 11.540   -0.291 0.4980 84.90 46.07                       146.10         13.759 6.104 7.648
UPLMET_235 2018-04-20 10:20:00 235 46891.0   11.920 11.660 11.310 8.400   45.300   -0.099 0.127 0.494 0.879 4.217 0.406 0.293 0.438 0.614     398.300 0.00 0 1   12.200 11.970 8.800 11.620   0.157 0.9980   11.580 11.150 8.150 10.870   -0.303 0.3480 356.60 51.18                       146.10         13.399 6.064 7.329
UPLMET_235 2018-04-20 10:15:00 235 46891.0   11.820 11.710 11.190 8.270   46.260   0.081 0.126 0.494 0.878 4.218 0.406 0.293 0.438 0.614     398.200 0.00 0 1   12.230 12.270 8.370 11.710   0.379 1.8260   11.300 11.050 8.180 10.870   -0.211 1.0580 93.70 32.33                       146.20         13.293 6.144 7.144
UPLMET_235 2018-04-20 10:10:00 235 46891.0   11.850 11.810 11.410 8.130   46.750   0.431 0.126 0.494 0.878 4.219 0.406 0.293 0.438 0.614     398.200 0.00 0 1   12.460 12.360 8.340 11.800   0.678 1.1230   11.240 11.270 7.930 11.060   0.064 0.4490 348.80 26.12                       146.20         13.488 6.302 7.182
UPLMET_235 2018-04-20 10:05:00 235 46891.0   10.960 11.120 10.850 7.955   46.950   -0.027 0.127 0.493 0.879 4.219 0.406 0.293 0.438 0.614     398.300 0.00 0 1   11.300 11.360 8.150 11.030   0.405 1.2740   10.590 10.820 7.729 10.750   -0.276 0.5100 26.87 43.66                       146.30         12.996 6.096 6.894
UPLMET_235 2018-04-20 10:00:00 235 46891.0   11.250 11.330 10.980 7.791   49.370   0.782 0.127 0.493 0.879 4.218 0.406 0.293 0.438 0.614     398.300 0.00 0 1   11.620 11.690 8.070 11.120   1.470 1.9510   10.950 10.990 7.454 10.790   0.124 0.7790 6.38 44.80                       146.30         13.109 6.464 6.637
UPLMET_235 2018-04-20 09:55:00 235 46891.0   10.460 10.480 10.100 7.680   55.360   1.560 0.127 0.494 0.879 4.218 0.406 0.293 0.438 0.614     398.100 0.00 0 1   11.340 11.500 7.827 10.720   1.859 1.1140   9.810 9.690 7.567 9.640   1.227 0.4290 37.55 53.72                       146.40         12.361 6.837 5.518
UPLMET_235 2018-04-20 09:50:00 235 46891.0   10.130 9.980 9.840 7.518   57.930   1.952 0.127 0.494 0.879 4.218 0.406 0.293 0.438 0.614     398.200 0.00 0 1   10.520 10.400 7.647 10.080   2.213 1.8620   9.750 9.600 7.258 9.480   1.656 1.0990 349.80 32.80                       146.50         12.148 7.032 5.111
UPLMET_235 2018-04-20 09:45:00 235 46891.0   9.730 9.580 9.420 7.420   60.810   2.242 0.126 0.493 0.879 4.218 0.406 0.293 0.438 0.614     398.200 0.00 0 1   9.900 9.840 7.597 9.590   2.547 1.9240   9.370 9.420 7.159 9.160   1.854 1.1200 330.70 40.24                       146.50         11.810 7.179 4.628
UPLMET_235 2018-04-20 09:40:00 235 46891.0   9.200 9.410 9.290 6.902   62.210   2.432 0.126 0.494 0.878 4.218 0.406 0.293 0.438 0.614     398.300 0.00 0 1   9.510 9.900 7.192 9.610   2.668 2.8870   8.990 8.870 6.723 9.050   1.784 1.0160 35.06 54.95                       146.50         11.707 7.277 4.424
UPLMET_235 2018-04-20 09:35:00 235 46891.0   8.950 8.840 9.070 7.033   62.600   2.320 0.126 0.494 0.878 4.218 0.406 0.293 0.438 0.614     398.200 0.00 0 1   9.230 9.060 7.271 9.190   2.564 2.0760   8.660 8.610 6.818 8.920   2.018 1.2830 337.30 37.53                       146.60         11.534 7.219 4.314
UPLMET_235 2018-04-20 09:30:00 235 46891.0   8.970 8.710 9.080 6.976   63.230   2.468 0.127 0.494 0.878 4.218 0.406 0.293 0.438 0.614     398.400 0.10 0 1   9.160 8.970 7.047 9.390   2.622 2.2810   8.770 8.520 6.881 8.890   2.312 1.3130 342.40 24.31                       146.60         11.542 7.296 4.244
UPLMET_235 2018-04-20 09:25:00 235 46891.0   9.380 9.450 9.440 6.990   60.380   2.154 0.127 0.494 0.879 4.219 0.406 0.293 0.438 0.614     398.100 0.00 0 1   9.930 9.840 7.312 9.620   2.573 1.4880   9.040 8.990 6.686 9.340   1.582 0.7920 305.20 54.43                       146.70         11.826 7.134 4.685
UPLMET_235 2018-04-20 09:20:00 235 46891.0   9.890 9.830 9.610 6.920   59.160   2.033 0.127 0.494 0.879 4.218 0.406 0.293 0.438 0.614     398.300 0.00 0 1   10.110 10.080 7.163 9.930   2.339 0.7040   9.740 9.630 6.787 9.370   1.665 0.2400 174.90 70.43                       146.70         11.962 7.073 4.885
UPLMET_235 2018-04-20 09:15:00 235 46891.0   10.370 10.680 10.340 6.744   57.860   2.401 0.127 0.494 0.879 4.219 0.406 0.293 0.438 0.614     398.200 0.00 0 1   11.070 11.700 6.940 10.840   2.746 2.0050   9.650 9.660 6.505 9.530   2.002 0.7110 344.40 68.61                       146.80         12.561 7.261 5.293
UPLMET_235 2018-04-20 09:10:00 235 46891.0   9.980 10.860 10.170 6.501   59.830   2.721 0.127 0.494 0.879 4.219 0.406 0.293 0.438 0.614     398.300 0.00 0 1   10.370 11.130 6.699 10.450   2.868 1.5680   9.650 10.660 6.281 9.940   2.547 0.4350 86.90 20.11                       146.80         12.419 7.429 4.989
UPLMET_235 2018-04-20 09:05:00 235 46891.0   9.740 10.590 10.460 6.307   59.340   2.876 0.127 0.494 0.879 4.220 0.406 0.293 0.439 0.614     398.300 0.00 0 1   10.370 11.020 6.477 10.740   3.070 0.9000   9.360 10.370 6.046 10.230   2.637 0.1830 316.60 36.46                       146.70         12.662 7.511 5.149
UPLMET_235 2018-04-20 09:00:00 235 46891.0   10.240 10.510 10.260 7.006   59.660   2.764 0.127 0.495 0.879 4.220 0.406 0.293 0.439 0.614     398.200 0.00 0 1   10.550 10.730 7.237 10.580   2.878 1.0870   9.710 10.050 6.439 9.800   2.631 0.2300 334.50 39.61                       144.50         12.494 7.451 5.040
UPLMET_235 2018-04-20 08:55:00 235 46891.0   9.610 9.720 9.790 7.045   59.920   2.368 0.127 0.494 0.879 4.220 0.406 0.293 0.439 0.614     398.200 0.00 0 1   9.950 10.210 7.171 10.240   2.793 2.1030   9.300 9.240 6.855 9.490   1.793 0.8610 2.22 40.22                       142.30         12.107 7.244 4.852
UPLMET_235 2018-04-20 08:50:00 235 46891.0   10.280 10.540 10.220 7.623   48.620   -0.173 0.126 0.495 0.879 4.219 0.406 0.293 0.439 0.614     398.200 0.00 0 1   10.690 10.910 8.110 10.640   1.980 1.8000   9.730 10.210 6.956 9.800   -2.020 0.6300 40.11 67.07                       141.40         12.461 6.031 6.402
UPLMET_235 2018-04-20 08:45:00 235 46891.0   10.550 10.640 10.110 8.060   45.040   -1.275 0.127 0.494 0.878 4.219 0.407 0.293 0.439 0.614     398.200 0.00 0 1   10.920 11.020 8.260 10.400   0.188 1.7550   10.260 10.320 7.767 9.820   -2.073 0.8510 154.30 29.68                       140.70         12.370 5.564 6.798
UPLMET_235 2018-04-20 08:40:00 235 46891.0   10.270 10.440 10.270 7.730   44.960   -1.150 0.126 0.495 0.879 4.220 0.406 0.293 0.439 0.614     398.300 0.00 0 1   10.640 10.900 7.952 10.670   -0.606 2.0940   10.010 10.000 7.361 9.960   -2.275 0.5150 137.00 31.09                       140.10         12.503 5.615 6.881
UPLMET_235 2018-04-20 08:35:00 235 46891.0   10.760 10.880 10.270 7.594   45.450   -1.002 0.127 0.494 0.879 4.220 0.407 0.294 0.439 0.614     398.100 0.00 0 1   11.050 11.150 7.742 10.450   -0.459 1.9870   10.290 10.320 7.367 10.030   -1.831 0.7890 111.00 28.12                       139.60         12.503 5.677 6.820
UPLMET_235 2018-04-20 08:30:00 235 46891.0   9.980 10.240 9.550 7.528   47.610   -1.032 0.126 0.495 0.878 4.220 0.407 0.294 0.439 0.614     398.200 0.00 0 1   10.460 10.700 7.897 10.070   1.176 1.6480   9.670 9.900 6.882 9.220   -2.141 0.6930 150.10 38.18                       139.00         11.913 5.664 6.241
UPLMET_235 2018-04-20 08:25:00 235 46891.0   9.680 9.880 9.520 7.197   51.820   0.096 0.126 0.495 0.878 4.220 0.407 0.294 0.439 0.614     398.100 0.00 0 1   10.060 10.460 7.613 9.920   1.176 1.1760   9.090 9.180 6.621 8.850   -0.864 0.4170 49.51 42.85                       138.40         11.889 6.151 5.728
UPLMET_235 2018-04-20 08:20:00 235 46891.0   9.320 9.300 8.980 7.390   54.000   0.173 0.126 0.494 0.878 4.220 0.407 0.294 0.439 0.614     398.200 0.00 0 1   9.680 9.570 7.712 9.220   0.861 1.4790   9.020 9.120 7.009 8.850   -1.086 0.9030 151.80 17.57                       137.70         11.464 6.185 5.274
UPLMET_235 2018-04-20 08:15:00 235 46891.0   10.050 9.960 9.540 7.381   51.760   0.100 0.126 0.495 0.878 4.220 0.407 0.294 0.439 0.614     398.100 0.00 0 1   10.420 10.330 7.597 9.880   1.309 1.6750   9.600 9.550 7.168 9.140   -1.175 0.9780 139.90 37.10                       137.10         11.905 6.152 5.743
UPLMET_235 2018-04-20 08:10:00 235 46891.0   9.680 9.720 9.370 7.181   54.160   0.573 0.126 0.494 0.878 4.219 0.407 0.294 0.439 0.614     398.100 0.00 0 1   10.380 10.320 7.528 9.850   1.355 2.1200   9.300 9.380 6.872 9.080   -0.340 0.7490 121.00 24.93                       136.50         11.770 6.367 5.395
UPLMET_235 2018-04-20 08:05:00 235 46891.0   9.780 10.060 9.710 6.872   52.060   0.343 0.126 0.494 0.878 4.220 0.407 0.294 0.439 0.614     398.200 0.00 0 1   9.940 10.260 7.517 9.920   1.063 1.2920   9.540 9.840 6.482 9.380   0.000 0.5230 118.90 74.03                       135.90         12.042 6.262 5.773
UPLMET_235 2018-04-20 08:00:00 235 46891.0   9.690 9.780 9.420 6.791   55.290   0.914 0.126 0.494 0.878 4.220 0.407 0.294 0.439 0.614     398.200 0.00 0 1   9.810 9.950 7.134 9.700   1.416 1.0690   9.380 9.590 6.290 9.080   0.665 0.2930 44.55 55.84                       135.30         11.810 6.526 5.280
UPLMET_235 2018-04-20 07:55:00 235 46891.0   9.920 10.020 9.290 6.636   58.690   1.615 0.126 0.495 0.878 4.220 0.407 0.294 0.439 0.614     398.200 0.00 0 1   10.350 10.320 7.040 9.570   2.419 1.1490   9.400 9.540 6.101 8.930   0.508 0.5440 120.90 33.63                       134.70         11.707 6.864 4.836
UPLMET_235 2018-04-20 07:50:00 235 46891.0   10.510 10.500 10.010 6.273   57.020   1.887 0.126 0.494 0.878 4.221 0.407 0.294 0.439 0.614     398.200 0.00 0 1   10.770 10.750 6.451 10.260   2.424 0.9440   10.010 10.220 6.092 9.630   1.319 0.5740 71.98 37.91                       134.10         12.287 6.999 5.281
UPLMET_235 2018-04-20 07:45:00 235 46891.0   10.290 10.720 10.190 5.917   57.340   2.138 0.126 0.495 0.878 4.220 0.407 0.294 0.439 0.614     398.300 0.00 0 1   10.400 10.950 6.279 10.320   2.639 1.0510   10.000 10.390 5.589 9.900   1.807 0.3080 33.47 4.99                       133.60         12.436 7.126 5.305
UPLMET_235 2018-04-20 07:40:00 235 46891.0   10.190 10.090 9.330 5.247   63.450   2.749 0.126 0.494 0.877 4.221 0.407 0.294 0.439 0.614     398.300 0.00 0 1   10.530 10.340 5.593 9.890   3.052 0.6500   9.810 9.480 5.123 8.840   1.923 0.2480 45.48 6.22                       133.10         11.738 7.443 4.290
UPLMET_235 2018-04-20 07:35:00 235 46891.0   9.690 9.480 8.910 5.192   65.230   2.739 0.125 0.494 0.877 4.220 0.407 0.294 0.439 0.614     398.200 0.00 0 1   9.860 9.630 5.514 8.980   2.990 1.0420   9.440 9.320 4.984 8.850   2.392 0.6550 74.76 10.92                       132.60         11.410 7.438 3.967
UPLMET_235 2018-04-20 07:30:00 235 46891.0   9.490 9.790 9.230 5.736   63.690   2.704 0.126 0.494 0.877 4.219 0.407 0.294 0.439 0.614     398.100 0.00 0 1   9.760 10.250 6.371 9.430   3.286 1.5770   9.250 9.390 5.117 9.000   1.753 0.5100 61.52 15.22                       132.20         11.659 7.420 4.234
UPLMET_235 2018-04-20 07:25:00 235 46891.0   8.920 9.220 8.580 6.299   61.010   1.492 0.125 0.494 0.877 4.221 0.407 0.294 0.439 0.614     397.800 0.00 0 1   9.340 9.840 6.510 9.190   1.829 0.9710   8.360 8.470 6.036 7.820   1.208 0.1550 75.48 21.26                       131.80         11.158 6.804 4.351
UPLMET_235 2018-04-20 07:20:00 235 46891.0   7.970 8.150 7.607 6.395   64.300   1.303 0.125 0.494 0.877 4.219 0.407 0.294 0.439 0.614     397.900 0.00 0 1   8.290 8.410 6.630 7.777   1.464 1.0070   7.518 7.781 6.182 7.295   1.010 0.5070 156.90 14.38                       131.40         10.443 6.712 3.728
UPLMET_235 2018-04-20 07:15:00 235 46891.0   7.695 8.080 7.510 6.272   63.100   0.951 0.125 0.493 0.876 4.220 0.407 0.294 0.439 0.614     397.900 0.00 0 1   7.777 8.180 6.418 7.610   1.266 1.5680   7.501 7.769 6.052 7.328   0.613 0.8990 188.20 15.67                       131.10         10.374 6.544 3.828
UPLMET_235 2018-04-20 07:10:00 235 46891.0   8.340 9.240 8.290 6.082   60.930   1.195 0.124 0.494 0.875 4.220 0.407 0.294 0.439 0.614     397.700 0.00 0 1   8.840 10.150 6.176 9.010   2.036 1.2560   7.706 8.160 5.938 7.653   0.732 0.8110 179.20 20.71                       130.80         10.941 6.660 4.275
UPLMET_235 2018-04-20 07:05:00 235 46891.0   8.460 9.510 8.420 5.764   63.530   1.902 0.125 0.494 0.875 4.221 0.407 0.294 0.439 0.614     397.400 0.00 0 1   8.930 10.230 5.942 9.080   2.085 0.1250   7.961 8.820 5.609 7.853   1.668 0.0080 161.20 0.00                       130.50         11.038 7.007 4.025
UPLMET_235 2018-04-20 07:00:00 235 46891.0   7.266 7.819 7.116 5.684   68.730   1.763 0.125 0.493 0.875 4.220 0.407 0.294 0.439 0.614     397.300 0.00 0 1   7.915 8.740 5.789 7.764   1.951 0.5350   6.726 7.217 5.600 6.769   1.601 0.1110 154.70 0.69                       130.30         10.098 6.937 3.158
UPLMET_235 2018-04-20 06:55:00 235 46891.0   6.065 6.707 6.422 5.421   71.710   1.689 0.125 0.493 0.875 4.220 0.407 0.294 0.439 0.614     397.300 0.00 0 1   6.672 7.175 5.664 6.733   2.068 0.7040   5.621 6.375 5.157 6.195   1.550 0.3820 158.20 13.81                       130.00         9.627 6.901 2.724
UPLMET_235 2018-04-20 06:50:00 235 46891.0   5.254 5.925 5.784 4.959   76.260   1.931 0.124 0.493 0.875 4.221 0.407 0.294 0.439 0.614     397.300 0.00 0 1   5.595 6.346 5.152 6.188   2.149 1.0600   4.984 5.551 4.788 5.441   1.781 0.2080 166.30 0.75                       129.80         9.212 7.021 2.187
UPLMET_235 2018-04-20 06:45:00 235 46891.0   4.782 5.193 5.245 4.757   78.290   1.778 0.125 0.493 0.875 4.221 0.407 0.294 0.439 0.614     397.300 0.00 0 1   4.958 5.514 4.873 5.411   2.003 0.5080   4.588 4.953 4.644 5.114   1.637 0.1770 166.80 4.59                       129.60         8.873 6.945 1.926
UPLMET_235 2018-04-20 06:40:00 235 46891.0   4.448 4.765 4.890 4.701   79.750   1.691 0.125 0.493 0.875 4.221 0.407 0.294 0.439 0.614     397.300 0.00 0 1   4.571 4.934 4.805 5.104   1.793 0.0000   4.352 4.625 4.445 4.692   1.611 0.0000 0.00 0.00                       129.40         8.656 6.902 1.753
UPLMET_235 2018-04-20 06:35:00 235 46891.0   4.192 4.522 4.551 4.353   81.000   1.577 0.125 0.494 0.875 4.221 0.407 0.294 0.439 0.614     397.300 0.00 0 1   4.329 4.615 4.526 4.669   1.638 0.0000   4.120 4.427 4.095 4.404   1.515 0.0000 0.00 0.00                       129.20         8.453 6.845 1.606
UPLMET_235 2018-04-20 06:30:00 235 46891.0   3.936 4.214 4.233 4.112   83.200   1.640 0.125 0.493 0.874 4.222 0.407 0.294 0.440 0.614     397.300 0.00 0 1   4.105 4.407 4.281 4.391   1.776 0.0620   3.773 4.045 3.889 4.057   1.523 0.0040 168.10 0.00                       129.00         8.267 6.876 1.389
UPLMET_235 2018-04-20 06:25:00 235 46891.0   3.530 3.884 3.905 3.595   86.300   1.831 0.125 0.493 0.874 4.221 0.407 0.294 0.440 0.614     397.300 0.00 0 1   3.758 4.031 3.877 4.041   1.976 0.7840   3.371 3.779 3.335 3.816   1.666 0.4170 185.60 13.09                       128.80         8.078 6.971 1.107
UPLMET_235 2018-04-20 06:20:00 235 46891.0   3.362 3.836 3.857 3.647   85.000   1.565 0.124 0.493 0.875 4.221 0.407 0.294 0.440 0.614     397.400 0.00 0 1   3.536 3.984 3.930 3.985   1.903 1.3540   3.067 3.604 3.400 3.664   1.317 0.5590 195.50 10.02                       128.60         8.051 6.839 1.208
UPLMET_235 2018-04-20 06:15:00 235 46891.0   2.955 3.579 3.617 3.262   87.200   1.698 0.125 0.493 0.875 4.221 0.407 0.294 0.440 0.614     397.400 0.00 0 1   3.080 3.745 3.564 3.698   1.797 1.3450   2.806 3.454 2.896 3.529   1.579 0.8470 186.70 18.93                       128.30         7.916 6.905 1.013
UPLMET_235 2018-04-20 06:10:00 235 46891.0   2.862 3.292 3.296 3.167   89.600   1.757 0.125 0.493 0.875 4.221 0.407 0.294 0.440 0.614     397.300 0.00 0 1   3.012 3.581 3.523 3.549   1.821 1.1760   2.660 3.050 2.772 3.096   1.715 0.5480 215.20 12.17                       128.10         7.738 6.934 0.805
UPLMET_235 2018-04-20 06:05:00 235 46891.0   2.458 2.930 2.997 2.658   91.800   1.803 0.125 0.493 0.874 4.222 0.407 0.294 0.440 0.614     397.300 0.00 0 1   2.685 3.081 2.925 3.112   1.859 0.8550   2.334 2.871 2.544 2.957   1.703 0.3670 186.90 14.39                       127.90         7.576 6.957 0.621
UPLMET_235 2018-04-20 06:00:00 235 46891.0   2.109 2.720 2.807 2.503   92.400   1.704 0.125 0.493 0.875 4.222 0.407 0.294 0.440 0.614     397.300 0.00 0 1   2.414 2.924 2.766 3.003   1.841 0.8550   1.899 2.557 2.151 2.600   1.497 0.5480 214.20 19.29                       127.60         7.474 6.908 0.568
UPLMET_235 2018-04-20 05:55:00 235 46891.0   1.802 2.307 2.332 2.093   93.700   1.419 0.125 0.493 0.875 4.222 0.407 0.294 0.440 0.614     397.200 0.00 0 1   2.057 2.540 2.423 2.583   1.629 1.1760   1.630 2.163 1.802 2.133   1.247 0.8040 219.90 15.93                       127.20         7.226 6.768 0.455
UPLMET_235 2018-04-20 05:50:00 235 46891.0   1.580 1.998 1.987 1.736   93.900   1.103 0.125 0.493 0.875 4.222 0.407 0.294 0.440 0.614     397.100 0.00 0 1   1.748 2.130 1.954 2.103   1.212 1.3450   1.401 1.809 1.432 1.826   0.857 0.8770 225.30 11.78                       126.50         7.050 6.616 0.430
UPLMET_235 2018-04-20 05:45:00 235 46891.0   1.350 1.773 1.749 1.447   94.100   0.901 0.125 0.493 0.875 4.222 0.407 0.294 0.440 0.614     397.300 0.00 0 1   1.517 1.913 1.740 1.855   1.094 1.0690   1.209 1.679 1.246 1.667   0.752 0.8180 229.10 1.43                       128.10         6.930 6.520 0.409
UPLMET_235 2018-04-20 05:40:00 235 46891.0   1.455 1.809 1.764 1.541   93.700   0.860 0.125 0.493 0.875 4.222 0.407 0.294 0.440 0.614     397.200 0.00 0 1   1.525 1.890 1.634 1.813   0.953 1.1670   1.280 1.708 1.399 1.690   0.727 0.9380 225.70 8.34                       128.10         6.938 6.501 0.437
UPLMET_235 2018-04-20 05:35:00 235 46891.0   1.460 1.841 1.845 1.524   92.900   0.820 0.126 0.493 0.875 4.221 0.407 0.294 0.440 0.614     397.200 0.00 0 1   1.622 1.991 1.819 1.975   1.012 1.0960   1.243 1.667 1.252 1.690   0.668 0.8730 216.20 2.65                       128.00         6.978 6.482 0.495
UPLMET_235 2018-04-20 05:30:00 235 46891.0   1.594 1.967 1.926 1.662   92.400   0.828 0.126 0.493 0.874 4.221 0.407 0.294 0.440 0.614     397.100 0.00 0 1   1.773 2.114 1.917 1.991   0.958 1.2650   1.395 1.766 1.353 1.826   0.675 1.0410 237.30 5.64                       127.90         7.019 6.486 0.533
UPLMET_235 2018-04-20 05:25:00 235 46891.0   1.416 1.889 1.831 1.675   93.400   0.879 0.126 0.493 0.875 4.222 0.407 0.294 0.440 0.614     397.300 0.00 0 1   1.604 2.074 1.888 1.995   0.986 1.1670   1.195 1.706 1.483 1.644   0.724 0.8610 231.40 9.59                       127.70         6.971 6.510 0.460
UPLMET_235 2018-04-20 05:20:00 235 46891.0   1.121 1.519 1.491 1.271   94.100   0.645 0.126 0.493 0.874 4.222 0.407 0.294 0.440 0.614     397.200 0.00 0 1   1.212 1.685 1.474 1.627   0.804 1.4430   1.056 1.407 1.160 1.389   0.561 0.8790 247.30 10.31                       127.60         6.803 6.401 0.401
UPLMET_235 2018-04-20 05:15:00 235 46891.0   0.915 1.354 1.364 1.101   94.100   0.518 0.126 0.493 0.875 4.222 0.407 0.294 0.440 0.614     397.200 0.00 0 1   1.053 1.411 1.174 1.396   0.602 0.8200   0.816 1.296 1.013 1.323   0.473 0.6140 234.40 12.71                       127.40         6.741 6.342 0.398
UPLMET_235 2018-04-20 05:10:00 235 46891.0   0.783 1.221 1.258 1.033   95.000   0.553 0.126 0.493 0.874 4.221 0.407 0.294 0.440 0.614     397.100 0.00 0 1   0.867 1.313 1.159 1.346   0.610 0.6060   0.731 1.124 0.899 1.134   0.455 0.4190 205.10 0.10                       127.10         6.690 6.358 0.335
UPLMET_235 2018-04-20 05:05:00 235 46891.0   0.636 1.018 1.031 0.852   95.700   0.424 0.126 0.493 0.875 4.222 0.407 0.294 0.440 0.614     397.200 0.00 0 1   0.798 1.160 1.034 1.147   0.515 0.7480   0.462 0.878 0.621 0.906   0.301 0.5400 205.50 0.28                       126.80         6.582 6.299 0.283
UPLMET_235 2018-04-20 05:00:00 235 46891.0   0.468 0.877 0.910 0.605   95.300   0.241 0.127 0.494 0.875 4.221 0.407 0.294 0.440 0.614     397.200 0.00 0 1   0.596 0.984 0.751 1.008   0.321 0.9350   0.413 0.828 0.507 0.856   0.148 0.7840 205.30 0.10                       128.10         6.524 6.216 0.307
UPLMET_235 2018-04-20 04:55:00 235 46891.0   0.564 0.971 1.012 0.706   94.400   0.220 0.127 0.493 0.875 4.222 0.407 0.294 0.440 0.614     397.200 0.00 0 1   0.607 1.018 0.780 1.078   0.314 1.0420   0.519 0.936 0.656 0.969   0.176 0.9020 208.70 1.81                       128.00         6.573 6.206 0.368
UPLMET_235 2018-04-20 04:50:00 235 46891.0   0.822 1.200 1.212 0.915   94.000   0.350 0.127 0.493 0.875 4.222 0.407 0.294 0.440 0.614     397.200 0.00 0 1   0.964 1.321 1.127 1.316   0.563 1.0160   0.609 1.024 0.687 1.068   0.214 0.6860 212.80 1.21                       127.90         6.668 6.265 0.400
UPLMET_235 2018-04-20 04:45:00 235 46891.0   0.808 1.189 1.191 0.968   94.400   0.385 0.127 0.493 0.875 4.222 0.407 0.294 0.440 0.614     397.200 0.00 0 1   0.966 1.311 1.164 1.266   0.571 1.5150   0.734 1.118 0.876 1.137   0.273 1.0490 205.00 11.48                       127.80         6.658 6.281 0.373
UPLMET_235 2018-04-20 04:40:00 235 46891.0   0.739 1.125 1.157 0.904   94.600   0.392 0.128 0.494 0.875 4.223 0.407 0.294 0.440 0.614     397.200 0.00 0 1   0.848 1.220 1.038 1.249   0.430 1.1310   0.661 1.055 0.821 1.074   0.335 0.9850 214.70 1.68                       127.70         6.642 6.284 0.359
UPLMET_235 2018-04-20 04:35:00 235 46891.0   0.716 1.092 1.139 0.814   94.700   0.381 0.128 0.494 0.875 4.223 0.407 0.294 0.440 0.614     397.200 0.00 0 1   0.846 1.224 0.957 1.273   0.455 0.9710   0.614 1.012 0.697 1.051   0.334 0.8440 202.80 8.34                       127.50         6.633 6.279 0.352
UPLMET_235 2018-04-20 04:30:00 235 46891.0   0.769 1.124 1.178 0.923   95.200   0.491 0.128 0.494 0.875 4.223 0.407 0.294 0.440 0.614     397.200 0.00 0 1   0.945 1.272 1.135 1.306   0.546 1.2650   0.556 0.964 0.700 1.058   0.341 0.9090 210.60 9.76                       127.20         6.652 6.330 0.319
UPLMET_235 2018-04-20 04:25:00 235 46891.0   0.601 0.986 1.111 0.701   94.500   0.332 0.128 0.494 0.875 4.223 0.407 0.294 0.440 0.614     397.200 0.00 0 1   0.676 1.046 0.815 1.207   0.425 1.0870   0.521 0.926 0.565 1.064   0.255 0.8120 222.90 13.16                       126.70         6.620 6.257 0.364
UPLMET_235 2018-04-20 04:20:00 235 46891.0   0.688 1.161 1.279 0.828   94.400   0.478 0.128 0.494 0.875 4.223 0.407 0.294 0.440 0.614     397.200 0.00 0 1   0.814 1.259 0.969 1.319   0.526 1.0870   0.587 1.048 0.692 1.226   0.422 0.6350 255.80 2.61                       127.70         6.700 6.324 0.375
UPLMET_235 2018-04-20 04:15:00 235 46891.0   0.778 1.276 1.297 0.973   94.300   0.489 0.128 0.494 0.875 4.223 0.407 0.294 0.440 0.614     397.200 0.00 0 1   0.900 1.333 1.086 1.342   0.565 1.3100   0.732 1.224 0.858 1.243   0.376 0.8870 243.90 6.71                       127.90         6.709 6.329 0.382
UPLMET_235 2018-04-20 04:10:00 235 46891.0   0.975 1.341 1.342 1.052   93.500   0.417 0.129 0.494 0.875 4.224 0.407 0.294 0.440 0.614     397.200 0.00 0 1   1.086 1.437 1.179 1.421   0.504 1.7280   0.884 1.264 0.925 1.259   0.309 1.4050 227.50 7.86                       127.80         6.731 6.296 0.437
UPLMET_235 2018-04-20 04:05:00 235 46891.0   1.114 1.478 1.462 1.200   93.200   0.478 0.129 0.494 0.875 4.224 0.407 0.294 0.440 0.614     397.200 0.00 0 1   1.183 1.537 1.268 1.498   0.534 1.7820   1.068 1.400 1.074 1.375   0.391 1.5040 232.00 3.40                       127.70         6.789 6.324 0.462
UPLMET_235 2018-04-20 04:00:00 235 46891.0   0.976 1.338 1.361 1.100   93.600   0.438 0.129 0.494 0.875 4.223 0.407 0.294 0.440 0.614     397.200 0.00 0 1   1.069 1.467 1.227 1.474   0.509 1.8350   0.799 1.150 0.856 1.246   0.302 1.5970 229.50 3.73                       127.50         6.740 6.305 0.431
UPLMET_235 2018-04-20 03:55:00 235 46891.0   0.920 1.296 1.388 0.969   92.800   0.353 0.129 0.494 0.875 4.224 0.407 0.294 0.440 0.614     397.300 0.00 0 1   1.024 1.435 1.165 1.468   0.427 1.6040   0.812 1.155 0.830 1.249   0.269 1.4160 232.20 3.84                       127.20         6.753 6.266 0.486
UPLMET_235 2018-04-20 03:50:00 235 46891.0   0.890 1.323 1.409 1.012   92.900   0.395 0.129 0.495 0.875 4.223 0.407 0.294 0.440 0.614     397.200 0.00 0 1   1.013 1.429 1.157 1.461   0.452 1.6130   0.756 1.207 0.823 1.362   0.297 1.2260 237.30 1.98                       126.60         6.763 6.286 0.480
UPLMET_235 2018-04-20 03:45:00 235 46891.0   1.065 1.464 1.475 1.191   92.500   0.392 0.130 0.494 0.875 4.224 0.407 0.294 0.440 0.614     397.200 0.00 0 1   1.155 1.546 1.307 1.557   0.432 1.9510   0.837 1.285 0.883 1.395   0.287 1.5470 232.10 2.49                       128.10         6.795 6.284 0.510
UPLMET_235 2018-04-20 03:40:00 235 46891.0   1.083 1.367 1.328 1.123   93.500   0.403 0.130 0.494 0.875 4.224 0.407 0.294 0.440 0.614     397.300 0.00 0 1   1.107 1.431 1.194 1.398   0.442 1.6660   1.055 1.308 1.035 1.269   0.382 1.4670 226.90 1.89                       128.00         6.724 6.289 0.437
UPLMET_235 2018-04-20 03:35:00 235 46891.0   0.950 1.234 1.221 0.991   94.700   0.462 0.130 0.494 0.875 4.224 0.407 0.294 0.440 0.614     397.200 0.00 0 1   1.062 1.315 1.094 1.283   0.534 1.5410   0.834 1.131 0.883 1.180   0.402 1.2790 226.00 1.96                       127.90         6.672 6.316 0.354
UPLMET_235 2018-04-20 03:30:00 235 46891.0   0.769 1.153 1.261 0.874   95.400   0.604 0.130 0.494 0.874 4.225 0.407 0.294 0.440 0.614     397.200 0.00 0 1   0.810 1.236 1.052 1.338   0.766 1.2210   0.754 1.069 0.761 1.157   0.474 0.7340 248.10 4.39                       127.80         6.692 6.382 0.308
UPLMET_235 2018-04-20 03:25:00 235 46891.0   0.650 1.064 1.211 0.920   95.700   0.605 0.131 0.494 0.874 4.225 0.407 0.294 0.441 0.614     397.200 0.00 0 1   0.790 1.233 1.072 1.318   0.762 0.9180   0.498 0.937 0.739 1.160   0.470 0.5510 248.00 8.26                       127.60         6.668 6.382 0.287
UPLMET_235 2018-04-20 03:20:00 235 46891.0   0.807 1.145 1.271 0.780   94.500   0.486 0.130 0.494 0.875 4.225 0.407 0.294 0.441 0.614     397.200 0.00 0 1   1.064 1.386 1.030 1.424   0.577 0.5610   0.520 0.942 0.583 1.173   0.450 0.1390 231.50 0.00                       127.40         6.696 6.327 0.368
UPLMET_235 2018-04-20 03:15:00 235 46891.0   1.062 1.472 1.539 1.174   93.900   0.671 0.131 0.494 0.874 4.225 0.407 0.294 0.441 0.614     397.200 0.00 0 1   1.149 1.545 1.259 1.639   0.755 1.0160   0.985 1.410 1.083 1.444   0.599 0.6420 238.90 6.93                       126.90         6.827 6.413 0.416
UPLMET_235 2018-04-20 03:10:00 235 46891.0   1.161 1.607 1.728 1.279   93.500   0.796 0.131 0.495 0.875 4.226 0.407 0.294 0.441 0.614     397.300 0.00 0 1   1.262 1.677 1.387 1.785   0.889 1.5230   1.023 1.513 1.128 1.639   0.697 0.9030 250.70 1.57                       127.50         6.920 6.471 0.450
UPLMET_235 2018-04-20 03:05:00 235 46891.0   1.125 1.552 1.585 1.298   94.100   0.739 0.131 0.494 0.874 4.226 0.407 0.294 0.441 0.614     397.300 0.00 0 1   1.244 1.694 1.483 1.745   0.936 1.7730   1.016 1.475 1.163 1.520   0.635 1.4890 236.00 8.50                       128.10         6.849 6.444 0.404
UPLMET_235 2018-04-20 03:00:00 235 46891.0   0.922 1.376 1.406 1.130   94.100   0.556 0.131 0.494 0.874 4.226 0.407 0.294 0.441 0.614     397.200 0.00 0 1   1.124 1.518 1.327 1.550   0.690 1.8710   0.816 1.310 1.029 1.322   0.455 1.6430 226.70 2.15                       128.00         6.762 6.359 0.399
UPLMET_235 2018-04-20 02:55:00 235 46891.0   0.827 1.236 1.237 0.990   94.300   0.428 0.132 0.494 0.874 4.226 0.407 0.294 0.441 0.614     397.200 0.00 0 1   0.877 1.318 1.065 1.341   0.488 1.7110   0.719 1.092 0.824 1.110   0.331 1.5890 229.00 0.75                       127.80         6.680 6.301 0.381
UPLMET_235 2018-04-20 02:50:00 235 46891.0   0.804 1.091 1.112 0.794   94.200   0.292 0.132 0.495 0.874 4.226 0.407 0.294 0.441 0.614     397.300 0.00 0 1   0.869 1.129 0.875 1.146   0.336 1.3720   0.727 1.056 0.743 1.076   0.273 1.3230 222.60 1.63                       127.60         6.620 6.239 0.384
UPLMET_235 2018-04-20 02:45:00 235 46891.0   0.861 1.114 1.158 0.832   93.800   0.265 0.132 0.495 0.875 4.227 0.407 0.294 0.441 0.614     397.200 0.00 0 1   0.883 1.146 0.902 1.262   0.345 1.1940   0.830 1.092 0.789 1.119   0.210 0.9400 232.00 10.06                       127.40         6.642 6.227 0.412
UPLMET_235 2018-04-20 02:40:00 235 46891.0   1.049 1.331 1.354 1.012   92.900   0.340 0.133 0.495 0.874 4.226 0.407 0.294 0.441 0.614     397.200 0.00 0 1   1.157 1.455 1.208 1.440   0.401 0.9270   0.878 1.156 0.802 1.252   0.268 0.7090 252.80 4.45                       127.00         6.737 6.261 0.478
UPLMET_235 2018-04-20 02:35:00 235 46891.0   1.043 1.336 1.357 1.134   93.800   0.472 0.133 0.495 0.875 4.227 0.407 0.294 0.441 0.614     397.000 0.00 0 1   1.183 1.475 1.369 1.470   0.535 0.5080   0.847 1.173 0.712 1.248   0.421 0.0840 256.70 0.00                       127.40         6.738 6.321 0.418
UPLMET_235 2018-04-20 02:30:00 235 46891.0   0.814 1.072 1.157 0.898   95.200   0.474 0.133 0.495 0.875 4.227 0.407 0.294 0.441 0.614     397.100 0.00 0 1   1.075 1.343 1.231 1.331   0.601 0.2140   0.427 0.732 0.485 0.977   0.241 0.0320 256.70 0.01                       128.10         6.642 6.322 0.319
UPLMET_235 2018-04-20 02:25:00 235 46891.0   0.583 0.957 1.181 0.444   94.700   0.423 0.133 0.494 0.875 4.227 0.407 0.294 0.441 0.614     397.200 0.00 0 1   0.804 1.243 0.762 1.341   0.591 0.4630   0.396 0.723 0.214 0.970   0.201 0.1440 256.90 0.05                       128.00         6.653 6.298 0.353
UPLMET_235 2018-04-20 02:20:00 235 46891.0   0.926 1.375 1.400 1.007   94.600   0.635 0.133 0.495 0.875 4.227 0.407 0.294 0.441 0.614     397.300 0.00 0 1   1.003 1.435 1.116 1.427   0.674 1.1490   0.842 1.268 0.798 1.341   0.594 0.8600 253.50 7.86                       127.90         6.759 6.396 0.365
UPLMET_235 2018-04-20 02:15:00 235 46891.0   0.878 1.306 1.359 1.001   95.400   0.708 0.134 0.495 0.875 4.227 0.407 0.294 0.441 0.614     397.200 0.00 0 1   0.985 1.400 1.149 1.466   0.805 1.5500   0.687 1.078 0.775 1.136   0.580 1.1330 254.50 5.06                       127.70         6.739 6.430 0.310
UPLMET_235 2018-04-20 02:10:00 235 46891.0   0.650 1.043 1.105 0.793   96.000   0.542 0.134 0.495 0.875 4.227 0.407 0.294 0.441 0.614     397.200 0.00 0 1   0.749 1.139 0.906 1.162   0.630 1.4970   0.563 0.927 0.635 1.020   0.393 0.7810 251.70 8.86                       127.50         6.617 6.353 0.265
UPLMET_235 2018-04-20 02:05:00 235 46891.0   0.613 0.980 1.102 0.663   94.900   0.384 0.134 0.495 0.875 4.226 0.407 0.294 0.441 0.614     397.100 0.00 0 1   0.672 1.047 0.830 1.188   0.476 1.2380   0.568 0.927 0.568 1.013   0.316 0.8540 241.40 10.32                       127.10         6.615 6.281 0.337
UPLMET_235 2018-04-20 02:00:00 235 46891.0   0.905 1.311 1.380 0.985   93.100   0.383 0.135 0.495 0.875 4.227 0.407 0.294 0.441 0.614     397.200 0.00 0 1   1.097 1.468 1.228 1.476   0.495 1.6210   0.621 1.031 0.638 1.188   0.253 1.1100 242.20 16.96                       127.20         6.749 6.280 0.466
UPLMET_235 2018-04-20 01:55:00 235 46891.0   1.006 1.339 1.342 1.079   93.300   0.376 0.135 0.495 0.875 4.226 0.407 0.294 0.441 0.615     397.100 0.00 0 1   1.035 1.407 1.185 1.410   0.464 1.6130   0.960 1.294 0.988 1.310   0.306 1.2190 221.40 5.31                       128.10         6.731 6.277 0.451
UPLMET_235 2018-04-20 01:50:00 235 46891.0   1.032 1.416 1.430 1.121   92.600   0.359 0.135 0.496 0.875 4.226 0.407 0.294 0.441 0.615     397.200 0.00 0 1   1.129 1.477 1.207 1.485   0.421 1.7550   0.950 1.299 0.988 1.343   0.305 1.5390 230.60 1.26                       128.10         6.773 6.269 0.501
UPLMET_235 2018-04-20 01:45:00 235 46891.0   1.040 1.396 1.380 1.115   92.900   0.355 0.135 0.495 0.875 4.226 0.407 0.294 0.441 0.615     397.200 0.00 0 1   1.123 1.477 1.200 1.469   0.421 1.7730   0.919 1.327 1.038 1.313   0.298 1.6210 233.50 1.82                       127.90         6.749 6.267 0.479
UPLMET_235 2018-04-20 01:40:00 235 46891.0   0.902 1.332 1.343 1.046   92.600   0.279 0.136 0.495 0.875 4.227 0.407 0.294 0.441 0.615     397.200 0.00 0 1   0.919 1.344 1.070 1.383   0.309 1.7370   0.885 1.322 1.030 1.307   0.247 1.6150 232.60 2.75                       127.80         6.731 6.233 0.498
UPLMET_235 2018-04-20 01:35:00 235 46891.0   0.918 1.298 1.359 1.023   92.500   0.276 0.136 0.495 0.875 4.227 0.407 0.294 0.441 0.615     397.200 0.00 0 1   1.005 1.339 1.098 1.386   0.315 1.7460   0.819 1.269 0.954 1.326   0.246 1.6220 227.90 0.70                       127.50         6.739 6.232 0.505
UPLMET_235 2018-04-20 01:30:00 235 46891.0   0.910 1.366 1.420 1.031   92.500   0.346 0.137 0.495 0.875 4.227 0.407 0.294 0.441 0.615     397.200 0.00 0 1   1.049 1.482 1.213 1.508   0.425 1.8170   0.816 1.289 0.937 1.369   0.310 1.6830 229.40 0.67                       127.20         6.769 6.263 0.508
UPLMET_235 2018-04-20 01:25:00 235 46891.0   1.006 1.452 1.478 1.179   92.600   0.415 0.137 0.495 0.875 4.226 0.407 0.294 0.441 0.615     397.200 0.00 0 1   1.042 1.467 1.204 1.511   0.439 1.8090   0.977 1.439 1.140 1.455   0.379 1.6940 231.60 0.55                       127.30         6.797 6.295 0.503
UPLMET_235 2018-04-20 01:20:00 235 46891.0   1.015 1.509 1.558 1.217   92.300   0.449 0.137 0.495 0.875 4.226 0.407 0.294 0.441 0.615     397.300 0.00 0 1   1.106 1.604 1.278 1.637   0.497 1.7910   0.958 1.462 1.179 1.511   0.430 1.7020 231.30 0.21                       128.20         6.836 6.310 0.526
UPLMET_235 2018-04-20 01:15:00 235 46891.0   1.130 1.601 1.607 1.301   92.400   0.516 0.137 0.495 0.875 4.226 0.407 0.294 0.441 0.615     397.200 0.00 0 1   1.208 1.631 1.359 1.640   0.571 2.0400   1.085 1.560 1.247 1.570   0.471 1.8900 231.80 0.97                       128.10         6.860 6.341 0.521
UPLMET_235 2018-04-20 01:10:00 235 46891.0   1.177 1.519 1.508 1.243   93.400   0.565 0.138 0.495 0.875 4.226 0.407 0.294 0.441 0.615     397.300 0.00 0 1   1.216 1.587 1.339 1.574   0.587 2.0400   1.103 1.488 1.189 1.471   0.535 1.7430 234.70 1.83                       128.00         6.812 6.364 0.450
UPLMET_235 2018-04-20 01:05:00 235 46891.0   1.171 1.451 1.452 1.112   93.900   0.578 0.138 0.495 0.874 4.226 0.407 0.294 0.441 0.615     397.200 0.00 0 1   1.219 1.514 1.198 1.500   0.620 1.7820   1.094 1.363 0.961 1.398   0.528 1.5470 236.40 1.34                       127.90         6.784 6.370 0.414
UPLMET_235 2018-04-20 01:00:00 235 46891.0   1.228 1.551 1.487 1.253   94.200   0.665 0.138 0.495 0.875 4.226 0.407 0.294 0.441 0.615     397.300 0.00 0 1   1.264 1.589 1.297 1.517   0.761 1.8170   1.176 1.489 1.204 1.407   0.593 1.6170 237.60 1.42                       127.70         6.801 6.410 0.394
UPLMET_235 2018-04-20 00:55:00 235 46891.0   0.936 1.265 1.228 0.951   95.900   0.645 0.138 0.496 0.874 4.226 0.407 0.294 0.441 0.615     397.200 0.00 0 1   1.147 1.455 1.187 1.394   0.748 1.8710   0.793 1.162 0.786 1.142   0.555 1.5040 235.70 1.69                       127.40         6.676 6.401 0.274
UPLMET_235 2018-04-20 00:50:00 235 46891.0   0.868 1.221 1.213 0.905   95.700   0.608 0.139 0.496 0.875 4.226 0.407 0.294 0.441 0.615     397.200 0.00 0 1   0.932 1.283 1.035 1.295   0.752 1.5860   0.793 1.151 0.762 1.142   0.493 1.2350 233.80 1.71                       126.90         6.668 6.383 0.287
UPLMET_235 2018-04-20 00:45:00 235 46891.0   0.818 1.089 1.146 0.803   96.200   0.606 0.140 0.496 0.875 4.226 0.407 0.294 0.441 0.615     397.200 0.00 0 1   0.971 1.260 1.028 1.259   0.729 1.7190   0.645 0.938 0.532 1.067   0.462 1.3530 232.80 2.06                       127.80         6.636 6.382 0.252
UPLMET_235 2018-04-20 00:40:00 235 46891.0   0.939 1.259 1.299 0.923   95.200   0.624 0.140 0.496 0.875 4.225 0.406 0.294 0.441 0.615     397.400 0.00 0 1   1.044 1.426 1.195 1.407   0.754 1.6840   0.839 1.034 0.662 1.156   0.523 1.2460 233.50 0.14                       128.30         6.710 6.391 0.322
UPLMET_235 2018-04-20 00:35:00 235 46891.0   0.972 1.348 1.317 1.101   95.800   0.718 0.140 0.496 0.874 4.225 0.406 0.294 0.441 0.615     397.300 0.00 0 1   1.038 1.411 1.184 1.364   0.749 1.7640   0.917 1.284 1.044 1.246   0.672 1.4850 233.30 0.13                       128.20         6.719 6.434 0.282
UPLMET_235 2018-04-20 00:30:00 235 46891.0   0.897 1.199 1.201 0.906   95.700   0.591 0.140 0.496 0.874 4.226 0.406 0.294 0.440 0.615     397.300 0.00 0 1   0.971 1.299 1.060 1.282   0.706 1.8890   0.768 1.049 0.633 1.097   0.404 1.3730 232.90 0.93                       128.10         6.663 6.376 0.286
UPLMET_235 2018-04-20 00:25:00 235 46891.0   0.938 1.302 1.318 0.993   95.000   0.612 0.141 0.496 0.875 4.225 0.406 0.294 0.440 0.615     397.300 0.00 0 1   1.059 1.450 1.200 1.430   0.761 1.7730   0.773 1.093 0.692 1.162   0.413 1.1870 232.70 0.32                       127.90         6.719 6.385 0.336
UPLMET_235 2018-04-20 00:20:00 235 46891.0   0.992 1.372 1.369 1.094   95.200   0.693 0.141 0.496 0.875 4.227 0.406 0.294 0.440 0.614     397.300 0.00 0 1   1.046 1.428 1.172 1.394   0.744 1.7370   0.952 1.341 1.052 1.331   0.666 1.5200 233.90 1.47                       127.70         6.744 6.423 0.324
UPLMET_235 2018-04-20 00:15:00 235 46891.0   1.085 1.443 1.412 1.156   95.300   0.738 0.141 0.496 0.875 4.226 0.406 0.294 0.440 0.614     397.300 0.00 0 1   1.128 1.477 1.192 1.433   0.767 1.7550   1.034 1.393 1.109 1.390   0.691 1.6000 233.70 2.41                       127.40         6.765 6.444 0.318
UPLMET_235 2018-04-20 00:10:00 235 46891.0   1.107 1.451 1.390 1.192   96.200   0.857 0.142 0.496 0.875 4.226 0.406 0.294 0.440 0.614     397.300 0.00 0 1   1.138 1.493 1.224 1.433   0.925 1.8000   1.067 1.360 1.162 1.294   0.746 1.6000 234.70 2.58                       126.90         6.754 6.499 0.257
UPLMET_235 2018-04-20 00:05:00 235 46891.0   0.780 1.086 1.164 0.822   96.400   0.653 0.142 0.496 0.874 4.225 0.406 0.294 0.440 0.614     397.300 0.00 0 1   1.047 1.336 1.146 1.291   0.882 1.6130   0.644 0.974 0.547 1.106   0.518 0.8470 236.60 2.32                       127.90         6.645 6.404 0.239
UPLMET_235 2018-04-20 00:00:00 235 46891.0   0.974 1.285 1.403 0.870   94.700   0.644 0.143 0.496 0.875 4.225 0.406 0.294 0.440 0.614     397.400 0.00 0 1   1.158 1.561 1.139 1.641   0.821 1.4970   0.742 1.043 0.651 1.192   0.566 0.8820 241.30 0.58                       128.30         6.760 6.400 0.358
UPLMET_235 2018-04-19 23:55:00 235 46891.0   1.323 1.681 1.685 1.327   94.300   0.873 0.143 0.496 0.875 4.225 0.406 0.294 0.440 0.614     397.300 0.00 0 1   1.425 1.752 1.461 1.740   0.939 1.8170   1.125 1.543 1.061 1.634   0.760 1.5450 239.40 3.76                       128.20         6.899 6.507 0.393
UPLMET_235 2018-04-19 23:50:00 235 46891.0   1.204 1.616 1.632 1.340   94.900   0.911 0.144 0.496 0.875 4.224 0.406 0.294 0.440 0.614     397.300 0.00 0 1   1.277 1.669 1.401 1.667   0.940 1.8980   1.170 1.584 1.293 1.605   0.886 1.7660 232.60 1.46                       128.10         6.872 6.525 0.350
UPLMET_235 2018-04-19 23:45:00 235 46891.0   1.307 1.702 1.720 1.402   94.600   0.951 0.144 0.496 0.874 4.224 0.406 0.294 0.440 0.614     397.300 0.00 0 1   1.404 1.770 1.509 1.777   1.016 1.9330   1.207 1.609 1.305 1.651   0.898 1.7290 230.90 0.68                       128.00         6.916 6.544 0.373
UPLMET_235 2018-04-19 23:40:00 235 46891.0   1.302 1.754 1.773 1.467   94.700   1.020 0.144 0.496 0.875 4.226 0.406 0.294 0.440 0.614     397.300 0.00 0 1   1.396 1.774 1.497 1.793   1.039 1.9150   1.244 1.719 1.415 1.757   0.993 1.7640 231.90 1.17                       127.80         6.942 6.576 0.368
UPLMET_235 2018-04-19 23:35:00 235 46891.0   1.345 1.754 1.809 1.439   94.600   1.036 0.145 0.496 0.874 4.226 0.406 0.294 0.440 0.614     397.300 0.00 0 1   1.464 1.839 1.548 1.866   1.075 1.9780   1.259 1.718 1.385 1.763   1.013 1.7350 230.20 1.88                       127.50         6.960 6.584 0.376
UPLMET_235 2018-04-19 23:30:00 235 46891.0   1.528 1.860 1.852 1.575   94.700   1.097 0.145 0.496 0.874 4.226 0.406 0.294 0.440 0.614     397.300 0.00 0 1   1.599 1.872 1.598 1.882   1.135 1.8800   1.466 1.847 1.555 1.829   1.069 1.6730 230.40 3.85                       126.80         6.982 6.613 0.370
UPLMET_235 2018-04-19 23:25:00 235 46891.0   1.578 1.858 1.804 1.587   95.400   1.154 0.145 0.496 0.874 4.225 0.406 0.294 0.440 0.614     397.300 0.00 0 1   1.606 1.897 1.632 1.855   1.186 1.8000   1.529 1.764 1.465 1.720   1.107 1.6270 234.30 2.02                       128.20         6.958 6.640 0.320
UPLMET_235 2018-04-19 23:20:00 235 46891.0   1.507 1.762 1.708 1.472   96.100   1.148 0.146 0.496 0.874 4.225 0.406 0.293 0.440 0.614     397.300 0.00 0 1   1.535 1.800 1.553 1.743   1.186 1.6840   1.430 1.691 1.424 1.633   1.102 1.4700 237.30 0.97                       128.40         6.910 6.637 0.269
UPLMET_235 2018-04-19 23:15:00 235 46891.0   1.301 1.607 1.622 1.275   95.700   1.009 0.147 0.497 0.874 4.226 0.406 0.293 0.440 0.614     397.300 0.00 0 1   1.412 1.750 1.476 1.749   1.155 1.7190   1.161 1.440 0.991 1.504   0.832 1.2900 236.10 1.46                       128.30         6.868 6.571 0.295
UPLMET_235 2018-04-19 23:10:00 235 46891.0   1.388 1.683 1.679 1.374   95.700   1.069 0.147 0.496 0.875 4.226 0.405 0.293 0.440 0.614     397.300 0.00 0 1   1.413 1.745 1.466 1.742   1.136 1.8620   1.354 1.608 1.236 1.630   0.972 1.6040 234.30 1.92                       128.20         6.896 6.600 0.297
UPLMET_235 2018-04-19 23:05:00 235 46891.0   1.421 1.831 1.820 1.535   95.000   1.107 0.147 0.497 0.875 4.225 0.405 0.293 0.440 0.614     397.300 0.00 0 1   1.468 1.885 1.609 1.874   1.165 1.9870   1.355 1.726 1.388 1.745   1.055 1.6490 234.40 2.42                       128.10         6.966 6.618 0.348
UPLMET_235 2018-04-19 23:00:00 235 46891.0   1.411 1.831 1.838 1.571   95.000   1.131 0.148 0.497 0.874 4.225 0.405 0.293 0.440 0.614     397.400 0.00 0 1   1.473 1.893 1.628 1.887   1.178 1.8440   1.329 1.788 1.522 1.808   1.072 1.7060 233.70 1.54                       127.90         6.975 6.629 0.349
UPLMET_235 2018-04-19 22:55:00 235 46891.0   1.460 1.859 1.860 1.590   94.700   1.099 0.149 0.497 0.875 4.225 0.405 0.293 0.440 0.614     397.200 0.00 0 1   1.527 1.889 1.643 1.887   1.140 1.9420   1.385 1.819 1.550 1.827   1.063 1.7220 235.70 1.13                       127.60         6.986 6.614 0.370
UPLMET_235 2018-04-19 22:50:00 235 46891.0   1.265 1.780 1.828 1.498   95.100   1.127 0.149 0.497 0.874 4.225 0.405 0.293 0.440 0.614     397.400 0.00 0 1   1.405 1.871 1.607 1.883   1.180 1.8890   1.125 1.650 1.344 1.728   1.086 1.7400 232.40 0.55                       127.20         6.970 6.627 0.342
UPLMET_235 2018-04-19 22:45:00 235 46891.0   1.253 1.698 1.728 1.419   95.400   1.072 0.149 0.497 0.875 4.225 0.405 0.293 0.440 0.614     397.400 0.00 0 1   1.352 1.775 1.535 1.777   1.120 1.8170   1.129 1.614 1.321 1.672   1.013 1.6600 233.70 1.91                       127.90         6.920 6.601 0.318
UPLMET_235 2018-04-19 22:40:00 235 46891.0   1.246 1.696 1.716 1.439   95.600   1.084 0.149 0.497 0.875 4.225 0.405 0.293 0.440 0.614     397.300 0.00 0 1   1.333 1.770 1.529 1.761   1.126 1.9330   1.214 1.657 1.391 1.668   1.024 1.7450 231.40 0.98                       128.60         6.914 6.607 0.304
UPLMET_235 2018-04-19 22:35:00 235 46891.0   1.277 1.670 1.691 1.391   95.400   1.029 0.150 0.497 0.875 4.224 0.405 0.293 0.439 0.614     397.200 0.00 0 1   1.367 1.703 1.436 1.727   1.082 1.8000   1.210 1.643 1.339 1.674   0.999 1.7030 230.60 1.19                       128.50         6.902 6.581 0.317
UPLMET_235 2018-04-19 22:30:00 235 46891.0   1.372 1.718 1.703 1.425   95.000   0.988 0.150 0.497 0.874 4.224 0.405 0.293 0.439 0.614     397.300 0.00 0 1   1.496 1.773 1.487 1.733   1.008 1.9780   1.304 1.672 1.365 1.667   0.963 1.7900 233.30 2.92                       128.50         6.908 6.561 0.345
UPLMET_235 2018-04-19 22:25:00 235 46891.0   1.557 1.819 1.750 1.534   95.200   1.059 0.151 0.497 0.875 4.225 0.405 0.293 0.439 0.614     397.300 0.00 0 1   1.601 1.867 1.612 1.799   1.142 1.8800   1.489 1.738 1.440 1.657   0.990 1.6580 233.40 1.68                       128.30         6.931 6.595 0.333
UPLMET_235 2018-04-19 22:20:00 235 46891.0   1.460 1.753 1.671 1.457   95.700   1.061 0.151 0.497 0.875 4.225 0.405 0.293 0.439 0.614     397.300 0.00 0 1   1.546 1.802 1.563 1.716   1.142 1.7640   1.326 1.690 1.325 1.626   0.982 1.3760 237.30 1.47                       128.20         6.892 6.596 0.296
UPLMET_235 2018-04-19 22:15:00 235 46891.0   1.338 1.637 1.572 1.334   96.400   1.059 0.152 0.497 0.874 4.225 0.405 0.293 0.439 0.614     397.200 0.00 0 1   1.383 1.695 1.445 1.636   1.114 1.8980   1.238 1.593 1.268 1.543   1.010 1.5540 238.80 2.27                       128.00         6.843 6.595 0.246
UPLMET_235 2018-04-19 22:10:00 235 46891.0   1.250 1.544 1.482 1.259   96.900   1.038 0.152 0.497 0.874 4.224 0.405 0.293 0.439 0.614     397.100 0.00 0 1   1.365 1.642 1.353 1.556   1.100 1.8350   1.117 1.406 1.105 1.394   0.929 1.6730 237.10 2.83                       127.80         6.799 6.585 0.211
UPLMET_235 2018-04-19 22:05:00 235 46891.0   1.186 1.451 1.443 1.108   96.600   0.965 0.152 0.497 0.874 4.224 0.404 0.293 0.439 0.614     397.200 0.00 0 1   1.260 1.531 1.249 1.487   1.037 1.6480   1.069 1.363 0.960 1.381   0.908 1.4770 237.00 0.41                       127.30         6.780 6.550 0.231
UPLMET_235 2018-04-19 22:00:00 235 46891.0   1.272 1.551 1.552 1.193   95.800   0.958 0.153 0.497 0.874 4.224 0.404 0.292 0.439 0.614     397.200 0.00 0 1   1.306 1.654 1.346 1.667   1.023 1.6130   1.202 1.413 1.025 1.443   0.889 1.3830 236.90 0.32                       128.00         6.833 6.547 0.287
UPLMET_235 2018-04-19 21:55:00 235 46891.0   1.376 1.749 1.718 1.462   95.400   1.062 0.153 0.497 0.874 4.223 0.404 0.292 0.439 0.614     397.200 0.00 0 1   1.462 1.797 1.543 1.747   1.104 1.7640   1.272 1.666 1.356 1.664   1.020 1.5190 234.30 1.62                       129.00         6.915 6.596 0.318
UPLMET_235 2018-04-19 21:50:00 235 46891.0   1.395 1.770 1.711 1.496   95.600   1.089 0.154 0.497 0.873 4.224 0.404 0.292 0.439 0.614     397.200 0.00 0 1   1.439 1.788 1.525 1.736   1.135 2.0400   1.327 1.754 1.458 1.680   1.043 1.8440 231.90 0.99                       128.90         6.912 6.609 0.304
UPLMET_235 2018-04-19 21:45:00 235 46891.0   1.404 1.673 1.617 1.401   96.200   1.080 0.154 0.497 0.874 4.225 0.404 0.292 0.439 0.614     397.200 0.00 0 1   1.472 1.753 1.509 1.676   1.125 1.8890   1.361 1.615 1.310 1.583   1.035 1.6010 234.50 2.22                       128.90         6.865 6.605 0.261
UPLMET_235 2018-04-19 21:40:00 235 46891.0   1.330 1.677 1.637 1.406   96.100   1.082 0.155 0.497 0.873 4.225 0.404 0.292 0.439 0.614     397.200 0.00 0 1   1.374 1.708 1.454 1.665   1.127 1.8620   1.242 1.637 1.358 1.616   1.052 1.6240 234.30 2.06                       128.80         6.875 6.606 0.268
UPLMET_235 2018-04-19 21:35:00 235 46891.0   1.276 1.688 1.680 1.428   95.900   1.105 0.155 0.497 0.873 4.224 0.404 0.292 0.438 0.614     397.300 0.00 0 1   1.301 1.717 1.463 1.698   1.130 1.8260   1.240 1.655 1.386 1.662   1.077 1.7050 233.40 0.94                       128.70         6.896 6.617 0.283
UPLMET_235 2018-04-19 21:30:00 235 46891.0   1.358 1.722 1.697 1.441   95.800   1.102 0.156 0.497 0.874 4.224 0.404 0.292 0.438 0.614     397.300 0.00 0 1   1.498 1.790 1.496 1.737   1.178 1.9240   1.257 1.667 1.374 1.662   1.055 1.7230 232.40 1.82                       128.60         6.905 6.615 0.290
UPLMET_235 2018-04-19 21:25:00 235 46891.0   1.497 1.757 1.688 1.458   96.300   1.162 0.156 0.498 0.874 4.224 0.404 0.292 0.438 0.614     397.300 0.00 0 1   1.531 1.795 1.517 1.740   1.214 1.9960   1.414 1.635 1.340 1.627   1.079 1.7670 236.10 2.70                       128.50         6.900 6.644 0.255
UPLMET_235 2018-04-19 21:20:00 235 46891.0   1.478 1.709 1.744 1.330   95.100   1.042 0.157 0.498 0.874 4.225 0.404 0.292 0.438 0.614     397.300 0.00 0 1   1.681 1.927 1.573 1.918   1.135 1.8090   1.367 1.581 1.156 1.624   0.955 1.5660 239.80 1.50                       128.30         6.928 6.587 0.339
UPLMET_235 2018-04-19 21:15:00 235 46891.0   1.741 2.017 1.967 1.722   94.800   1.227 0.158 0.498 0.874 4.225 0.404 0.292 0.438 0.614     397.300 0.00 0 1   1.770 2.053 1.773 1.987   1.263 2.0130   1.707 1.972 1.653 1.931   1.180 1.8810 236.20 1.70                       128.00         7.039 6.675 0.366
UPLMET_235 2018-04-19 21:10:00 235 46891.0   1.763 2.042 1.989 1.769   94.800   1.238 0.158 0.498 0.874 4.225 0.403 0.292 0.438 0.614     397.300 0.00 0 1   1.827 2.086 1.839 2.016   1.279 1.9420   1.704 1.998 1.696 1.953   1.169 1.6570 236.50 2.56                       128.30         7.051 6.680 0.367
UPLMET_235 2018-04-19 21:05:00 235 46891.0   1.614 1.954 1.976 1.687   94.800   1.224 0.159 0.498 0.874 4.225 0.403 0.292 0.438 0.614     397.300 0.00 0 1   1.698 2.003 1.753 2.002   1.255 2.0220   1.539 1.908 1.641 1.956   1.193 1.6860 235.90 2.47                       130.20         7.044 6.674 0.366
UPLMET_235 2018-04-19 21:00:00 235 46891.0   1.700 1.980 1.997 1.666   94.200   1.165 0.159 0.497 0.873 4.225 0.403 0.291 0.438 0.614     397.400 0.00 0 1   1.827 2.106 1.800 2.106   1.212 1.9690   1.552 1.883 1.581 1.912   1.136 1.7980 235.50 2.29                       130.20         7.055 6.645 0.409
UPLMET_235 2018-04-19 20:55:00 235 46891.0   1.911 2.223 2.235 1.915   93.000   1.219 0.159 0.497 0.873 4.225 0.403 0.291 0.438 0.614     397.300 0.00 0 1   1.976 2.300 2.016 2.321   1.269 2.0670   1.830 2.119 1.803 2.123   1.175 1.7890 236.10 1.92                       130.20         7.176 6.671 0.502
UPLMET_235 2018-04-19 20:50:00 235 46891.0   1.996 2.302 2.274 1.997   93.100   1.271 0.160 0.498 0.873 4.225 0.403 0.291 0.437 0.614     397.300 0.00 0 1   2.044 2.343 2.047 2.301   1.290 1.7190   1.942 2.250 1.922 2.244   1.234 1.4760 235.70 0.98                       130.20         7.196 6.696 0.497
UPLMET_235 2018-04-19 20:45:00 235 46891.0   1.952 2.349 2.410 2.020   92.100   1.261 0.160 0.498 0.873 4.225 0.403 0.291 0.437 0.614     397.300 0.00 0 1   2.144 2.525 2.268 2.541   1.367 1.6390   1.855 2.251 1.895 2.297   1.211 1.4720 234.20 3.59                       130.20         7.266 6.692 0.574
UPLMET_235 2018-04-19 20:40:00 235 46891.0   1.939 2.320 2.350 2.043   93.300   1.385 0.161 0.498 0.873 4.226 0.403 0.291 0.437 0.614     397.300 0.00 0 1   2.133 2.518 2.271 2.528   1.442 1.7640   1.751 2.162 1.867 2.216   1.298 1.4460 228.40 6.71                       130.20         7.235 6.752 0.485
UPLMET_235 2018-04-19 20:35:00 235 46891.0   1.964 2.315 2.334 2.039   93.900   1.461 0.161 0.498 0.873 4.226 0.403 0.291 0.437 0.614     397.400 0.00 0 1   2.010 2.363 2.107 2.371   1.581 1.7910   1.874 2.254 1.956 2.295   1.340 1.5030 230.80 5.85                       130.10         7.227 6.789 0.441
UPLMET_235 2018-04-19 20:30:00 235 46891.0   1.920 2.238 2.242 1.939   94.700   1.480 0.162 0.498 0.873 4.225 0.403 0.291 0.437 0.614     397.300 0.00 0 1   1.973 2.304 2.034 2.328   1.593 1.9070   1.857 2.191 1.868 2.215   1.443 1.5470 233.40 4.86                       130.10         7.179 6.798 0.381
UPLMET_235 2018-04-19 20:25:00 235 46891.0   2.015 2.314 2.342 1.984   93.700   1.439 0.162 0.498 0.873 4.225 0.403 0.291 0.437 0.614     397.400 0.00 0 1   2.186 2.486 2.149 2.495   1.517 1.7280   1.940 2.210 1.859 2.234   1.379 1.4520 227.40 6.06                       130.00         7.231 6.778 0.456
UPLMET_235 2018-04-19 20:20:00 235 46891.0   2.206 2.513 2.526 2.204   93.300   1.558 0.163 0.498 0.873 4.225 0.402 0.291 0.437 0.614     397.300 0.00 0 1   2.284 2.544 2.279 2.597   1.599 1.7460   2.167 2.470 2.150 2.488   1.515 1.2610 228.80 9.15                       130.00         7.326 6.836 0.491
UPLMET_235 2018-04-19 20:15:00 235 46891.0   2.340 2.664 2.686 2.367   92.900   1.654 0.163 0.498 0.873 4.225 0.402 0.291 0.437 0.614     397.400 0.00 0 1   2.417 2.735 2.491 2.752   1.707 1.5770   2.242 2.572 2.170 2.617   1.532 1.1450 230.20 3.85                       129.80         7.410 6.883 0.526
UPLMET_235 2018-04-19 20:10:00 235 46891.0   2.306 2.632 2.712 2.313   92.600   1.641 0.164 0.498 0.873 4.224 0.402 0.291 0.436 0.614     397.300 0.00 0 1   2.494 2.803 2.512 2.856   1.696 1.4430   2.188 2.540 2.129 2.635   1.538 1.1280 237.80 4.68                       132.40         7.424 6.877 0.549
UPLMET_235 2018-04-19 20:05:00 235 46891.0   2.483 2.839 2.903 2.500   91.700   1.681 0.164 0.498 0.873 4.225 0.402 0.290 0.436 0.614     397.300 0.00 0 1   2.594 2.949 2.686 2.978   1.767 1.6840   2.374 2.735 2.359 2.833   1.565 1.2820 227.00 11.10                       132.70         7.525 6.897 0.625
UPLMET_235 2018-04-19 20:00:00 235 46891.0   2.822 3.133 3.166 2.809   90.800   1.817 0.164 0.498 0.873 4.225 0.402 0.290 0.436 0.614     397.300 0.00 0 1   2.940 3.291 2.997 3.331   1.875 1.6750   2.618 2.943 2.575 3.021   1.741 1.3330 227.80 3.98                       132.80         7.667 6.964 0.705
UPLMET_235 2018-04-19 19:55:00 235 46891.0   2.965 3.375 3.393 3.090   89.500   1.832 0.165 0.498 0.872 4.224 0.402 0.290 0.436 0.614     397.200 0.00 0 1   3.048 3.477 3.274 3.462   1.876 1.6040   2.907 3.299 2.983 3.334   1.760 0.9680 230.10 4.01                       132.90         7.791 6.972 0.818
UPLMET_235 2018-04-19 19:50:00 235 46891.0   2.816 3.203 3.268 2.950   90.600   1.885 0.165 0.498 0.873 4.225 0.402 0.290 0.436 0.613     397.300 0.00 0 1   2.990 3.440 3.252 3.442   1.948 1.3270   2.604 2.964 2.572 3.104   1.794 0.8280 235.50 10.62                       132.90         7.723 6.998 0.726
UPLMET_235 2018-04-19 19:45:00 235 46891.0   2.832 3.223 3.309 2.936   90.800   1.945 0.166 0.498 0.873 4.226 0.402 0.290 0.436 0.613     397.300 0.00 0 1   2.894 3.302 3.066 3.371   1.994 1.1400   2.658 3.015 2.614 3.150   1.826 0.9230 225.00 8.52                       133.00         7.745 7.028 0.713
UPLMET_235 2018-04-19 19:40:00 235 46891.0   2.895 3.271 3.373 2.986   90.400   1.954 0.166 0.498 0.873 4.225 0.402 0.290 0.436 0.613     397.200 0.00 0 1   3.044 3.384 3.196 3.463   2.015 1.3810   2.729 3.150 2.744 3.284   1.873 1.0430 233.60 11.52                       133.10         7.780 7.033 0.747
UPLMET_235 2018-04-19 19:35:00 235 46891.0   2.941 3.324 3.422 3.007   90.700   2.051 0.167 0.498 0.873 4.225 0.402 0.290 0.435 0.613     397.300 0.00 0 1   3.022 3.380 3.122 3.452   2.095 1.4250   2.864 3.266 2.832 3.383   2.002 0.9820 230.70 5.82                       133.20         7.807 7.082 0.726
UPLMET_235 2018-04-19 19:30:00 235 46891.0   3.167 3.540 3.613 3.180   89.700   2.086 0.167 0.498 0.872 4.225 0.402 0.290 0.435 0.613     397.300 0.00 0 1   3.324 3.703 3.432 3.715   2.162 1.3720   2.906 3.307 2.870 3.442   2.015 0.8940 239.20 11.34                       133.30         7.913 7.100 0.815
UPLMET_235 2018-04-19 19:25:00 235 46891.0   3.311 3.721 3.760 3.387   88.900   2.101 0.168 0.498 0.873 4.225 0.401 0.290 0.435 0.613     397.300 0.00 0 1   3.348 3.793 3.453 3.820   2.129 1.4080   3.268 3.653 3.315 3.692   2.066 0.7820 237.50 11.27                       133.50         7.996 7.107 0.888
UPLMET_235 2018-04-19 19:20:00 235 46891.0   3.428 3.863 3.857 3.577   88.600   2.155 0.168 0.498 0.873 4.224 0.401 0.290 0.435 0.613     397.400 0.00 0 1   3.455 3.902 3.689 3.908   2.208 1.4170   3.346 3.809 3.490 3.809   2.120 0.9870 230.60 11.25                       133.60         8.051 7.135 0.918
UPLMET_235 2018-04-19 19:15:00 235 46891.0   3.326 3.712 3.737 3.456   89.600   2.187 0.168 0.498 0.872 4.224 0.401 0.290 0.435 0.613     397.400 0.00 0 1   3.468 3.860 3.648 3.862   2.251 1.3360   3.136 3.540 3.158 3.619   2.114 0.8160 241.30 17.71                       133.70         7.983 7.151 0.830
UPLMET_235 2018-04-19 19:10:00 235 46891.0   3.343 3.730 3.761 3.441   89.400   2.180 0.169 0.498 0.872 4.224 0.401 0.289 0.435 0.613     397.400 0.00 0 1   3.440 3.846 3.634 3.833   2.286 1.2290   3.149 3.545 3.154 3.639   2.069 0.7550 243.30 28.55                       133.80         7.996 7.148 0.848
UPLMET_235 2018-04-19 19:05:00 235 46891.0   3.423 3.817 3.830 3.516   90.100   2.362 0.169 0.498 0.872 4.224 0.401 0.289 0.435 0.613     397.300 0.00 0 1   3.558 3.921 3.690 3.902   2.445 1.3450   3.255 3.682 3.327 3.737   2.265 0.9720 243.40 27.73                       134.00         8.035 7.241 0.796
UPLMET_235 2018-04-19 19:00:00 235 46891.0   3.430 3.815 3.865 3.540   90.600   2.470 0.169 0.498 0.872 4.224 0.401 0.289 0.435 0.613     397.400 0.00 0 1   3.510 3.859 3.641 3.897   2.543 0.9440   3.339 3.756 3.426 3.847   2.411 0.6720 242.10 17.25                       134.10         8.055 7.297 0.757
UPLMET_235 2018-04-19 18:55:00 235 46891.0   3.533 3.862 3.899 3.616   90.500   2.490 0.170 0.498 0.873 4.224 0.401 0.289 0.434 0.613     397.400 0.00 0 1   3.633 3.915 3.741 3.933   2.581 0.9890   3.318 3.744 3.359 3.841   2.382 0.5200 246.80 18.15                       134.30         8.075 7.307 0.767
UPLMET_235 2018-04-19 18:50:00 235 46891.0   3.498 3.838 3.920 3.504   91.000   2.591 0.171 0.498 0.873 4.225 0.401 0.289 0.434 0.613     397.300 0.00 0 1   3.585 3.926 3.659 3.996   2.669 0.9000   3.383 3.772 3.367 3.875   2.453 0.4710 237.70 11.09                       134.50         8.087 7.360 0.728
UPLMET_235 2018-04-19 18:45:00 235 46891.0   3.624 3.995 4.007 3.732   91.100   2.687 0.171 0.499 0.873 4.224 0.401 0.289 0.434 0.613     397.400 0.00 0 1   3.700 4.054 3.868 4.052   2.726 0.8820   3.480 3.908 3.563 3.945   2.645 0.5350 245.60 10.51                       134.60         8.136 7.411 0.724
UPLMET_235 2018-04-19 18:40:00 235 46891.0   3.548 3.898 3.960 3.557   91.500   2.706 0.171 0.498 0.872 4.224 0.401 0.289 0.434 0.613     397.500 0.00 0 1   3.715 4.021 3.725 4.037   2.792 1.0780   3.434 3.803 3.406 3.892   2.600 0.4290 235.40 12.55                       134.80         8.109 7.421 0.689
UPLMET_235 2018-04-19 18:35:00 235 46891.0   3.711 4.053 4.104 3.721   90.800   2.734 0.171 0.498 0.872 4.224 0.401 0.289 0.434 0.613     397.400 0.00 0 1   3.856 4.192 3.916 4.214   2.790 1.0780   3.604 3.972 3.595 4.033   2.672 0.7180 234.70 12.31                       134.90         8.192 7.435 0.754
UPLMET_235 2018-04-19 18:30:00 235 46891.0   3.859 4.258 4.341 3.916   89.000   2.691 0.172 0.499 0.873 4.224 0.401 0.289 0.434 0.613     397.500 0.00 0 1   3.959 4.377 4.111 4.451   2.772 1.1940   3.673 4.066 3.584 4.168   2.599 0.6320 246.20 16.87                       135.10         8.329 7.413 0.916
UPLMET_235 2018-04-19 18:25:00 235 46891.0   3.845 4.279 4.372 3.948   89.000   2.718 0.172 0.498 0.873 4.223 0.401 0.289 0.434 0.613     397.500 0.00 0 1   3.942 4.361 4.079 4.419   2.769 0.8910   3.782 4.193 3.810 4.311   2.643 0.3880 244.00 11.59                       135.30         8.348 7.427 0.918
UPLMET_235 2018-04-19 18:20:00 235 46891.0   3.864 4.272 4.334 3.989   89.000   2.679 0.173 0.498 0.873 4.223 0.400 0.289 0.434 0.613     397.400 0.00 0 1   4.042 4.413 4.203 4.416   2.780 1.1850   3.659 4.082 3.719 4.204   2.590 0.6030 245.70 28.15                       135.50         8.325 7.406 0.916
UPLMET_235 2018-04-19 18:15:00 235 46891.0   3.913 4.274 4.352 3.875   89.700   2.805 0.173 0.498 0.873 4.222 0.400 0.289 0.434 0.613     397.500 0.00 0 1   4.090 4.418 4.133 4.441   2.987 0.9350   3.717 4.044 3.436 4.177   2.484 0.6460 251.80 22.50                       135.70         8.336 7.473 0.859
UPLMET_235 2018-04-19 18:10:00 235 46891.0   4.026 4.344 4.373 3.995   90.400   2.948 0.174 0.499 0.873 4.222 0.400 0.289 0.434 0.613     397.500 0.00 0 1   4.116 4.417 4.160 4.420   3.046 1.1850   3.947 4.291 3.888 4.331   2.844 0.6430 245.10 21.49                       136.00         8.348 7.549 0.801
UPLMET_235 2018-04-19 18:05:00 235 46891.0   4.118 4.469 4.579 4.071   90.200   3.110 0.174 0.499 0.873 4.222 0.400 0.289 0.433 0.613     397.500 0.00 0 1   4.247 4.617 4.227 4.743   3.247 1.1670   4.048 4.379 3.981 4.473   3.043 0.6610 231.00 8.75                       136.30         8.470 7.637 0.830
UPLMET_235 2018-04-19 18:00:00 235 46891.0   4.406 4.748 4.877 4.398   89.300   3.274 0.175 0.498 0.873 4.223 0.400 0.289 0.433 0.613     397.500 0.00 0 1   4.479 4.815 4.523 4.963   3.360 0.9440   4.242 4.623 4.184 4.739   3.194 0.6060 249.80 19.54                       136.70         8.648 7.726 0.925
UPLMET_235 2018-04-19 17:55:00 235 46891.0   4.682 4.987 5.127 4.530   88.300   3.363 0.175 0.499 0.873 4.223 0.400 0.289 0.433 0.613     397.500 0.00 0 1   4.953 5.227 4.863 5.323   3.463 1.0510   4.370 4.743 4.237 4.947   3.199 0.3300 250.20 29.98                       137.20         8.800 7.775 1.030
UPLMET_235 2018-04-19 17:50:00 235 46891.0   5.110 5.448 5.596 4.913   86.000   3.445 0.174 0.499 0.873 4.223 0.400 0.289 0.433 0.613     397.600 0.00 0 1   5.349 5.788 5.216 5.967   3.500 0.8460   4.906 5.224 4.654 5.323   3.361 0.2440 249.90 12.70                       137.90         9.092 7.820 1.273
UPLMET_235 2018-04-19 17:45:00 235 46891.0   5.744 6.099 6.226 5.429   81.600   3.308 0.175 0.499 0.873 4.223 0.400 0.289 0.433 0.613     397.700 0.00 0 1   6.053 6.353 5.713 6.429   3.500 0.8020   5.409 5.840 5.163 6.000   3.133 0.1190 252.50 29.19                       138.70         9.498 7.745 1.748
UPLMET_235 2018-04-19 17:40:00 235 46891.0   6.146 6.392 6.447 5.743   79.320   3.133 0.175 0.499 0.873 4.223 0.400 0.288 0.433 0.613     397.800 0.00 0 1   6.247 6.448 5.858 6.517   3.254 0.3300   6.074 6.364 5.595 6.405   3.011 0.0490 30.55 21.42                       139.50         9.644 7.649 1.994
UPLMET_235 2018-04-19 17:35:00 235 46891.0   6.408 6.572 6.629 5.854   79.120   3.274 0.175 0.499 0.874 4.222 0.400 0.288 0.433 0.613     397.800 0.00 0 1   6.598 6.690 6.058 6.781   3.566 1.6130   6.242 6.431 5.580 6.511   3.105 0.6750 279.90 28.73                       140.60         9.766 7.726 2.039
UPLMET_235 2018-04-19 17:30:00 235 46891.0   6.808 6.936 6.879 6.230   77.860   3.291 0.176 0.499 0.874 4.222 0.400 0.288 0.433 0.613     397.600 0.00 0 1   6.946 7.050 6.312 6.969   3.438 2.1920   6.671 6.776 6.015 6.801   3.172 0.7630 327.00 53.59                       141.10         9.935 7.735 2.200
UPLMET_235 2018-04-19 17:25:00 235 46891.0   7.071 7.214 7.042 6.287   77.910   3.458 0.176 0.498 0.873 4.222 0.400 0.288 0.433 0.613     397.600 0.00 0 1   7.168 7.291 6.352 7.101   3.760 1.4880   6.928 7.060 6.175 6.949   3.176 0.5360 308.30 38.77                       141.40         10.047 7.827 2.219
UPLMET_235 2018-04-19 17:20:00 235 46891.0   7.083 7.242 7.150 6.051   78.960   3.753 0.176 0.499 0.873 4.222 0.400 0.288 0.433 0.613     397.700 0.00 0 1   7.132 7.284 6.304 7.292   3.927 1.1850   7.020 7.205 5.775 7.101   3.634 0.5100 8.00 28.63                       142.10         10.122 7.992 2.130
UPLMET_235 2018-04-19 17:15:00 235 46891.0   7.341 7.476 7.411 6.143   77.590   3.759 0.176 0.499 0.873 4.222 0.400 0.288 0.433 0.612     397.800 0.00 0 1   7.440 7.611 6.398 7.490   4.053 1.0420   7.094 7.298 5.685 7.322   3.607 0.5050 40.76 24.77                       142.80         10.304 7.995 2.309
UPLMET_235 2018-04-19 17:10:00 235 46891.0   7.322 7.480 7.406 6.268   77.310   3.703 0.176 0.499 0.874 4.222 0.400 0.288 0.433 0.612     397.900 0.00 0 1   7.537 7.613 6.507 7.579   3.799 1.4340   7.183 7.368 5.699 7.315   3.596 0.2830 323.10 32.40                       143.20         10.301 7.964 2.337
UPLMET_235 2018-04-19 17:05:00 235 46891.0   7.609 7.745 7.548 6.435   76.260   3.646 0.176 0.499 0.874 4.222 0.400 0.288 0.433 0.612     397.800 0.00 0 1   7.692 7.841 6.529 7.625   3.753 1.5770   7.521 7.652 6.334 7.456   3.539 0.4580 32.47 24.78                       143.60         10.401 7.932 2.469
UPLMET_235 2018-04-19 17:00:00 235 46891.0   7.423 7.587 7.376 6.384   76.380   3.502 0.177 0.499 0.873 4.222 0.400 0.288 0.433 0.612     397.800 0.00 0 1   7.542 7.674 6.467 7.453   3.615 1.2120   7.356 7.537 6.326 7.314   3.397 0.2790 65.41 42.00                       143.90         10.280 7.852 2.428
UPLMET_235 2018-04-19 16:55:00 235 46891.0   7.333 7.511 7.304 6.341   76.730   3.495 0.177 0.499 0.873 4.222 0.400 0.288 0.433 0.612     397.800 0.00 0 1   7.494 7.580 6.563 7.383   3.618 1.2120   7.196 7.451 6.138 7.211   3.364 0.5280 20.93 39.93                       144.20         10.229 7.848 2.380
UPLMET_235 2018-04-19 16:50:00 235 46891.0   7.184 7.328 7.264 6.221   76.320   3.381 0.176 0.499 0.873 4.221 0.400 0.288 0.433 0.612     397.900 0.00 0 1   7.249 7.415 6.399 7.290   3.639 1.4520   7.144 7.251 6.083 7.237   3.226 0.7800 22.02 28.14                       144.60         10.201 7.785 2.416
UPLMET_235 2018-04-19 16:45:00 235 46891.0   7.153 7.235 7.194 6.340   76.050   3.264 0.176 0.499 0.873 4.221 0.400 0.288 0.433 0.612     397.900 0.00 0 1   7.234 7.317 6.412 7.290   3.382 1.1850   7.075 7.161 6.214 7.124   3.009 0.6450 336.70 80.60                       144.70         10.152 7.720 2.431
UPLMET_235 2018-04-19 16:40:00 235 46891.0   7.371 7.454 7.434 6.334   74.930   3.285 0.176 0.499 0.873 4.221 0.400 0.288 0.433 0.612     397.900 0.00 0 1   7.536 7.634 6.429 7.622   3.503 1.4340   7.182 7.265 6.246 7.141   3.013 0.6000 146.80 91.90                       144.80         10.320 7.732 2.587
UPLMET_235 2018-04-19 16:35:00 235 46891.0   7.716 7.929 7.845 6.281   73.810   3.471 0.176 0.499 0.873 4.221 0.400 0.288 0.433 0.612     397.800 0.00 0 1   7.930 8.160 6.393 7.965   3.695 1.9960   7.461 7.650 6.158 7.632   3.275 0.7100 26.75 38.64                       145.10         10.614 7.834 2.780
UPLMET_235 2018-04-19 16:30:00 235 46891.0   7.640 7.975 7.774 6.580   73.750   3.389 0.176 0.498 0.872 4.222 0.400 0.288 0.433 0.612     397.800 0.00 0 1   7.767 8.170 6.835 7.863   3.623 1.5770   7.571 7.894 6.414 7.692   3.104 0.7690 290.00 52.45                       146.30         10.563 7.789 2.773
UPLMET_235 2018-04-19 16:25:00 235 46891.0   7.787 8.110 7.734 6.541   73.660   3.331 0.176 0.498 0.873 4.222 0.400 0.288 0.433 0.612     397.900 0.00 0 1   7.918 8.430 6.725 7.902   3.474 1.4170   7.604 7.707 6.397 7.360   3.107 0.5300 307.20 32.02                       145.60         10.534 7.757 2.775
UPLMET_235 2018-04-19 16:20:00 235 46891.0   7.531 7.500 7.364 6.422   75.360   3.299 0.177 0.499 0.873 4.220 0.400 0.288 0.433 0.612     398.000 0.00 0 1   7.583 7.659 6.551 7.403   3.370 1.2740   7.409 7.365 6.327 7.304   3.193 0.4340 73.04 58.69                       144.30         10.271 7.740 2.531
UPLMET_235 2018-04-19 16:15:00 235 46891.0   7.340 7.337 7.253 6.545   75.220   3.165 0.177 0.498 0.873 4.221 0.400 0.288 0.433 0.612     397.900 0.00 0 1   7.540 7.491 6.661 7.360   3.436 2.1920   7.193 7.203 6.417 7.148   2.990 1.3230 288.10 28.03                       144.60         10.193 7.667 2.526
UPLMET_235 2018-04-19 16:10:00 235 46891.0   7.430 7.461 7.277 6.480   75.380   3.219 0.176 0.498 0.872 4.221 0.400 0.288 0.433 0.612     397.900 0.00 0 1   7.540 7.504 6.550 7.330   3.461 1.5950   7.336 7.388 6.401 7.213   3.008 0.9350 309.70 50.55                       143.90         10.210 7.696 2.514
UPLMET_235 2018-04-19 16:05:00 235 46891.0   7.519 7.574 7.409 6.441   74.290   3.140 0.176 0.498 0.872 4.221 0.400 0.288 0.433 0.612     397.800 0.00 0 1   7.721 7.722 6.522 7.510   3.290 1.8530   7.325 7.382 6.272 7.207   2.971 1.0350 335.10 59.95                       144.30         10.303 7.653 2.649
UPLMET_235 2018-04-19 16:00:00 235 46891.0   7.446 7.463 7.262 6.385   74.920   3.118 0.176 0.498 0.872 4.220 0.400 0.288 0.433 0.612     397.800 0.00 0 1   7.686 7.674 6.509 7.474   3.302 1.3270   7.269 7.301 6.237 7.176   2.808 0.5110 316.70 87.50                       144.40         10.200 7.641 2.558
UPLMET_235 2018-04-19 15:55:00 235 46891.0   7.503 7.465 7.293 6.454   74.650   3.097 0.176 0.498 0.872 4.221 0.400 0.288 0.433 0.612     397.800 0.00 0 1   7.550 7.542 6.590 7.351   3.202 2.0220   7.411 7.366 6.303 7.215   2.879 0.7380 283.70 64.78                       144.00         10.221 7.630 2.591
UPLMET_235 2018-04-19 15:50:00 235 46891.0   7.373 7.343 7.200 6.455   74.200   2.921 0.176 0.498 0.872 4.221 0.400 0.289 0.433 0.612     397.900 0.00 0 1   7.449 7.423 6.505 7.268   3.220 2.4500   7.275 7.283 6.420 7.142   2.671 1.2490 288.80 49.35                       143.60         10.156 7.535 2.620
UPLMET_235 2018-04-19 15:45:00 235 46891.0   7.446 7.386 7.269 6.369   74.030   2.954 0.177 0.498 0.872 4.221 0.400 0.289 0.433 0.612     397.900 0.00 0 1   7.532 7.464 6.521 7.396   3.095 2.3880   7.357 7.326 6.250 7.179   2.854 1.4380 273.60 54.51                       143.50         10.205 7.553 2.650
UPLMET_235 2018-04-19 15:40:00 235 46891.0   7.536 7.445 7.328 6.516   75.240   3.242 0.176 0.498 0.872 4.221 0.400 0.289 0.433 0.612     397.900 0.00 0 1   7.587 7.518 6.626 7.423   3.390 2.4050   7.470 7.385 6.383 7.241   2.893 1.3030 297.40 36.06                       143.40         10.246 7.708 2.537
UPLMET_235 2018-04-19 15:35:00 235 46891.0   7.501 7.516 7.462 6.477   74.570   3.243 0.176 0.498 0.872 4.221 0.400 0.289 0.433 0.612     397.900 0.00 0 1   7.615 7.613 6.603 7.574   3.570 2.7800   7.431 7.439 6.327 7.369   3.020 1.1090 286.80 46.16                       143.50         10.340 7.709 2.630
UPLMET_235 2018-04-19 15:30:00 235 46891.0   7.510 7.546 7.417 6.324   75.060   3.295 0.177 0.498 0.872 4.222 0.400 0.289 0.433 0.612     397.800 0.00 0 1   7.721 7.719 6.498 7.485   3.440 1.6930   7.358 7.407 6.149 7.375   3.159 0.8890 333.10 67.71                       144.20         10.308 7.737 2.571
UPLMET_235 2018-04-19 15:25:00 235 46891.0   7.726 7.709 7.534 6.606   74.630   3.326 0.177 0.498 0.873 4.222 0.400 0.289 0.433 0.612     397.900 0.00 0 1   7.835 7.812 6.829 7.614   3.461 2.6990   7.589 7.566 6.359 7.471   3.126 1.1660 301.30 33.99                       143.70         10.391 7.754 2.636
UPLMET_235 2018-04-19 15:20:00 235 46891.0   7.757 7.691 7.675 6.578   73.960   3.333 0.177 0.498 0.872 4.221 0.400 0.289 0.433 0.612     398.000 0.00 0 1   7.925 7.848 6.715 7.795   3.499 2.7440   7.592 7.575 6.427 7.574   3.098 0.9300 21.31 43.35                       145.20         10.492 7.758 2.732
UPLMET_235 2018-04-19 15:15:00 235 46891.0   8.020 7.940 7.808 6.861   72.350   3.152 0.176 0.498 0.872 4.221 0.400 0.289 0.434 0.612     397.800 0.00 0 1   8.260 8.190 7.000 8.050   3.449 2.8240   7.744 7.704 6.692 7.630   3.050 1.4580 267.70 34.34                       144.90         10.588 7.659 2.927
UPLMET_235 2018-04-19 15:10:00 235 46891.0   8.470 8.440 8.170 6.928   70.490   3.131 0.177 0.498 0.872 4.221 0.400 0.289 0.434 0.612     397.800 0.00 0 1   8.570 8.550 7.107 8.270   3.301 2.4680   8.230 8.200 6.764 8.020   2.963 1.2140 276.40 44.08                       146.10         10.852 7.648 3.202
UPLMET_235 2018-04-19 15:05:00 235 46891.0   8.860 8.910 8.510 7.088   68.700   3.090 0.176 0.498 0.872 4.222 0.400 0.289 0.434 0.612     398.000 0.00 0 1   9.030 9.130 7.490 8.750   3.203 2.7970   8.520 8.580 6.830 8.270   2.968 1.0780 291.60 39.80                       146.30         11.105 7.626 3.476
UPLMET_235 2018-04-19 15:00:00 235 46891.0   7.925 7.778 7.659 6.673   73.360   3.199 0.176 0.498 0.872 4.222 0.400 0.289 0.434 0.613     397.900 0.00 0 1   8.950 8.960 7.417 8.610   3.560 1.5230   7.474 7.268 6.515 7.242   2.887 0.4790 287.10 24.94                       145.70         10.480 7.685 2.792
UPLMET_235 2018-04-19 14:55:00 235 46891.0   7.688 7.453 7.368 6.531   73.450   2.941 0.176 0.497 0.872 4.222 0.400 0.289 0.434 0.613     397.900 0.00 0 1   7.808 7.629 6.627 7.466   3.028 2.5930   7.567 7.359 6.444 7.291   2.839 1.6900 276.80 16.78                       143.70         10.274 7.546 2.728
UPLMET_235 2018-04-19 14:50:00 235 46891.0   7.860 7.837 7.653 6.525   71.860   2.906 0.176 0.497 0.872 4.222 0.400 0.289 0.434 0.613     397.900 0.00 0 1   8.120 8.230 6.654 7.951   3.219 3.2790   7.700 7.545 6.349 7.472   2.694 1.5080 278.00 29.84                       144.70         10.476 7.527 2.948
UPLMET_235 2018-04-19 14:45:00 235 46891.0   8.050 8.010 7.834 6.345   72.030   3.112 0.176 0.497 0.872 4.222 0.400 0.289 0.434 0.613     397.800 0.00 0 1   8.140 8.220 6.624 7.957   3.341 1.5680   7.899 7.879 6.108 7.775   2.725 0.7330 315.50 41.91                       144.60         10.606 7.638 2.967
UPLMET_235 2018-04-19 14:40:00 235 46891.0   8.360 8.320 8.020 6.517   71.310   3.152 0.176 0.497 0.871 4.221 0.400 0.289 0.434 0.613     397.900 0.00 0 1   8.540 8.480 6.689 8.090   3.469 1.8000   8.100 8.160 6.263 7.943   2.976 0.7920 298.90 44.92                       143.90         10.742 7.659 3.082
UPLMET_235 2018-04-19 14:35:00 235 46891.0   8.370 8.410 8.040 6.319   71.560   3.214 0.175 0.497 0.871 4.221 0.400 0.289 0.434 0.613     397.900 0.00 0 1   8.600 8.510 6.411 8.110   3.400 1.5320   8.160 8.270 6.189 7.935   3.038 0.6620 356.10 40.43                       142.80         10.756 7.693 3.059
UPLMET_235 2018-04-19 14:30:00 235 46891.0   8.060 8.100 7.824 6.411   73.670   3.422 0.175 0.497 0.871 4.221 0.400 0.289 0.434 0.613     397.800 0.00 0 1   8.250 8.290 6.517 7.931   3.563 1.4970   7.839 7.894 6.253 7.630   3.304 0.5350 348.10 47.60                       142.60         10.599 7.807 2.791
UPLMET_235 2018-04-19 14:25:00 235 46891.0   7.678 7.748 7.564 6.107   73.400   3.120 0.175 0.496 0.871 4.221 0.400 0.289 0.434 0.613     397.900 0.00 0 1   7.831 7.878 6.253 7.656   3.328 1.4340   7.480 7.557 6.014 7.507   2.894 0.5530 335.90 67.68                       141.20         10.413 7.642 2.770
UPLMET_235 2018-04-19 14:20:00 235 46891.0   7.722 7.731 7.593 6.102   73.690   3.203 0.174 0.496 0.871 4.221 0.400 0.289 0.434 0.613     397.800 0.00 0 1   7.917 7.872 6.189 7.625   3.608 1.0690   7.513 7.591 6.009 7.558   3.018 0.4150 301.00 69.12                       140.30         10.433 7.687 2.745
UPLMET_235 2018-04-19 14:15:00 235 46891.0   7.689 7.615 7.459 6.062   74.010   3.135 0.174 0.496 0.871 4.220 0.400 0.289 0.434 0.613     397.800 0.00 0 1   7.822 7.764 6.317 7.608   3.373 1.2470   7.550 7.480 5.914 7.366   2.906 0.4210 312.00 43.02                       139.80         10.338 7.650 2.687
UPLMET_235 2018-04-19 14:10:00 235 46891.0   7.403 7.328 7.156 6.126   73.930   2.828 0.175 0.496 0.872 4.221 0.400 0.289 0.434 0.613     397.900 0.00 0 1   7.593 7.451 6.297 7.359   3.147 1.4610   7.241 7.185 5.862 6.998   2.521 0.6050 322.00 43.96                       139.20         10.126 7.485 2.640
UPLMET_235 2018-04-19 14:05:00 235 46891.0   7.077 7.054 6.934 6.063   73.700   2.568 0.174 0.496 0.871 4.220 0.400 0.289 0.434 0.613     397.800 0.00 0 1   7.215 7.171 6.152 6.994   2.831 2.1200   7.010 6.977 5.934 6.822   2.331 1.0460 303.90 36.08                       138.70         9.973 7.348 2.623
UPLMET_235 2018-04-19 14:00:00 235 46891.0   6.785 6.855 6.716 5.989   73.650   2.349 0.175 0.496 0.871 4.221 0.401 0.289 0.434 0.613     397.800 0.00 0 1   7.012 6.964 6.076 6.812   2.517 2.5210   6.632 6.743 5.913 6.583   2.217 1.2760 289.40 29.87                       138.40         9.824 7.234 2.589
UPLMET_235 2018-04-19 13:55:00 235 46891.0   6.383 6.503 6.361 5.769   75.550   2.364 0.174 0.496 0.871 4.221 0.401 0.289 0.434 0.613     397.900 0.00 0 1   6.615 6.726 6.004 6.553   2.483 1.4170   6.182 6.312 5.570 6.189   2.249 0.7660 269.10 27.85                       138.00         9.587 7.242 2.344
UPLMET_235 2018-04-19 13:50:00 235 46891.0   6.160 6.260 6.168 5.561   76.480   2.348 0.174 0.497 0.871 4.222 0.401 0.289 0.434 0.613     397.800 0.00 0 1   6.226 6.325 5.647 6.222   2.500 1.7020   6.072 6.179 5.465 6.066   2.139 0.9500 295.50 29.54                       137.90         9.460 7.234 2.225
UPLMET_235 2018-04-19 13:45:00 235 46891.0   6.290 6.384 6.274 5.718   75.000   2.176 0.175 0.496 0.871 4.221 0.401 0.289 0.434 0.613     397.700 0.00 0 1   6.359 6.448 5.831 6.373   2.342 2.3880   6.096 6.226 5.536 6.083   1.957 1.4340 284.70 40.59                       138.00         9.529 7.145 2.382
UPLMET_235 2018-04-19 13:40:00 235 46891.0   6.579 6.711 6.604 5.840   75.400   2.569 0.175 0.496 0.871 4.222 0.401 0.289 0.435 0.613     397.700 0.00 0 1   6.722 6.844 6.007 6.802   2.884 2.3610   6.383 6.491 5.692 6.406   2.327 1.1780 290.00 38.84                       138.30         9.749 7.349 2.398
UPLMET_235 2018-04-19 13:35:00 235 46891.0   7.044 7.036 6.925 5.753   73.070   2.440 0.175 0.496 0.871 4.222 0.401 0.289 0.435 0.613     397.600 0.00 0 1   7.244 7.234 6.254 7.016   2.701 2.0760   6.722 6.865 5.296 6.808   2.339 0.3530 347.70 68.67                       138.90         9.966 7.281 2.684
UPLMET_235 2018-04-19 13:30:00 235 46891.0   7.486 7.522 7.261 6.221   70.000   2.158 0.175 0.496 0.872 4.223 0.401 0.289 0.435 0.613     397.700 0.00 0 1   7.756 7.762 6.457 7.499   2.341 2.0400   7.209 7.236 6.050 6.997   1.865 1.0360 278.40 50.12                       139.50         10.199 7.136 3.060
UPLMET_235 2018-04-19 13:25:00 235 46891.0   8.100 8.160 7.905 6.423   67.850   2.337 0.175 0.497 0.872 4.223 0.401 0.289 0.435 0.613     397.800 0.00 0 1   8.410 8.520 6.525 8.250   2.555 2.1830   7.789 7.825 6.273 7.545   2.068 1.2440 297.20 20.31                       141.10         10.658 7.228 3.426
UPLMET_235 2018-04-19 13:20:00 235 46891.0   8.950 9.000 8.550 6.937   65.940   2.555 0.175 0.496 0.871 4.223 0.401 0.289 0.435 0.613     397.600 0.00 0 1   10.010 9.950 7.526 9.320   2.978 2.3880   8.280 8.480 6.476 8.240   2.052 1.3020 263.60 47.70                       145.10         11.135 7.341 3.793
UPLMET_235 2018-04-19 13:15:00 235 46891.0   9.070 8.860 8.690 6.700   65.200   2.529 0.175 0.496 0.871 4.223 0.401 0.289 0.435 0.613     397.800 0.00 0 1   9.850 9.770 7.317 9.120   3.056 1.5590   8.770 8.560 6.303 8.380   2.290 0.8060 352.30 84.80                       145.10         11.242 7.328 3.912
UPLMET_235 2018-04-19 13:10:00 235 46891.0   9.180 9.210 9.110 7.063   64.820   2.845 0.175 0.496 0.872 4.223 0.401 0.289 0.435 0.613     397.700 0.00 0 1   9.370 9.420 7.419 9.310   3.094 2.9670   8.850 8.840 6.818 8.880   2.546 1.5980 285.20 23.66                       145.40         11.565 7.494 4.069
UPLMET_235 2018-04-19 13:05:00 235 46891.0   9.520 9.420 9.300 7.012   64.750   3.008 0.175 0.496 0.871 4.222 0.401 0.289 0.435 0.613     397.600 0.00 0 1   9.990 9.700 7.336 9.500   3.336 1.9870   9.240 9.190 6.745 9.070   2.639 0.8350 329.90 50.29                       145.80         11.715 7.582 4.129
UPLMET_235 2018-04-19 13:00:00 235 46891.0   9.780 9.500 9.350 7.054   66.740   3.489 0.175 0.496 0.871 4.222 0.401 0.289 0.435 0.613     397.700 0.00 0 1   10.060 9.790 7.290 9.490   3.941 1.9510   9.550 9.240 6.740 9.200   3.205 0.7450 7.09 52.22                       145.80         11.754 7.844 3.909
UPLMET_235 2018-04-19 12:55:00 235 46891.0   9.660 9.460 9.100 6.952   66.190   3.132 0.175 0.496 0.872 4.223 0.401 0.289 0.435 0.613     397.800 0.00 0 1   9.840 9.740 7.132 9.420   3.569 1.4340   9.480 9.240 6.755 8.940   2.796 0.5450 338.60 47.01                       143.50         11.558 7.649 3.908
UPLMET_235 2018-04-19 12:50:00 235 46891.0   9.570 9.180 9.080 6.819   65.240   2.911 0.174 0.496 0.871 4.223 0.401 0.289 0.435 0.613     397.800 0.00 0 1   9.750 9.550 6.912 9.380   3.121 2.8420   9.340 8.930 6.696 8.950   2.585 1.3830 293.70 33.35                       144.70         11.542 7.530 4.012
UPLMET_235 2018-04-19 12:45:00 235 46891.0   9.670 9.490 9.620 6.947   63.770   3.096 0.174 0.496 0.872 4.223 0.401 0.289 0.435 0.613     397.700 0.00 0 1   10.160 9.960 7.399 10.040   3.530 2.1470   9.050 8.920 6.648 9.040   2.584 0.6680 287.30 75.63                       145.30         11.970 7.629 4.337
UPLMET_235 2018-04-19 12:40:00 235 46891.0   8.980 8.910 8.780 6.637   68.780   3.370 0.174 0.496 0.871 4.223 0.401 0.289 0.435 0.612     397.600 0.00 0 1   9.330 9.220 6.924 8.900   3.618 1.2830   8.740 8.550 6.474 8.660   3.152 0.4720 277.60 37.39                       142.40         11.310 7.779 3.531
UPLMET_235 2018-04-19 12:35:00 235 46891.0   8.900 8.990 8.560 6.655   69.710   3.346 0.174 0.495 0.871 4.223 0.401 0.289 0.435 0.612     397.700 0.00 0 1   9.200 9.270 6.886 8.680   3.832 1.0250   8.540 8.620 6.456 8.470   2.887 0.5390 48.94 71.64                       143.90         11.143 7.765 3.375
UPLMET_235 2018-04-19 12:30:00 235 46891.0   8.700 8.570 8.400 6.752   72.710   3.785 0.174 0.495 0.871 4.223 0.401 0.289 0.435 0.612     397.700 0.00 0 1   8.970 8.850 6.906 8.700   4.449 2.2450   8.390 8.160 6.633 7.994   2.744 0.8730 358.40 54.30                       144.90         11.023 8.010 3.008
UPLMET_235 2018-04-19 12:25:00 235 46891.0   8.020 7.917 7.655 6.299   75.780   3.659 0.174 0.495 0.871 4.223 0.401 0.289 0.435 0.613     397.700 0.00 0 1   8.420 8.160 6.618 7.977   4.052 2.5660   7.769 7.693 6.175 7.469   3.205 1.3460 334.10 54.48                       142.30         10.478 7.939 2.538
UPLMET_235 2018-04-19 12:20:00 235 46891.0   8.650 8.600 8.180 6.084   72.250   3.489 0.174 0.495 0.870 4.223 0.401 0.289 0.435 0.613     397.700 0.00 0 1   9.100 8.910 6.254 8.540   3.664 3.0830   8.090 8.020 5.935 7.693   3.235 1.5990 339.00 63.02                       144.50         10.859 7.844 3.013
UPLMET_235 2018-04-19 12:15:00 235 46891.0   7.594 7.405 7.318 5.364   77.480   3.638 0.174 0.495 0.870 4.223 0.401 0.289 0.436 0.613     397.700 0.00 0 1   8.760 8.460 5.835 8.110   4.009 1.5320   6.798 6.615 5.083 6.669   3.248 0.4490 36.66 48.72                       144.30         10.239 7.927 2.306
UPLMET_235 2018-04-19 12:10:00 235 46891.0   7.017 6.851 6.676 5.223   79.480   3.384 0.174 0.495 0.870 4.222 0.401 0.289 0.436 0.613     397.700 0.00 0 1   7.174 6.942 5.420 6.768   3.498 1.3450   6.848 6.809 4.916 6.636   3.217 0.6040 335.20 33.18                       138.60         9.797 7.786 2.010
UPLMET_235 2018-04-19 12:05:00 235 46891.0   6.868 6.936 6.615 5.081   77.160   2.907 0.174 0.495 0.870 4.222 0.401 0.289 0.436 0.613     397.800 0.00 0 1   6.971 7.002 5.205 6.658   3.152 1.6040   6.730 6.819 4.927 6.559   2.731 0.6700 14.11 54.99                       139.00         9.756 7.527 2.228
UPLMET_235 2018-04-19 12:00:00 235 46891.0   6.710 6.849 6.721 5.052   77.000   2.980 0.174 0.495 0.870 4.222 0.401 0.289 0.436 0.613     397.800 0.00 0 1   6.821 7.028 5.185 6.906   3.150 1.7820   6.597 6.702 4.966 6.645   2.824 0.8120 4.41 34.96                       139.50         9.828 7.567 2.260
UPLMET_235 2018-04-19 11:55:00 235 46891.0   7.386 7.367 7.131 5.107   75.580   3.114 0.174 0.495 0.870 4.222 0.401 0.289 0.436 0.613     397.900 0.00 0 1   7.676 7.605 5.206 7.293   3.281 1.7020   6.808 7.000 4.993 6.946   2.839 0.4890 341.10 26.17                       139.70         10.108 7.639 2.468
UPLMET_235 2018-04-19 11:50:00 235 46891.0   7.429 7.362 7.192 5.358   75.360   3.133 0.174 0.495 0.870 4.222 0.401 0.289 0.436 0.613     397.900 0.00 0 1   7.625 7.533 5.762 7.303   3.314 1.3270   7.206 7.161 4.975 7.025   2.913 0.6570 350.70 43.46                       140.50         10.151 7.649 2.501
UPLMET_235 2018-04-19 11:45:00 235 46891.0   8.380 8.250 7.934 5.359   68.920   2.580 0.174 0.495 0.870 4.223 0.401 0.289 0.436 0.613     397.900 0.00 0 1   8.850 8.900 5.956 8.410   2.880 1.6300   7.359 7.277 4.961 7.217   2.335 0.8020 58.51 82.50                       141.60         10.679 7.354 3.319
UPLMET_235 2018-04-19 11:40:00 235 46891.0   8.360 8.380 8.120 5.719   71.050   3.196 0.174 0.495 0.870 4.223 0.401 0.289 0.436 0.613     397.900 0.00 0 1   8.790 8.890 5.875 8.510   3.468 2.1110   8.080 8.040 5.553 7.868   2.870 1.2300 351.50 38.02                       143.80         10.815 7.683 3.131
UPLMET_235 2018-04-19 11:35:00 235 46891.0   8.560 8.650 8.110 5.711   69.260   2.824 0.173 0.495 0.870 4.222 0.401 0.289 0.436 0.613     397.900 0.00 0 1   8.830 8.800 5.917 8.290   3.364 1.1400   8.040 8.340 5.132 7.924   2.270 0.6760 356.10 56.72                       142.20         10.808 7.483 3.322
UPLMET_235 2018-04-19 11:30:00 235 46891.0   7.309 7.381 7.041 5.116   73.410   2.614 0.173 0.495 0.870 4.222 0.401 0.289 0.436 0.613     397.900 0.00 0 1   7.953 8.230 5.259 7.832   3.102 1.5410   7.040 7.067 5.001 6.670   2.241 0.5500 325.50 39.78                       142.50         10.046 7.372 2.671
UPLMET_235 2018-04-19 11:25:00 235 46891.0   6.792 6.926 6.684 5.040   75.870   2.731 0.173 0.495 0.871 4.223 0.401 0.289 0.436 0.613     397.800 0.00 0 1   7.095 7.321 5.252 6.954   3.390 1.9870   6.593 6.716 4.829 6.489   2.140 0.7630 10.65 55.39                       140.60         9.803 7.434 2.365
UPLMET_235 2018-04-19 11:20:00 235 46891.0   7.327 7.289 6.959 5.013   72.750   2.411 0.174 0.495 0.871 4.223 0.401 0.290 0.436 0.613     398.000 0.00 0 1   7.927 7.754 5.265 7.253   2.722 1.2650   6.968 7.017 4.818 6.784   2.126 0.6250 9.90 48.65                       140.60         9.990 7.266 2.722
UPLMET_235 2018-04-19 11:15:00 235 46891.0   7.689 7.460 7.296 5.630   72.630   2.704 0.174 0.495 0.871 4.223 0.401 0.290 0.436 0.613     398.000 0.00 0 1   7.849 7.635 6.133 7.601   3.529 1.1850   7.259 6.931 5.247 6.977   2.060 0.4610 106.30 87.30                       143.60         10.223 7.420 2.798
UPLMET_235 2018-04-19 11:10:00 235 46891.0   7.866 7.399 7.503 5.426   70.470   2.483 0.174 0.496 0.872 4.223 0.401 0.290 0.436 0.613     397.900 0.00 0 1   8.210 7.774 5.674 7.830   2.930 2.5030   7.194 6.841 5.104 6.971   2.060 1.6080 304.30 35.01                       143.10         10.369 7.304 3.062
UPLMET_235 2018-04-19 11:05:00 235 46891.0   8.340 7.582 7.755 5.439   70.500   2.727 0.174 0.496 0.871 4.223 0.401 0.290 0.436 0.613     397.900 0.00 0 1   9.310 8.520 5.921 8.420   3.366 2.5840   7.501 6.848 5.042 7.082   1.745 1.1080 333.50 69.10                       141.60         10.549 7.432 3.112
UPLMET_235 2018-04-19 11:00:00 235 46891.0   9.910 9.360 9.020 5.705   68.060   3.446 0.174 0.496 0.871 4.223 0.401 0.290 0.436 0.613     398.100 0.00 0 1   10.810 10.300 6.161 9.790   3.839 2.5210   9.120 8.460 5.399 8.390   3.159 1.2340 24.57 69.67                       142.80         11.495 7.821 3.672
UPLMET_235 2018-04-19 10:55:00 235 46891.0   9.980 9.650 9.310 5.822   66.630   3.418 0.174 0.496 0.871 4.223 0.401 0.290 0.437 0.613     398.200 0.00 0 1   10.630 10.200 6.004 9.830   3.792 2.2270   9.470 9.060 5.664 8.880   2.718 0.9210 62.78 34.57                       145.50         11.722 7.805 3.912
UPLMET_235 2018-04-19 10:50:00 235 46891.0   9.940 9.480 9.110 6.018   66.910   3.296 0.174 0.496 0.871 4.222 0.401 0.290 0.437 0.613     398.300 0.00 0 1   10.380 10.000 6.346 9.650   3.598 1.6040   9.110 8.540 5.729 8.330   2.771 0.5090 24.47 64.49                       144.50         11.565 7.738 3.827
UPLMET_235 2018-04-19 10:45:00 235 46891.0   8.870 8.230 8.310 5.764   68.160   2.787 0.173 0.495 0.871 4.223 0.401 0.290 0.437 0.613     398.200 0.00 0 1   9.110 8.490 5.959 8.620   3.027 2.4050   8.590 7.968 5.530 7.994   2.252 1.3200 352.80 30.86                       144.20         10.956 7.464 3.488
UPLMET_235 2018-04-19 10:40:00 235 46891.0   8.830 8.500 8.500 5.638   67.520   2.844 0.173 0.496 0.870 4.223 0.401 0.290 0.437 0.613     398.200 0.00 0 1   9.290 8.860 5.844 8.900   3.196 2.3070   8.010 8.040 5.490 7.802   1.930 1.0760 23.44 34.45                       145.60         11.098 7.494 3.605
UPLMET_235 2018-04-19 10:35:00 235 46891.0   8.110 7.919 7.932 5.275   67.970   2.388 0.173 0.495 0.871 4.224 0.402 0.290 0.437 0.613     398.300 0.00 0 1   8.380 8.150 5.686 8.010   3.047 1.9150   7.914 7.534 5.075 7.792   1.894 0.8910 50.69 40.48                       146.10         10.677 7.254 3.420
UPLMET_235 2018-04-19 10:30:00 235 46891.0   8.400 8.160 8.130 5.323   68.240   2.630 0.173 0.495 0.870 4.224 0.402 0.290 0.437 0.613     398.300 0.00 0 1   9.020 8.810 5.728 8.430   3.170 1.7910   7.797 7.429 4.823 7.917   1.548 1.1680 24.55 48.02                       144.90         10.822 7.381 3.437
UPLMET_235 2018-04-19 10:25:00 235 46891.0   8.460 8.380 8.100 4.844   65.410   2.006 0.173 0.495 0.870 4.224 0.402 0.290 0.437 0.613     398.300 0.00 0 1   8.950 8.860 5.224 8.390   2.925 1.7190   8.290 8.190 4.406 7.817   1.309 0.7600 90.10 42.75                       144.90         10.800 7.059 3.736
UPLMET_235 2018-04-19 10:20:00 235 46891.0   8.760 8.780 8.600 5.118   58.110   0.826 0.172 0.495 0.870 4.223 0.402 0.290 0.437 0.613     398.300 0.00 0 1   9.140 9.090 5.292 8.850   1.723 2.0400   8.310 8.360 4.866 8.280   -0.011 0.8810 21.67 29.42                       144.10         11.173 6.485 4.680
UPLMET_235 2018-04-19 10:15:00 235 46891.0   9.110 9.120 8.840 5.206   59.520   1.392 0.172 0.495 0.870 4.224 0.402 0.290 0.437 0.613     398.300 0.00 0 1   9.440 9.670 5.657 9.070   1.889 3.3850   8.510 8.730 4.820 8.620   0.749 0.9730 57.33 50.24                       145.10         11.356 6.755 4.597
UPLMET_235 2018-04-19 10:10:00 235 46891.0   8.820 8.810 8.300 5.114   63.820   1.861 0.172 0.495 0.869 4.224 0.402 0.290 0.437 0.613     398.300 0.00 0 1   9.330 9.420 5.370 8.550   2.399 1.7280   8.370 8.200 4.691 8.130   1.542 0.4920 76.44 36.24                       144.10         10.948 6.986 3.961
UPLMET_235 2018-04-19 10:05:00 235 46891.0   8.190 8.140 7.722 5.013   60.300   0.510 0.172 0.495 0.870 4.224 0.402 0.290 0.437 0.613     398.200 0.00 0 1   8.600 8.510 5.303 8.190   2.508 1.6040   7.837 7.901 4.627 7.319   -0.520 0.7280 78.93 62.30                       144.10         10.526 6.338 4.179
UPLMET_235 2018-04-19 10:00:00 235 46891.0   7.884 7.745 7.589 5.220   58.950   0.078 0.171 0.495 0.869 4.224 0.402 0.290 0.437 0.613     398.200 0.00 0 1   8.190 8.010 5.484 7.857   1.071 3.1000   7.692 7.540 4.859 7.383   -0.537 1.1920 343.00 56.78                       143.10         10.430 6.143 4.282
UPLMET_235 2018-04-19 09:55:00 235 46891.0   7.644 7.803 7.468 5.147   61.180   0.470 0.171 0.495 0.869 4.224 0.402 0.290 0.437 0.613     398.300 0.00 0 1   7.927 7.972 5.568 7.774   1.354 1.5590   7.232 7.389 4.925 7.191   -0.553 0.8660 335.00 52.38                       142.60         10.344 6.320 4.016
UPLMET_235 2018-04-19 09:50:00 235 46891.0   7.036 6.952 6.979 4.687   61.460   0.077 0.171 0.495 0.869 4.225 0.402 0.290 0.437 0.613     398.200 0.00 0 1   7.414 7.327 4.860 7.214   0.879 1.3630   6.858 6.727 4.523 6.661   -0.777 0.7580 352.60 47.64                       142.10         10.004 6.142 3.855
UPLMET_235 2018-04-19 09:45:00 235 46891.0   6.538 6.577 6.452 4.674   59.360   -0.898 0.171 0.494 0.869 4.225 0.402 0.290 0.437 0.613     398.200 0.00 0 1   6.849 6.810 4.833 6.722   -0.284 1.8260   6.291 6.438 4.453 6.182   -1.544 0.8460 32.32 74.28                       141.70         9.647 5.720 3.921
UPLMET_235 2018-04-19 09:40:00 235 46891.0   6.920 6.803 6.710 4.783   57.800   -1.014 0.171 0.495 0.868 4.225 0.402 0.290 0.437 0.613     398.200 0.00 0 1   7.186 6.985 4.951 6.837   -0.746 2.1740   6.738 6.605 4.598 6.522   -1.386 1.1550 347.20 54.34                       141.30         9.820 5.672 4.144
UPLMET_235 2018-04-19 09:35:00 235 46891.0   6.597 6.634 6.645 4.636   59.640   -0.648 0.171 0.494 0.869 4.225 0.402 0.290 0.437 0.613     398.200 0.00 0 1   6.950 7.002 4.878 6.925   -0.067 3.5010   6.373 6.372 4.504 6.474   -1.304 1.6120 28.65 74.28                       141.00         9.776 5.826 3.946
UPLMET_235 2018-04-19 09:30:00 235 46891.0   6.637 6.763 6.621 4.725   59.020   -0.824 0.171 0.495 0.869 4.226 0.402 0.290 0.438 0.613     398.200 0.00 0 1   6.937 7.078 4.922 6.790   0.984 2.1110   6.373 6.502 4.519 6.559   -1.543 1.0820 289.20 55.12                       140.60         9.760 5.751 4.000
UPLMET_235 2018-04-19 09:25:00 235 46891.0   6.986 7.296 7.098 4.535   60.980   0.076 0.171 0.494 0.869 4.225 0.402 0.290 0.438 0.613     398.200 0.00 0 1   7.380 7.621 4.783 7.398   1.425 2.8780   6.678 6.980 4.273 6.775   -1.720 1.0960 329.40 39.57                       140.20         10.086 6.142 3.935
UPLMET_235 2018-04-19 09:20:00 235 46891.0   7.350 7.396 7.214 4.424   62.220   0.469 0.170 0.494 0.868 4.226 0.402 0.290 0.438 0.613     398.300 0.00 0 1   7.804 7.783 4.565 7.455   0.930 1.3810   6.802 6.824 4.275 7.012   -0.483 0.6660 11.15 50.26                       139.90         10.166 6.319 3.841
UPLMET_235 2018-04-19 09:15:00 235 46891.0   7.454 7.158 7.010 4.666   59.910   -0.248 0.170 0.495 0.869 4.225 0.402 0.290 0.438 0.613     398.200 0.00 0 1   7.739 7.465 4.740 7.198   0.459 2.4770   7.123 6.842 4.531 6.823   -1.147 0.9410 321.60 51.62                       139.50         10.025 5.998 4.019
UPLMET_235 2018-04-19 09:10:00 235 46891.0   7.103 7.271 6.998 4.378   64.050   0.666 0.170 0.494 0.868 4.225 0.402 0.290 0.438 0.613     398.200 0.00 0 1   7.424 7.643 4.613 7.181   1.436 2.7260   6.873 7.020 4.273 6.918   -0.212 0.8560 7.59 72.77                       139.10         10.017 6.410 3.601
UPLMET_235 2018-04-19 09:05:00 235 46891.0   7.207 7.506 6.996 4.079   63.590   0.568 0.170 0.494 0.868 4.225 0.402 0.290 0.438 0.613     398.300 0.10 0 1   7.481 7.767 4.496 7.167   1.103 1.8170   7.051 7.229 3.779 6.825   0.107 0.3600 54.03 36.98                       138.70         10.015 6.365 3.647
UPLMET_235 2018-04-19 09:00:00 235 46891.0   6.769 6.928 6.390 3.953   66.290   0.561 0.169 0.494 0.867 4.225 0.402 0.290 0.438 0.613     398.200 0.00 0 1   7.391 7.513 4.324 6.787   1.261 0.8370   5.978 6.081 3.625 5.921   -0.233 0.4210 55.81 65.45                       138.30         9.606 6.362 3.238
UPLMET_235 2018-04-19 08:55:00 235 46891.0   6.092 6.037 5.956 4.029   67.080   0.304 0.170 0.494 0.868 4.225 0.402 0.290 0.438 0.613     398.200 0.00 0 1   6.328 6.339 4.506 6.056   1.179 3.2790   5.864 5.773 3.556 5.824   -0.562 1.4590 353.50 39.78                       137.90         9.322 6.244 3.069
UPLMET_235 2018-04-19 08:50:00 235 46891.0   6.316 6.237 6.041 4.196   63.000   -0.470 0.169 0.494 0.867 4.225 0.402 0.290 0.438 0.613     398.100 0.00 0 1   6.687 6.570 4.523 6.306   -0.041 2.6370   6.027 5.843 3.815 5.865   -1.148 1.4420 293.60 37.26                       137.50         9.377 5.902 3.470
UPLMET_235 2018-04-19 08:45:00 235 46891.0   6.420 6.761 6.395 3.719   68.640   1.049 0.169 0.494 0.867 4.225 0.402 0.290 0.438 0.613     398.200 0.10 0 1   6.665 6.975 3.952 6.476   2.108 2.4770   6.205 6.586 3.181 6.327   0.509 1.1340 18.01 44.31                       137.10         9.609 6.590 3.013
UPLMET_235 2018-04-19 08:40:00 235 46891.0   6.447 6.402 6.386 3.707   68.200   0.942 0.169 0.494 0.867 4.225 0.402 0.290 0.438 0.613     398.000 0.00 0 1   6.835 6.702 4.154 6.455   2.089 1.7550   6.045 6.190 3.191 6.327   0.137 0.7430 331.80 42.12                       136.70         9.603 6.539 3.054
UPLMET_235 2018-04-19 08:35:00 235 46891.0   6.427 6.354 6.028 3.679   65.490   0.053 0.169 0.493 0.867 4.225 0.402 0.290 0.438 0.613     398.100 0.00 0 1   6.759 6.594 3.919 6.308   0.520 1.3720   5.832 5.964 3.396 5.563   -0.347 0.9550 26.63 50.79                       136.30         9.369 6.131 3.233
UPLMET_235 2018-04-19 08:30:00 235 46891.0   5.658 5.637 5.457 3.142   70.780   0.558 0.169 0.494 0.867 4.224 0.402 0.290 0.438 0.613     398.100 0.00 0 1   5.991 5.992 3.533 5.902   1.242 2.3340   5.297 5.200 2.725 5.042   -0.438 1.0680 97.90 70.09                       135.80         9.005 6.360 2.631
UPLMET_235 2018-04-19 08:25:00 235 46891.0   6.306 6.575 6.176 3.474   66.010   0.289 0.168 0.493 0.866 4.225 0.402 0.290 0.438 0.613     398.100 0.20 0 1   6.860 7.066 3.752 6.479   1.580 2.8330   5.880 6.003 3.318 5.906   -0.796 0.7680 352.20 27.70                       135.40         9.465 6.237 3.217
UPLMET_235 2018-04-19 08:20:00 235 46891.0   6.110 6.172 5.768 3.127   67.750   0.254 0.168 0.493 0.866 4.224 0.402 0.290 0.438 0.613     397.900 0.10 0 1   6.364 6.507 3.316 6.033   1.574 2.2360   5.705 5.846 2.943 5.578   -1.241 0.6860 85.20 25.47                       135.10         9.201 6.222 2.967
UPLMET_235 2018-04-19 08:15:00 235 46891.0   6.987 6.908 6.279 3.005   67.560   0.709 0.167 0.493 0.866 4.224 0.402 0.290 0.438 0.613     397.800 0.20 0 1   7.468 7.382 3.425 6.631   1.938 1.5860   6.189 6.246 2.589 5.642   -1.124 0.6880 45.83 58.55                       134.60         9.533 6.430 3.092
UPLMET_235 2018-04-19 08:10:00 235 46891.0   6.376 6.266 5.704 3.259   67.260   0.111 0.168 0.493 0.866 4.225 0.402 0.290 0.439 0.613     397.600 0.00 0 1   6.996 6.842 3.487 6.076   0.604 0.8550   5.923 5.898 2.991 5.400   -0.461 0.3110 55.61 71.24                       134.20         9.161 6.157 2.999
UPLMET_235 2018-04-19 08:05:00 235 46891.0   5.858 5.761 5.604 3.112   71.100   0.778 0.167 0.492 0.865 4.224 0.402 0.290 0.439 0.613     397.600 0.00 0 1   6.120 5.998 3.319 5.711   1.384 1.6930   5.465 5.482 2.924 5.484   -0.426 0.6410 53.47 31.44                       133.80         9.097 6.462 2.629
UPLMET_235 2018-04-19 08:00:00 235 46891.0   5.665 5.890 5.415 2.967   72.470   0.863 0.167 0.492 0.865 4.224 0.402 0.290 0.439 0.613     397.500 0.00 0 1   5.825 6.023 3.187 5.670   1.584 1.7730   5.576 5.715 2.764 5.221   -0.120 0.4560 5.28 76.57                       133.40         8.979 6.502 2.472
UPLMET_235 2018-04-19 07:55:00 235 46891.0   5.428 5.683 5.261 2.776   73.260   0.865 0.167 0.492 0.865 4.223 0.402 0.290 0.439 0.613     397.300 0.00 0 1   5.665 5.916 3.045 5.397   1.634 1.8000   5.199 5.559 2.402 5.066   0.370 0.7380 39.87 34.65                       133.00         8.883 6.503 2.375
UPLMET_235 2018-04-19 07:50:00 235 46891.0   5.239 5.566 5.189 2.833   69.280   0.016 0.166 0.492 0.864 4.223 0.402 0.290 0.439 0.613     397.500 0.00 0 1   5.538 5.833 3.028 5.362   1.038 2.3700   4.877 5.175 2.470 5.005   -0.592 1.1570 33.96 37.34                       132.60         8.838 6.115 2.715
UPLMET_235 2018-04-19 07:45:00 235 46891.0   4.881 5.286 4.626 2.585   69.470   -0.481 0.166 0.491 0.864 4.223 0.402 0.290 0.439 0.613     397.500 0.00 0 1   5.088 5.632 2.995 4.958   0.301 0.9440   4.751 4.950 2.336 4.245   -0.837 0.2440 1.69 60.50                       132.20         8.498 5.897 2.594
UPLMET_235 2018-04-19 07:40:00 235 46891.0   4.053 4.298 3.693 2.417   74.880   -0.351 0.166 0.491 0.864 4.224 0.402 0.290 0.439 0.613     397.600 0.00 0 1   4.748 4.950 2.600 4.232   -0.160 0.7310   3.071 3.258 2.263 2.863   -0.647 0.2000 127.00 18.08                       131.80         7.958 5.954 1.999
UPLMET_235 2018-04-19 07:35:00 235 46891.0   2.140 2.364 2.172 1.572   85.100   -0.098 0.166 0.491 0.864 4.224 0.402 0.290 0.439 0.613     397.600 0.20 0 1   2.994 3.181 2.250 2.790   0.664 0.9530   1.698 1.946 1.036 1.888   -0.857 0.2490 135.80 26.37                       131.30         7.143 6.064 1.064
UPLMET_235 2018-04-19 07:30:00 235 46891.0   1.806 2.027 2.059 1.015   89.900   0.572 0.166 0.491 0.863 4.224 0.402 0.290 0.439 0.613     397.500 0.00 0 1   2.003 2.229 1.115 2.305   0.720 0.5350   1.699 1.943 0.943 1.931   0.344 0.0770 135.70 0.01                       130.90         7.086 6.367 0.716
UPLMET_235 2018-04-19 07:25:00 235 46891.0   2.256 2.461 2.433 1.208   87.400   0.562 0.165 0.491 0.863 4.224 0.402 0.290 0.439 0.613     397.500 0.00 0 1   2.439 2.598 1.623 2.502   0.652 0.0000   2.014 2.244 0.951 2.322   0.437 0.0000 0.00 0.00                       130.90         7.278 6.362 0.917
UPLMET_235 2018-04-19 07:20:00 235 46891.0   2.723 2.885 2.766 1.474   85.600   0.597 0.165 0.491 0.863 4.224 0.402 0.291 0.439 0.613     397.700 0.00 0 1   3.340 3.525 1.630 3.472   1.004 1.1140   2.401 2.592 1.319 2.469   0.450 0.3490 102.70 8.25                       130.90         7.452 6.378 1.073
UPLMET_235 2018-04-19 07:15:00 235 46891.0   4.425 4.802 4.235 2.284   78.250   0.778 0.165 0.491 0.863 4.224 0.402 0.291 0.439 0.613     397.600 0.00 0 1   4.952 5.291 2.699 4.561   1.280 1.4970   3.435 3.656 1.556 3.561   0.267 0.5850 308.60 65.67                       131.00         8.268 6.462 1.798
UPLMET_235 2018-04-19 07:10:00 235 46891.0   4.458 4.923 4.132 2.378   75.400   0.176 0.165 0.491 0.863 4.224 0.402 0.291 0.439 0.613     397.600 0.00 0 1   4.953 5.355 2.534 4.481   0.474 1.4080   3.990 4.536 2.273 3.936   -0.402 0.5520 352.70 58.53                       131.00         8.208 6.186 2.019
UPLMET_235 2018-04-19 07:05:00 235 46891.0   4.029 4.545 3.690 2.128   77.600   0.142 0.165 0.490 0.863 4.224 0.402 0.291 0.439 0.613     397.600 0.00 0 1   4.283 4.874 2.326 3.963   0.636 1.1670   3.636 4.122 1.703 3.271   -0.142 0.4230 330.60 36.82                       130.80         7.956 6.171 1.782
UPLMET_235 2018-04-19 07:00:00 235 46891.0   3.100 3.433 2.803 1.618   82.700   0.147 0.164 0.491 0.862 4.223 0.402 0.291 0.439 0.613     397.600 0.00 0 1   3.586 4.037 1.999 3.252   0.458 0.9270   2.315 2.555 1.210 2.177   -0.089 0.2330 50.95 23.84                       130.70         7.472 6.173 1.293
UPLMET_235 2018-04-19 06:55:00 235 46891.0   1.769 2.043 1.698 0.968   91.100   0.396 0.164 0.491 0.863 4.224 0.402 0.291 0.439 0.613     397.600 0.00 0 1   2.268 2.506 1.431 2.120   0.495 0.9530   1.616 1.901 0.718 1.542   0.136 0.1340 87.00 54.51                       130.50         6.905 6.286 0.615
UPLMET_235 2018-04-19 06:50:00 235 46891.0   1.762 2.091 1.696 0.611   91.500   0.458 0.164 0.490 0.862 4.223 0.402 0.291 0.439 0.613     397.400 0.00 0 1   1.804 2.172 0.809 1.830   0.776 0.9800   1.627 1.925 0.504 1.575   0.325 0.3120 142.00 6.28                       130.40         6.904 6.314 0.587
UPLMET_235 2018-04-19 06:45:00 235 46891.0   1.510 1.855 1.724 0.452   94.100   0.881 0.164 0.490 0.862 4.224 0.402 0.291 0.439 0.613     397.500 0.00 0 1   1.794 2.175 0.570 1.847   0.993 1.3450   1.216 1.601 0.311 1.483   0.717 0.3660 70.47 26.95                       130.30         6.918 6.511 0.408
UPLMET_235 2018-04-19 06:40:00 235 46891.0   1.220 1.438 1.216 0.750   95.000   0.507 0.163 0.490 0.862 4.224 0.402 0.291 0.440 0.613     397.500 0.00 0 1   1.365 1.597 0.968 1.453   0.674 0.2580   1.051 1.209 0.493 0.993   0.378 0.0670 10.54 31.60                       130.00         6.670 6.337 0.333
UPLMET_235 2018-04-19 06:35:00 235 46891.0   0.776 0.931 0.730 0.510   97.200   0.340 0.163 0.489 0.861 4.223 0.402 0.291 0.440 0.613     397.300 0.00 0 1   1.033 1.191 0.672 0.967   0.426 1.2470   0.487 0.650 0.231 0.501   0.201 0.2590 53.50 20.56                       129.70         6.440 6.261 0.180
UPLMET_235 2018-04-19 06:30:00 235 46891.0   0.306 0.472 0.350 -0.065   97.800   0.044 0.163 0.490 0.862 4.224 0.402 0.291 0.440 0.613     397.500 0.00 0 1   0.467 0.628 0.186 0.487   0.181 0.2230   0.145 0.331 -0.241 0.190   -0.128 0.0110 125.50 0.00                       129.60         6.265 6.127 0.138
UPLMET_235 2018-04-19 06:25:00 235 46891.0   0.202 0.376 0.300 -0.236   97.500   -0.055 0.163 0.490 0.862 4.223 0.403 0.291 0.440 0.613     397.400 0.00 0 1   0.257 0.420 -0.148 0.352   -0.018 0.8290   0.141 0.330 -0.294 0.196   -0.126 0.2610 66.49 45.35                       129.40         6.242 6.083 0.156
UPLMET_235 2018-04-19 06:20:00 235 46891.0   0.327 0.448 0.320 -0.143   97.500   -0.034 0.162 0.489 0.862 4.223 0.402 0.291 0.440 0.613     397.400 0.00 0 1   0.360 0.462 -0.036 0.362   0.008 0.0000   0.271 0.419 -0.245 0.273   -0.070 0.0000 0.00 0.00                       129.30         6.252 6.093 0.156
UPLMET_235 2018-04-19 06:15:00 235 46891.0   0.243 0.378 0.300 -0.107   97.400   -0.059 0.163 0.489 0.861 4.224 0.403 0.291 0.440 0.613     397.300 0.00 0 1   0.325 0.437 -0.051 0.325   -0.032 0.6150   0.154 0.316 -0.240 0.273   -0.078 0.1930 331.30 23.49                       129.20         6.242 6.082 0.162
UPLMET_235 2018-04-19 06:10:00 235 46891.0   0.078 0.247 0.224 -0.103   96.800   -0.224 0.163 0.489 0.861 4.224 0.403 0.291 0.440 0.613     397.300 0.00 0 1   0.154 0.311 -0.018 0.289   -0.086 1.4970   0.001 0.198 -0.198 0.180   -0.352 0.5170 24.79 30.69                       129.00         6.208 6.009 0.199
UPLMET_235 2018-04-19 06:05:00 235 46891.0   0.093 0.323 0.317 -0.148   94.800   -0.425 0.162 0.489 0.861 4.224 0.403 0.291 0.440 0.613     397.300 0.00 0 1   0.244 0.495 0.156 0.447   -0.356 0.9890   0.017 0.211 -0.283 0.226   -0.468 0.4620 358.40 50.84                       128.80         6.250 5.921 0.325
UPLMET_235 2018-04-19 06:00:00 235 46891.0   0.239 0.490 0.395 0.274   94.500   -0.391 0.162 0.489 0.861 4.223 0.403 0.291 0.440 0.613     397.300 0.00 0 1   0.358 0.581 0.552 0.461   -0.342 1.3540   0.088 0.319 -0.028 0.312   -0.439 0.7980 342.90 58.83                       128.60         6.286 5.936 0.346
UPLMET_235 2018-04-19 05:55:00 235 46891.0   0.221 0.462 0.469 0.058   94.000   -0.382 0.162 0.489 0.861 4.223 0.403 0.291 0.440 0.613     397.300 0.00 0 1   0.459 0.693 0.475 0.609   -0.347 0.9800   0.085 0.313 -0.099 0.345   -0.429 0.3900 322.90 31.46                       128.50         6.319 5.940 0.379
UPLMET_235 2018-04-19 05:50:00 235 46891.0   0.443 0.702 0.636 0.441   92.200   -0.477 0.162 0.488 0.860 4.223 0.403 0.291 0.440 0.613     397.300 0.00 0 1   0.536 0.776 0.665 0.669   -0.350 2.4410   0.333 0.600 0.177 0.593   -0.558 0.6720 346.60 49.36                       128.40         6.396 5.899 0.499
UPLMET_235 2018-04-19 05:45:00 235 46891.0   0.613 0.809 0.633 0.816   92.200   -0.484 0.162 0.488 0.860 4.222 0.403 0.291 0.440 0.613     397.300 0.00 0 1   0.740 0.889 1.096 0.718   -0.386 0.7130   0.467 0.700 0.547 0.559   -0.616 0.2570 324.30 46.57                       128.20         6.395 5.896 0.499
UPLMET_235 2018-04-19 05:40:00 235 46891.0   -0.013 0.231 0.071 0.068   96.600   -0.407 0.162 0.488 0.860 4.222 0.403 0.291 0.440 0.613     397.300 0.00 0 1   0.686 0.919 1.015 0.556   -0.252 2.1290   -0.364 -0.131 -0.473 -0.122   -0.544 0.8080 266.30 77.37                       127.90         6.139 5.929 0.209
UPLMET_235 2018-04-19 05:35:00 235 46891.0   -0.208 0.007 0.010 -0.238   96.900   -0.421 0.162 0.488 0.860 4.223 0.403 0.291 0.440 0.613     397.400 0.00 0 1   -0.145 0.083 -0.065 0.037   -0.356 1.5150   -0.272 -0.053 -0.406 -0.040   -0.494 0.4170 326.30 32.27                       127.50         6.112 5.923 0.189
UPLMET_235 2018-04-19 05:30:00 235 46891.0   -0.153 0.114 0.173 -0.351   95.500   -0.462 0.162 0.488 0.860 4.224 0.403 0.291 0.440 0.613     397.300 0.00 0 1   0.030 0.325 -0.227 0.370   -0.350 0.0000   -0.271 -0.048 -0.422 0.033   -0.522 0.0000 0.00 0.00                       127.60         6.185 5.905 0.278
UPLMET_235 2018-04-19 05:25:00 235 46891.0   0.293 0.588 0.415 0.381   96.200   -0.124 0.161 0.488 0.860 4.223 0.403 0.291 0.440 0.612     397.300 0.00 0 1   0.500 0.797 0.886 0.509   0.067 2.0580   0.050 0.345 -0.189 0.178   -0.326 0.7240 298.70 7.60                       128.50         6.295 6.053 0.239
UPLMET_235 2018-04-19 05:20:00 235 46891.0   -0.263 -0.020 -0.164 -0.040   98.900   -0.311 0.161 0.488 0.860 4.223 0.403 0.291 0.441 0.613     397.300 0.00 0 1   0.118 0.488 0.506 0.115   -0.062 3.0830   -0.452 -0.240 -0.406 -0.272   -0.439 0.9760 310.00 27.25                       128.40         6.035 5.971 0.066
UPLMET_235 2018-04-19 05:15:00 235 46891.0   -0.471 -0.253 -0.297 -0.298   98.400   -0.517 0.161 0.488 0.860 4.221 0.403 0.291 0.441 0.612     397.300 0.00 0 1   -0.321 -0.133 0.012 -0.226   -0.364 1.1490   -0.591 -0.358 -0.644 -0.342   -0.611 0.3180 199.40 75.18                       128.30         5.977 5.882 0.096
UPLMET_235 2018-04-19 05:10:00 235 46891.0   -0.361 -0.162 -0.111 -0.458   97.000   -0.525 0.161 0.488 0.860 4.222 0.403 0.291 0.441 0.612     397.300 0.00 0 1   -0.207 0.000 -0.270 0.101   -0.450 1.4340   -0.520 -0.322 -0.636 -0.266   -0.587 0.2920 123.80 4.05                       128.20         6.059 5.878 0.182
UPLMET_235 2018-04-19 05:05:00 235 46891.0   0.023 0.220 0.257 0.079   96.000   -0.302 0.161 0.488 0.860 4.222 0.403 0.291 0.441 0.612     397.300 0.00 0 1   0.253 0.423 0.652 0.359   -0.154 1.7730   -0.207 0.006 -0.290 0.101   -0.469 0.4220 308.40 52.13                       128.00         6.223 5.975 0.249
UPLMET_235 2018-04-19 05:00:00 235 46891.0   -0.029 0.155 0.181 -0.054   96.600   -0.289 0.161 0.488 0.860 4.222 0.403 0.291 0.441 0.612     397.400 0.00 0 1   0.034 0.212 0.084 0.217   -0.244 0.6860   -0.090 0.090 -0.167 0.147   -0.332 0.1460 214.40 3.07                       127.60         6.189 5.981 0.210
UPLMET_235 2018-04-19 04:55:00 235 46891.0   0.101 0.308 0.395 -0.068   94.500   -0.383 0.161 0.488 0.860 4.222 0.403 0.291 0.441 0.612     397.300 0.00 0 1   0.308 0.532 0.065 0.587   -0.323 1.2920   -0.070 0.138 -0.211 0.230   -0.417 0.4950 278.60 52.14                       127.70         6.286 5.940 0.346
UPLMET_235 2018-04-19 04:50:00 235 46891.0   0.655 0.859 0.878 0.660   91.000   -0.421 0.161 0.488 0.860 4.222 0.403 0.291 0.441 0.612     397.300 0.00 0 1   0.918 1.086 1.410 1.027   -0.335 1.7820   0.352 0.575 0.126 0.644   -0.562 0.5030 293.00 53.20                       128.50         6.509 5.923 0.586
UPLMET_235 2018-04-19 04:45:00 235 46891.0   0.782 1.026 0.955 0.970   90.200   -0.473 0.161 0.488 0.860 4.222 0.403 0.291 0.441 0.612     397.400 0.00 0 1   0.892 1.129 1.371 1.017   -0.386 1.5230   0.673 0.924 0.684 0.911   -0.554 0.6160 278.00 30.76                       128.50         6.546 5.901 0.641
UPLMET_235 2018-04-19 04:40:00 235 46891.0   0.993 1.202 1.191 0.838   89.100   -0.405 0.161 0.488 0.860 4.222 0.403 0.291 0.441 0.612     397.300 0.00 0 1   1.355 1.609 1.465 1.420   -0.330 2.6010   0.674 0.872 0.464 0.921   -0.599 1.3600 276.70 24.84                       128.40         6.658 5.930 0.726
UPLMET_235 2018-04-19 04:35:00 235 46891.0   0.926 1.167 1.003 1.082   90.200   -0.418 0.161 0.488 0.859 4.222 0.403 0.291 0.441 0.612     397.300 0.00 0 1   1.488 1.689 1.663 1.401   -0.253 2.2270   0.578 0.834 0.538 0.809   -0.642 1.0190 121.30 93.40                       128.20         6.568 5.924 0.644
UPLMET_235 2018-04-19 04:30:00 235 46891.0   0.698 0.961 0.930 0.801   91.500   -0.292 0.161 0.487 0.860 4.223 0.403 0.291 0.441 0.612     397.400 0.00 0 1   0.815 1.034 1.047 0.980   -0.240 3.3680   0.582 0.815 0.532 0.855   -0.328 0.6740 311.80 18.08                       127.90         6.534 5.979 0.555
UPLMET_235 2018-04-19 04:25:00 235 46891.0   0.713 0.971 0.924 0.739   91.700   -0.266 0.161 0.488 0.860 4.222 0.403 0.291 0.441 0.612     397.400 0.00 0 1   0.800 1.053 0.933 0.968   -0.247 2.3880   0.606 0.923 0.579 0.885   -0.299 1.3630 256.40 21.09                       127.30         6.531 5.991 0.542
UPLMET_235 2018-04-19 04:20:00 235 46891.0   0.975 1.174 1.059 0.953   90.700   -0.290 0.161 0.487 0.859 4.221 0.403 0.291 0.441 0.612     397.400 0.00 0 1   1.138 1.305 1.216 1.117   -0.235 0.9980   0.657 0.965 0.628 0.971   -0.338 0.4430 255.50 55.77                       128.40         6.595 5.980 0.613
UPLMET_235 2018-04-19 04:15:00 235 46891.0   0.948 1.135 1.003 0.891   91.100   -0.277 0.160 0.487 0.859 4.221 0.403 0.291 0.441 0.613     397.400 0.00 0 1   1.056 1.214 1.089 1.067   -0.218 2.8240   0.729 0.945 0.565 0.902   -0.332 0.9150 251.50 40.93                       128.60         6.568 5.986 0.585
UPLMET_235 2018-04-19 04:10:00 235 46891.0   1.035 1.194 1.016 0.996   91.300   -0.245 0.161 0.487 0.859 4.222 0.403 0.291 0.441 0.613     397.200 0.00 0 1   1.116 1.253 1.080 1.051   -0.199 2.9580   0.975 1.150 0.921 0.981   -0.288 1.2700 272.70 40.06                       128.50         6.574 6.000 0.572
UPLMET_235 2018-04-19 04:05:00 235 46891.0   0.990 1.147 0.926 1.019   92.000   -0.227 0.161 0.487 0.860 4.221 0.403 0.291 0.441 0.613     397.400 0.00 0 1   1.190 1.307 1.151 1.028   -0.188 2.7620   0.815 1.008 0.879 0.813   -0.259 1.5020 302.00 21.67                       128.40         6.532 6.008 0.523
UPLMET_235 2018-04-19 04:00:00 235 46891.0   0.673 0.847 0.737 0.700   94.000   -0.123 0.160 0.487 0.859 4.221 0.403 0.291 0.441 0.613     397.400 0.00 0 1   0.795 1.012 0.913 0.790   -0.077 2.3070   0.634 0.810 0.513 0.704   -0.190 0.6680 321.20 68.52                       128.30         6.443 6.053 0.387
UPLMET_235 2018-04-19 03:55:00 235 46891.0   0.726 0.876 0.725 0.702   94.400   -0.067 0.160 0.487 0.859 4.222 0.403 0.291 0.441 0.613     397.300 0.00 0 1   0.768 0.900 0.812 0.740   -0.036 0.7480   0.691 0.851 0.627 0.697   -0.100 0.2960 312.10 43.76                       128.10         6.438 6.078 0.361
UPLMET_235 2018-04-19 03:50:00 235 46891.0   0.705 0.850 0.716 0.635   94.700   -0.029 0.160 0.487 0.859 4.221 0.403 0.291 0.441 0.613     397.400 0.00 0 1   0.768 0.915 0.809 0.777   0.008 1.4170   0.592 0.745 0.442 0.664   -0.078 0.7520 310.10 41.09                       127.60         6.433 6.095 0.341
UPLMET_235 2018-04-19 03:45:00 235 46891.0   0.808 0.968 0.818 0.748   93.700   -0.088 0.160 0.487 0.859 4.221 0.403 0.291 0.442 0.613     397.300 0.00 0 1   0.861 1.015 0.839 0.846   -0.033 2.4050   0.767 0.905 0.617 0.793   -0.122 1.0060 281.90 42.41                       128.10         6.481 6.069 0.408
UPLMET_235 2018-04-19 03:40:00 235 46891.0   0.844 0.994 0.823 0.824   93.400   -0.120 0.160 0.487 0.859 4.222 0.403 0.291 0.442 0.613     397.400 0.00 0 1   0.894 1.036 0.944 0.863   -0.074 2.0310   0.772 0.925 0.712 0.783   -0.152 1.2860 275.10 23.79                       128.70         6.483 6.055 0.428
UPLMET_235 2018-04-19 03:35:00 235 46891.0   0.838 0.971 0.783 0.784   93.800   -0.097 0.160 0.487 0.859 4.222 0.403 0.291 0.442 0.613     397.400 0.00 0 1   0.955 1.065 0.987 0.850   -0.073 3.0110   0.694 0.853 0.662 0.704   -0.119 1.3330 272.50 27.34                       128.70         6.465 6.065 0.401
UPLMET_235 2018-04-19 03:30:00 235 46891.0   0.772 0.915 0.754 0.670   94.200   -0.070 0.160 0.487 0.859 4.221 0.403 0.291 0.442 0.613     397.300 0.00 0 1   0.858 0.994 0.743 0.820   -0.043 2.2810   0.719 0.845 0.593 0.688   -0.101 1.4240 283.00 32.38                       128.60         6.451 6.077 0.374
UPLMET_235 2018-04-19 03:25:00 235 46891.0   0.825 0.990 0.788 0.726   94.100   -0.046 0.159 0.486 0.859 4.222 0.403 0.291 0.442 0.613     397.300 0.00 0 1   0.904 1.049 0.899 0.824   -0.018 1.6040   0.760 0.945 0.510 0.738   -0.063 0.6210 236.30 19.73                       128.50         6.467 6.087 0.382
UPLMET_235 2018-04-19 03:20:00 235 46891.0   0.601 0.787 0.639 0.526   95.400   -0.017 0.159 0.487 0.858 4.223 0.403 0.291 0.442 0.613     397.300 0.00 0 1   0.736 0.953 0.780 0.721   -0.002 2.4410   0.524 0.697 0.355 0.576   -0.027 1.1840 273.10 25.67                       128.40         6.398 6.100 0.294
UPLMET_235 2018-04-19 03:15:00 235 46891.0   0.551 0.720 0.617 0.487   95.400   -0.028 0.159 0.487 0.858 4.222 0.403 0.292 0.442 0.613     397.400 0.00 0 1   0.637 0.800 0.626 0.659   -0.002 2.2540   0.502 0.658 0.394 0.576   -0.048 1.0870 275.80 29.63                       128.30         6.388 6.095 0.294
UPLMET_235 2018-04-19 03:10:00 235 46891.0   0.628 0.777 0.663 0.489   95.200   -0.010 0.159 0.486 0.858 4.223 0.403 0.292 0.442 0.612     397.300 0.00 0 1   0.703 0.848 0.562 0.745   0.009 1.1400   0.539 0.708 0.399 0.633   -0.037 0.5260 236.40 28.20                       127.90         6.409 6.103 0.308
UPLMET_235 2018-04-19 03:05:00 235 46891.0   0.799 0.975 0.856 0.738   93.400   -0.092 0.159 0.486 0.858 4.223 0.403 0.292 0.442 0.611     397.400 0.00 0 1   0.898 1.064 0.967 0.914   0.001 1.2830   0.702 0.853 0.550 0.732   -0.171 0.7580 23.06 75.41                       127.60         6.499 6.067 0.429
UPLMET_235 2018-04-19 03:00:00 235 46891.0   0.791 0.998 0.769 0.939   93.700   -0.132 0.159 0.486 0.858 4.223 0.403 0.292 0.442 0.611     397.300 0.00 0 1   1.120 1.278 1.272 0.983   -0.065 1.9070   0.448 0.675 0.536 0.527   -0.252 0.9360 282.20 69.22                       128.90         6.458 6.049 0.407
UPLMET_235 2018-04-19 02:55:00 235 46891.0   0.390 0.600 0.504 0.335   96.000   -0.065 0.159 0.486 0.858 4.222 0.403 0.292 0.442 0.611     397.300 0.00 0 1   0.487 0.666 0.501 0.540   -0.027 1.1490   0.297 0.508 0.166 0.418   -0.114 0.2860 261.20 43.78                       128.80         6.335 6.079 0.253
UPLMET_235 2018-04-19 02:50:00 235 46891.0   0.416 0.635 0.484 0.518   96.300   -0.029 0.159 0.486 0.858 4.223 0.403 0.292 0.442 0.611     397.400 0.00 0 1   0.459 0.679 0.695 0.530   -0.004 1.1400   0.366 0.578 0.340 0.448   -0.056 0.5380 281.60 22.42                       128.80         6.326 6.095 0.234
UPLMET_235 2018-04-19 02:45:00 235 46891.0   0.379 0.603 0.422 0.475   97.000   -0.002 0.158 0.486 0.858 4.222 0.403 0.292 0.442 0.611     397.400 0.00 0 1   0.452 0.673 0.685 0.468   0.057 0.9710   0.309 0.525 0.321 0.385   -0.082 0.2690 193.30 28.05                       128.70         6.298 6.107 0.189
UPLMET_235 2018-04-19 02:40:00 235 46891.0   0.285 0.449 0.326 0.283   98.100   0.063 0.159 0.486 0.858 4.222 0.404 0.292 0.442 0.611     397.300 0.00 0 1   0.334 0.514 0.453 0.385   0.129 0.9000   0.233 0.408 0.171 0.282   0.003 0.1030 258.70 9.52                       128.70         6.254 6.136 0.119
UPLMET_235 2018-04-19 02:35:00 235 46891.0   0.075 0.263 0.170 0.060   98.900   0.024 0.158 0.486 0.858 4.221 0.404 0.292 0.442 0.611     397.300 0.00 0 1   0.274 0.421 0.348 0.269   0.106 0.6680   0.011 0.196 -0.062 0.107   -0.032 0.2360 304.70 34.67                       128.60         6.184 6.118 0.068
UPLMET_235 2018-04-19 02:30:00 235 46891.0   0.017 0.163 0.075 -0.068   99.300   -0.024 0.158 0.486 0.858 4.221 0.404 0.292 0.442 0.611     397.300 0.00 0 1   0.077 0.256 0.039 0.157   0.058 0.4190   -0.018 0.108 -0.126 0.028   -0.074 0.0890 280.60 0.00                       128.50         6.141 6.097 0.043
UPLMET_235 2018-04-19 02:25:00 235 46891.0   0.008 0.137 0.038 -0.104   99.200   -0.073 0.158 0.486 0.857 4.221 0.404 0.292 0.442 0.611     397.300 0.00 0 1   0.043 0.179 -0.041 0.097   -0.021 0.0000   -0.034 0.094 -0.175 -0.012   -0.131 0.0000 0.00 0.00                       128.30         6.125 6.075 0.049
UPLMET_235 2018-04-19 02:20:00 235 46891.0   0.085 0.212 0.107 -0.039   99.200   -0.003 0.158 0.486 0.858 4.223 0.404 0.292 0.442 0.611     397.400 0.00 0 1   0.138 0.257 0.036 0.137   0.036 0.4540   0.049 0.182 -0.087 0.081   -0.037 0.2220 280.60 0.02                       128.00         6.156 6.106 0.049
UPLMET_235 2018-04-19 02:15:00 235 46891.0   0.110 0.219 0.093 0.009   99.100   -0.026 0.158 0.486 0.857 4.223 0.404 0.292 0.442 0.611     397.200 0.00 0 1   0.141 0.257 0.061 0.114   0.016 0.4450   0.085 0.195 -0.035 0.072   -0.052 0.2210 280.60 0.00                       127.50         6.149 6.096 0.055
UPLMET_235 2018-04-19 02:10:00 235 46891.0   0.112 0.228 0.104 0.017   98.800   -0.059 0.158 0.485 0.857 4.222 0.404 0.292 0.442 0.611     397.300 0.00 0 1   0.128 0.243 0.039 0.128   -0.023 0.3650   0.101 0.214 -0.009 0.085   -0.089 0.1550 280.60 0.02                       128.90         6.154 6.082 0.074
UPLMET_235 2018-04-19 02:05:00 235 46891.0   0.126 0.253 0.141 0.019   98.400   -0.077 0.157 0.485 0.857 4.221 0.404 0.292 0.442 0.611     397.400 0.00 0 1   0.152 0.285 0.044 0.181   -0.062 0.0000   0.110 0.230 -0.007 0.111   -0.102 0.0000 0.00 0.00                       128.90         6.171 6.074 0.099
UPLMET_235 2018-04-19 02:00:00 235 46891.0   0.198 0.350 0.235 0.091   98.100   -0.033 0.157 0.485 0.857 4.221 0.404 0.292 0.443 0.611     397.300 0.00 0 1   0.260 0.419 0.217 0.270   0.007 0.3560   0.153 0.286 0.023 0.184   -0.078 0.0670 280.60 0.00                       128.90         6.213 6.093 0.118
UPLMET_235 2018-04-19 01:55:00 235 46891.0   0.250 0.400 0.245 0.233   98.400   0.018 0.157 0.485 0.857 4.221 0.404 0.292 0.443 0.611     397.400 0.00 0 1   0.294 0.444 0.343 0.277   0.037 0.7750   0.192 0.351 0.134 0.217   -0.001 0.4410 290.70 19.66                       128.80         6.218 6.116 0.099
UPLMET_235 2018-04-19 01:50:00 235 46891.0   0.183 0.338 0.188 0.153   98.700   0.002 0.157 0.484 0.856 4.221 0.404 0.292 0.443 0.611     397.300 0.00 0 1   0.235 0.381 0.193 0.234   0.032 0.8370   0.116 0.282 0.100 0.138   -0.037 0.5940 289.40 4.97                       128.80         6.192 6.109 0.080
UPLMET_235 2018-04-19 01:45:00 235 46891.0   0.063 0.222 0.122 0.048   98.800   -0.047 0.156 0.484 0.856 4.221 0.404 0.292 0.443 0.611     397.400 0.00 0 1   0.125 0.282 0.141 0.165   -0.006 0.9800   -0.014 0.149 -0.001 0.042   -0.097 0.4440 273.40 7.03                       128.70         6.162 6.087 0.074
UPLMET_235 2018-04-19 01:40:00 235 46891.0   -0.033 0.124 0.017 -0.008   99.000   -0.115 0.157 0.484 0.856 4.221 0.404 0.292 0.443 0.611     397.400 0.00 0 1   -0.006 0.150 0.025 0.049   -0.083 0.8550   -0.089 0.063 -0.055 -0.031   -0.166 0.1370 285.30 2.51                       128.50         6.115 6.057 0.061
UPLMET_235 2018-04-19 01:35:00 235 46891.0   -0.140 0.014 -0.042 -0.135   98.900   -0.187 0.157 0.484 0.856 4.220 0.404 0.292 0.443 0.611     397.300 0.00 0 1   -0.094 0.052 -0.056 -0.021   -0.160 1.1490   -0.169 -0.014 -0.208 -0.080   -0.234 0.3960 273.10 8.55                       128.30         6.089 6.025 0.067
UPLMET_235 2018-04-19 01:30:00 235 46891.0   -0.125 0.025 -0.044 -0.209   98.800   -0.207 0.157 0.484 0.856 4.220 0.404 0.292 0.443 0.611     397.300 0.00 0 1   -0.044 0.110 -0.035 0.012   -0.141 0.9980   -0.183 -0.045 -0.290 -0.094   -0.258 0.1190 289.00 8.56                       127.90         6.088 6.016 0.073
UPLMET_235 2018-04-19 01:25:00 235 46891.0   -0.076 0.109 0.004 -0.038   99.000   -0.140 0.156 0.484 0.856 4.220 0.404 0.292 0.443 0.611     397.300 0.00 0 1   -0.049 0.140 0.033 0.025   -0.107 0.3300   -0.097 0.082 -0.093 -0.018   -0.176 0.0510 329.70 0.29                       128.00         6.110 6.046 0.061
UPLMET_235 2018-04-19 01:20:00 235 46891.0   -0.078 0.136 -0.017 0.083   99.600   -0.070 0.156 0.484 0.856 4.221 0.404 0.292 0.443 0.611     397.200 0.00 0 1   -0.034 0.182 0.268 0.018   -0.015 1.1760   -0.173 0.057 -0.011 -0.121   -0.121 0.2290 356.40 10.75                       128.90         6.100 6.077 0.024
UPLMET_235 2018-04-19 01:15:00 235 46891.0   -0.372 -0.131 -0.199 -0.217   100.000   -0.199 0.156 0.484 0.856 4.221 0.404 0.292 0.443 0.611     397.400 0.00 0 1   -0.208 0.029 -0.036 -0.131   -0.131 1.2290   -0.446 -0.187 -0.286 -0.244   -0.244 0.7740 304.20 14.35                       128.80         6.020 6.020 0.000
UPLMET_235 2018-04-19 01:10:00 235 46891.0   -0.461 -0.231 -0.319 -0.300   100.000   -0.319 0.156 0.484 0.856 4.219 0.404 0.292 0.443 0.611     397.300 0.00 0 1   -0.416 -0.131 -0.043 -0.224   -0.224 1.3190   -0.511 -0.328 -0.494 -0.396   -0.396 0.8510 316.00 29.15                       128.70         5.967 5.967 0.000
UPLMET_235 2018-04-19 01:05:00 235 46891.0   -0.554 -0.298 -0.415 -0.338   100.000   -0.415 0.156 0.484 0.856 4.220 0.404 0.292 0.443 0.611     397.400 0.00 0 1   -0.429 -0.230 -0.176 -0.330   -0.330 1.7370   -0.626 -0.370 -0.399 -0.522   -0.522 0.8630 295.40 7.79                       128.60         5.926 5.926 0.000
UPLMET_235 2018-04-19 01:00:00 235 46891.0   -0.741 -0.533 -0.608 -0.594   100.000   -0.608 0.156 0.484 0.855 4.219 0.404 0.292 0.443 0.611     397.300 0.00 0 1   -0.636 -0.385 -0.393 -0.519   -0.519 1.3270   -0.779 -0.587 -0.697 -0.635   -0.635 0.5700 292.60 6.42                       128.30         5.843 5.843 0.000
UPLMET_235 2018-04-19 00:55:00 235 46891.0   -0.765 -0.581 -0.669 -0.648   100.000   -0.669 0.155 0.484 0.855 4.219 0.404 0.292 0.443 0.611     397.300 0.00 0 1   -0.714 -0.530 -0.571 -0.628   -0.629 1.1230   -0.802 -0.627 -0.758 -0.698   -0.698 0.6330 294.60 5.25                       127.60         5.817 5.817 0.000
UPLMET_235 2018-04-19 00:50:00 235 46891.0   -0.710 -0.607 -0.671 -0.717   100.000   -0.673 0.156 0.484 0.856 4.219 0.404 0.292 0.443 0.611     397.200 0.00 0 1   -0.676 -0.589 -0.681 -0.645   -0.654 0.4900   -0.750 -0.639 -0.762 -0.695   -0.699 0.0900 272.00 26.80                       128.80         5.816 5.815 0.000
UPLMET_235 2018-04-19 00:45:00 235 46891.0   -0.715 -0.570 -0.602 -0.669   99.900   -0.615 0.156 0.484 0.855 4.219 0.404 0.292 0.443 0.611     397.300 0.00 0 1   -0.682 -0.535 -0.575 -0.566   -0.585 0.4810   -0.745 -0.612 -0.761 -0.649   -0.655 0.1250 310.20 5.97                       129.00         5.845 5.840 0.006
UPLMET_235 2018-04-19 00:40:00 235 46891.0   -0.625 -0.503 -0.540 -0.600   99.800   -0.571 0.156 0.484 0.856 4.220 0.404 0.292 0.443 0.611     397.400 0.00 0 1   -0.560 -0.446 -0.533 -0.513   -0.537 0.2140   -0.691 -0.567 -0.634 -0.585   -0.616 0.0120 293.80 0.00                       128.90         5.872 5.859 0.012
UPLMET_235 2018-04-19 00:35:00 235 46891.0   -0.666 -0.519 -0.543 -0.585   99.400   -0.620 0.155 0.484 0.856 4.219 0.404 0.292 0.444 0.611     397.100 0.00 0 1   -0.625 -0.470 -0.525 -0.513   -0.565 0.6500   -0.711 -0.569 -0.657 -0.566   -0.664 0.1890 293.80 0.00                       128.90         5.871 5.838 0.035
UPLMET_235 2018-04-19 00:30:00 235 46891.0   -0.539 -0.396 -0.416 -0.613   99.200   -0.527 0.155 0.483 0.855 4.218 0.404 0.292 0.444 0.611     397.300 0.00 0 1   -0.435 -0.288 -0.508 -0.327   -0.432 0.8550   -0.649 -0.511 -0.735 -0.490   -0.599 0.1310 293.90 0.05                       128.80         5.925 5.877 0.047
UPLMET_235 2018-04-19 00:25:00 235 46891.0   -0.370 -0.207 -0.290 -0.351   99.300   -0.393 0.155 0.483 0.855 4.219 0.404 0.292 0.444 0.611     397.400 0.00 0 1   -0.323 -0.175 -0.186 -0.252   -0.361 0.9710   -0.422 -0.272 -0.490 -0.321   -0.423 0.3930 319.20 27.64                       128.60         5.980 5.935 0.042
UPLMET_235 2018-04-19 00:20:00 235 46891.0   -0.371 -0.181 -0.269 -0.341   99.100   -0.397 0.155 0.483 0.855 4.219 0.404 0.292 0.444 0.611     397.300 0.00 0 1   -0.323 -0.124 -0.251 -0.239   -0.345 1.4170   -0.419 -0.238 -0.429 -0.298   -0.455 0.6000 306.90 6.75                       128.40         5.989 5.934 0.054
UPLMET_235 2018-04-19 00:15:00 235 46891.0   -0.386 -0.195 -0.235 -0.399   98.500   -0.439 0.155 0.484 0.855 4.219 0.404 0.292 0.444 0.611     397.300 0.00 0 1   -0.337 -0.148 -0.330 -0.186   -0.416 1.1310   -0.448 -0.248 -0.487 -0.282   -0.467 0.2930 282.60 6.51                       127.90         6.004 5.915 0.090
UPLMET_235 2018-04-19 00:10:00 235 46891.0   -0.207 -0.001 -0.093 -0.270   98.500   -0.306 0.155 0.483 0.855 4.218 0.404 0.292 0.444 0.611     397.300 0.00 0 1   -0.141 0.083 -0.096 -0.050   -0.247 0.5610   -0.323 -0.137 -0.463 -0.173   -0.413 0.0830 285.00 20.64                       128.30         6.067 5.973 0.091
UPLMET_235 2018-04-19 00:05:00 235 46891.0   -0.143 0.040 -0.064 -0.180   98.600   -0.259 0.155 0.483 0.855 4.219 0.404 0.292 0.444 0.611     397.100 0.00 0 1   -0.067 0.116 -0.033 -0.008   -0.190 0.7930   -0.213 -0.043 -0.313 -0.107   -0.313 0.2860 301.50 11.61                       129.00         6.079 5.994 0.085
UPLMET_235 2018-04-19 00:00:00 235 46891.0   -0.106 0.080 -0.059 -0.067   99.000   -0.191 0.155 0.483 0.855 4.219 0.404 0.292 0.444 0.611     397.400 0.00 0 1   -0.009 0.210 0.157 0.006   -0.122 1.1230   -0.215 -0.069 -0.314 -0.121   -0.255 0.4250 321.10 19.42                       129.00         6.082 6.023 0.061
UPLMET_235 2018-04-18 23:55:00 235 46891.0   -0.130 0.021 -0.069 -0.175   99.300   -0.165 0.155 0.483 0.855 4.219 0.404 0.292 0.444 0.611     397.200 0.00 0 1   -0.072 0.075 -0.080 -0.018   -0.104 0.4010   -0.210 -0.061 -0.289 -0.114   -0.248 0.0630 248.20 0.00                       128.90         6.077 6.035 0.043
UPLMET_235 2018-04-18 23:50:00 235 46891.0   -0.245 -0.083 -0.203 -0.192   99.400   -0.285 0.155 0.483 0.855 4.219 0.404 0.292 0.444 0.611     397.300 0.00 0 1   -0.119 0.032 -0.074 -0.124   -0.188 1.2920   -0.317 -0.177 -0.378 -0.260   -0.372 0.5770 289.60 14.32                       128.80         6.018 5.982 0.036
UPLMET_235 2018-04-18 23:45:00 235 46891.0   -0.278 -0.144 -0.203 -0.357   99.000   -0.345 0.154 0.483 0.855 4.219 0.404 0.292 0.444 0.611     397.400 0.00 0 1   -0.199 -0.060 -0.298 -0.138   -0.276 1.4340   -0.327 -0.190 -0.393 -0.254   -0.383 0.6570 276.50 2.29                       128.60         6.018 5.956 0.060
UPLMET_235 2018-04-18 23:40:00 235 46891.0   -0.183 -0.052 -0.120 -0.287   98.800   -0.279 0.154 0.483 0.855 4.220 0.404 0.292 0.444 0.611     397.300 0.00 0 1   -0.104 0.021 -0.209 -0.052   -0.213 1.1140   -0.227 -0.095 -0.363 -0.174   -0.333 0.5790 273.60 22.51                       128.20         6.055 5.985 0.073
UPLMET_235 2018-04-18 23:35:00 235 46891.0   -0.077 0.057 -0.028 -0.187   98.800   -0.195 0.155 0.483 0.855 4.219 0.404 0.292 0.444 0.611     397.400 0.00 0 1   -0.035 0.116 -0.094 0.011   -0.129 1.0690   -0.132 -0.008 -0.292 -0.078   -0.264 0.4910 246.20 0.39                       127.80         6.095 6.022 0.073
UPLMET_235 2018-04-18 23:30:00 235 46891.0   -0.074 0.053 -0.041 -0.184   99.000   -0.173 0.155 0.483 0.855 4.218 0.404 0.292 0.444 0.611     397.400 0.00 0 1   -0.001 0.111 -0.109 0.004   -0.104 1.0870   -0.136 -0.004 -0.243 -0.078   -0.235 0.3760 258.60 21.26                       129.20         6.090 6.031 0.061
UPLMET_235 2018-04-18 23:25:00 235 46891.0   -0.105 0.004 -0.105 -0.218   99.000   -0.241 0.154 0.483 0.855 4.218 0.404 0.292 0.444 0.611     397.400 0.00 0 1   0.001 0.110 -0.064 -0.029   -0.120 1.1760   -0.154 -0.043 -0.294 -0.132   -0.275 0.2920 240.40 20.14                       129.10         6.061 6.002 0.061
UPLMET_235 2018-04-18 23:20:00 235 46891.0   -0.081 0.038 -0.070 -0.192   98.600   -0.266 0.154 0.482 0.855 4.217 0.405 0.292 0.444 0.611     397.300 0.00 0 1   -0.067 0.053 -0.159 -0.046   -0.230 0.8550   -0.096 0.020 -0.249 -0.099   -0.309 0.2800 280.40 5.66                       129.00         6.077 5.991 0.085
UPLMET_235 2018-04-18 23:15:00 235 46891.0   -0.023 0.125 0.054 -0.129   98.200   -0.202 0.154 0.483 0.854 4.217 0.404 0.292 0.444 0.611     397.400 0.00 0 1   0.010 0.165 -0.062 0.113   -0.171 0.9090   -0.092 0.043 -0.246 -0.046   -0.291 0.3520 292.80 0.39                       129.00         6.132 6.019 0.110
UPLMET_235 2018-04-18 23:10:00 235 46891.0   0.075 0.230 0.160 -0.002   97.700   -0.159 0.154 0.482 0.854 4.217 0.405 0.292 0.444 0.611     397.200 0.00 0 1   0.104 0.264 0.028 0.185   -0.132 0.9710   0.020 0.175 -0.056 0.126   -0.201 0.5110 299.50 4.47                       128.80         6.179 6.037 0.142
UPLMET_235 2018-04-18 23:05:00 235 46891.0   0.200 0.359 0.254 0.060   96.900   -0.175 0.153 0.482 0.854 4.217 0.405 0.292 0.445 0.611     397.400 0.00 0 1   0.302 0.494 0.205 0.367   -0.093 1.2120   0.113 0.273 -0.009 0.169   -0.221 0.4390 298.50 12.62                       128.60         6.222 6.030 0.193
UPLMET_235 2018-04-18 23:00:00 235 46891.0   0.252 0.411 0.242 0.207   97.300   -0.141 0.153 0.482 0.854 4.217 0.405 0.293 0.445 0.611     397.300 0.00 0 1   0.349 0.543 0.381 0.350   -0.080 1.8620   0.121 0.279 0.021 0.175   -0.203 1.1260 306.00 49.53                       128.10         6.216 6.045 0.168
UPLMET_235 2018-04-18 22:55:00 235 46891.0   0.279 0.429 0.310 0.144   96.500   -0.184 0.153 0.482 0.854 4.218 0.405 0.293 0.445 0.611     397.300 0.00 0 1   0.498 0.625 0.435 0.407   -0.126 1.4610   0.137 0.293 -0.010 0.178   -0.235 0.9090 300.60 15.94                       128.50         6.247 6.026 0.219
UPLMET_235 2018-04-18 22:50:00 235 46891.0   0.456 0.602 0.387 0.429   96.500   -0.101 0.153 0.482 0.854 4.218 0.405 0.293 0.445 0.611     397.300 0.00 0 1   0.660 0.802 0.752 0.525   -0.020 2.3610   0.193 0.333 0.078 0.194   -0.173 1.1250 358.80 58.70                       129.30         6.282 6.063 0.220
UPLMET_235 2018-04-18 22:45:00 235 46891.0   0.270 0.414 0.268 0.236   98.000   -0.007 0.153 0.482 0.854 4.218 0.405 0.293 0.445 0.611     397.200 0.00 0 1   0.325 0.468 0.408 0.313   0.060 1.2560   0.203 0.335 0.060 0.224   -0.089 0.5850 339.50 77.28                       129.20         6.228 6.105 0.125
UPLMET_235 2018-04-18 22:40:00 235 46891.0   0.179 0.311 0.194 0.124   98.400   -0.032 0.153 0.482 0.854 4.218 0.405 0.293 0.445 0.611     397.300 0.00 0 1   0.251 0.413 0.272 0.221   0.002 1.0250   0.122 0.254 0.025 0.154   -0.086 0.3130 264.90 59.45                       129.10         6.195 6.094 0.099
UPLMET_235 2018-04-18 22:35:00 235 46891.0   0.116 0.253 0.150 0.030   98.300   -0.086 0.153 0.482 0.853 4.219 0.405 0.293 0.445 0.611     397.200 0.00 0 1   0.236 0.353 0.262 0.190   -0.032 1.1400   0.049 0.186 -0.086 0.104   -0.132 0.2630 325.60 33.67                       129.10         6.175 6.070 0.105
UPLMET_235 2018-04-18 22:30:00 235 46891.0   0.118 0.269 0.196 0.026   97.900   -0.099 0.153 0.482 0.854 4.217 0.405 0.293 0.445 0.611     397.200 0.00 0 1   0.142 0.302 0.114 0.253   -0.041 1.0250   0.083 0.242 -0.018 0.154   -0.147 0.4790 288.70 7.77                       128.90         6.195 6.064 0.130
UPLMET_235 2018-04-18 22:25:00 235 46891.0   0.225 0.430 0.336 0.196   97.500   -0.013 0.153 0.482 0.853 4.218 0.405 0.293 0.445 0.611     397.300 0.00 0 1   0.279 0.495 0.324 0.368   0.029 1.5230   0.148 0.317 0.033 0.266   -0.100 0.8370 314.90 33.16                       128.70         6.259 6.102 0.156
UPLMET_235 2018-04-18 22:20:00 235 46891.0   0.246 0.404 0.297 0.186   97.600   -0.032 0.153 0.481 0.853 4.218 0.405 0.293 0.445 0.611     397.400 0.10 0 1   0.283 0.455 0.317 0.344   0.009 1.4880   0.215 0.356 0.050 0.272   -0.082 0.5830 313.60 43.18                       128.20         6.241 6.094 0.150
UPLMET_235 2018-04-18 22:15:00 235 46891.0   0.338 0.462 0.378 0.255   97.500   0.029 0.153 0.481 0.853 4.220 0.405 0.293 0.445 0.611     397.300 0.00 0 1   0.391 0.528 0.459 0.420   0.082 1.3810   0.255 0.405 0.108 0.348   -0.038 0.3590 298.00 38.49                       128.60         6.278 6.121 0.157
UPLMET_235 2018-04-18 22:10:00 235 46891.0   0.278 0.386 0.311 0.152   97.600   -0.026 0.152 0.481 0.853 4.219 0.405 0.293 0.445 0.611     397.300 0.00 0 1   0.450 0.530 0.450 0.400   0.105 1.9330   0.184 0.305 -0.048 0.235   -0.128 0.4440 74.43 48.34                       129.40         6.247 6.096 0.150
UPLMET_235 2018-04-18 22:05:00 235 46891.0   0.431 0.540 0.407 0.216   97.400   0.050 0.152 0.481 0.853 4.218 0.405 0.293 0.445 0.611     397.200 0.00 0 1   0.618 0.682 0.503 0.456   0.172 0.8370   0.270 0.391 0.023 0.340   -0.064 0.2050 43.97 39.28                       129.40         6.291 6.130 0.164
UPLMET_235 2018-04-18 22:00:00 235 46891.0   0.174 0.292 0.203 0.065   98.000   -0.078 0.152 0.481 0.853 4.218 0.405 0.293 0.445 0.611     397.200 0.00 0 1   0.613 0.682 0.480 0.317   0.107 3.1450   0.118 0.224 -0.080 0.158   -0.123 0.5010 328.50 12.31                       129.40         6.199 6.073 0.124
UPLMET_235 2018-04-18 21:55:00 235 46891.0   0.288 0.425 0.405 0.109   97.300   0.025 0.152 0.481 0.853 4.218 0.405 0.293 0.445 0.611     397.300 0.00 0 1   0.429 0.587 0.338 0.545   0.147 1.5320   0.171 0.301 -0.072 0.251   -0.095 0.6010 302.80 30.27                       129.30         6.290 6.119 0.170
UPLMET_235 2018-04-18 21:50:00 235 46891.0   0.595 0.717 0.610 0.578   97.200   0.218 0.152 0.481 0.853 4.218 0.405 0.293 0.445 0.611     397.300 0.00 0 1   0.709 0.815 0.824 0.657   0.338 0.8110   0.450 0.614 0.356 0.551   0.137 0.3650 289.00 28.40                       129.20         6.384 6.205 0.179
UPLMET_235 2018-04-18 21:45:00 235 46891.0   0.447 0.557 0.391 0.568   98.300   0.155 0.152 0.480 0.853 4.218 0.405 0.293 0.445 0.611     397.300 0.00 0 1   0.685 0.808 1.007 0.624   0.346 1.6840   0.155 0.270 0.057 0.213   -0.069 0.7260 67.24 78.27                       129.10         6.284 6.177 0.107
UPLMET_235 2018-04-18 21:40:00 235 46891.0   0.258 0.388 0.311 0.138   97.600   -0.026 0.151 0.481 0.853 4.218 0.405 0.293 0.445 0.611     397.300 0.00 0 1   0.346 0.503 0.443 0.431   0.063 1.2560   0.193 0.316 0.003 0.236   -0.078 0.2080 269.60 14.76                       128.90         6.247 6.096 0.150
UPLMET_235 2018-04-18 21:35:00 235 46891.0   0.401 0.559 0.542 0.239   96.500   0.045 0.152 0.480 0.853 4.219 0.405 0.293 0.445 0.611     397.300 0.00 0 1   0.564 0.722 0.400 0.722   0.120 0.6680   0.320 0.476 0.142 0.441   0.003 0.2540 245.40 27.83                       128.60         6.353 6.128 0.222
UPLMET_235 2018-04-18 21:30:00 235 46891.0   0.716 0.886 0.873 0.578   94.700   0.114 0.151 0.481 0.853 4.219 0.405 0.293 0.446 0.611     397.300 0.00 0 1   0.912 1.064 0.946 0.963   0.145 0.9710   0.569 0.733 0.383 0.732   0.085 0.0940 298.50 0.09                       127.90         6.507 6.159 0.345
UPLMET_235 2018-04-18 21:25:00 235 46891.0   0.951 1.103 0.973 0.936   94.100   0.132 0.152 0.480 0.853 4.220 0.405 0.293 0.446 0.611     397.300 0.00 0 1   1.063 1.190 1.142 1.013   0.211 1.1670   0.850 1.036 0.746 0.917   0.088 0.4260 227.50 66.58                       129.60         6.554 6.167 0.387
UPLMET_235 2018-04-18 21:20:00 235 46891.0   0.789 0.951 0.841 0.710   95.200   0.165 0.151 0.480 0.853 4.220 0.405 0.293 0.446 0.611     397.200 0.00 0 1   0.902 1.043 0.988 0.910   0.217 1.3100   0.697 0.873 0.551 0.781   0.114 0.3760 187.10 52.13                       129.60         6.492 6.182 0.312
UPLMET_235 2018-04-18 21:15:00 235 46891.0   0.891 1.048 0.913 0.785   94.600   0.148 0.151 0.480 0.853 4.219 0.405 0.293 0.446 0.611     397.200 0.00 0 1   1.137 1.294 1.049 1.094   0.199 1.3900   0.758 0.931 0.606 0.830   0.043 0.7990 301.70 77.71                       129.50         6.526 6.174 0.352
UPLMET_235 2018-04-18 21:10:00 235 46891.0   1.153 1.270 1.056 1.016   94.000   0.199 0.151 0.480 0.853 4.218 0.405 0.293 0.446 0.611     397.200 0.00 0 1   1.304 1.380 1.371 1.130   0.285 2.7710   0.989 1.117 0.710 0.955   0.144 0.9720 71.45 80.60                       129.50         6.593 6.197 0.396
UPLMET_235 2018-04-18 21:05:00 235 46891.0   0.850 0.972 0.689 0.842   98.000   0.404 0.151 0.480 0.852 4.219 0.405 0.293 0.446 0.611     397.300 0.00 0 1   1.266 1.402 1.530 0.994   0.524 3.5280   0.426 0.551 0.298 0.445   0.286 1.5140 68.45 63.02                       129.40         6.421 6.290 0.128
UPLMET_235 2018-04-18 21:00:00 235 46891.0   0.410 0.522 0.401 0.356   99.300   0.302 0.151 0.480 0.852 4.219 0.405 0.293 0.446 0.611     397.300 0.00 0 1   0.634 0.700 0.710 0.520   0.454 1.1850   0.222 0.353 0.094 0.282   0.161 0.6200 212.10 63.17                       129.30         6.288 6.243 0.044
UPLMET_235 2018-04-18 20:55:00 235 46891.0   0.380 0.585 0.478 0.348   99.600   0.418 0.151 0.480 0.853 4.219 0.405 0.293 0.446 0.611     397.200 0.00 0 1   0.443 0.698 0.609 0.520   0.520 1.2740   0.312 0.465 0.182 0.408   0.293 0.6310 311.60 34.18                       129.10         6.324 6.296 0.025
UPLMET_235 2018-04-18 20:50:00 235 46891.0   0.380 0.564 0.395 0.421   100.000   0.391 0.151 0.480 0.853 4.219 0.405 0.293 0.446 0.611     397.300 0.00 0 1   0.432 0.694 0.559 0.520   0.520 1.1230   0.297 0.421 0.221 0.275   0.249 0.4880 314.60 8.81                       128.80         6.286 6.284 0.000
UPLMET_235 2018-04-18 20:45:00 235 46891.0   0.332 0.454 0.322 0.188   99.800   0.292 0.151 0.480 0.853 4.219 0.405 0.293 0.446 0.611     397.300 0.00 0 1   0.376 0.489 0.301 0.350   0.325 1.3450   0.297 0.411 0.120 0.291   0.258 0.4850 314.80 25.42                       127.90         6.252 6.239 0.013
UPLMET_235 2018-04-18 20:40:00 235 46891.0   0.500 0.625 0.470 0.359   99.800   0.442 0.151 0.480 0.853 4.219 0.405 0.293 0.446 0.611     397.300 0.30 0 1   0.617 0.752 0.613 0.538   0.539 1.2120   0.384 0.484 0.186 0.360   0.310 0.8290 302.10 12.84                       129.40         6.320 6.307 0.013
UPLMET_235 2018-04-18 20:35:00 235 46891.0   0.558 0.696 0.490 0.493   100.000   0.486 0.150 0.480 0.852 4.219 0.405 0.293 0.446 0.611     397.000 0.00 0 1   0.609 0.745 0.623 0.515   0.515 1.0160   0.533 0.665 0.403 0.462   0.462 0.5770 301.10 13.11                       129.70         6.329 6.327 0.000
UPLMET_235 2018-04-18 20:30:00 235 46891.0   0.563 0.690 0.481 0.453   100.000   0.477 0.150 0.479 0.852 4.219 0.405 0.293 0.446 0.611     396.900 0.00 0 1   0.674 0.783 0.696 0.511   0.512 1.8260   0.473 0.608 0.291 0.435   0.435 1.0130 313.00 16.85                       129.60         6.325 6.323 0.000
UPLMET_235 2018-04-18 20:25:00 235 46891.0   0.482 0.585 0.364 0.418   100.000   0.365 0.150 0.479 0.852 4.218 0.405 0.293 0.446 0.611     397.000 0.00 0 1   0.644 0.764 0.679 0.471   0.472 1.0250   0.400 0.498 0.233 0.302   0.302 0.1990 320.10 25.32                       129.60         6.271 6.272 -0.000
UPLMET_235 2018-04-18 20:20:00 235 46891.0   0.401 0.503 0.291 0.272   100.000   0.290 0.150 0.479 0.852 4.217 0.405 0.293 0.446 0.611     396.900 0.00 0 1   0.460 0.555 0.386 0.341   0.342 0.7930   0.305 0.424 0.101 0.235   0.235 0.4820 300.50 40.05                       129.50         6.238 6.238 0.000
UPLMET_235 2018-04-18 20:15:00 235 46891.0   0.339 0.426 0.239 0.191   100.000   0.239 0.150 0.479 0.852 4.217 0.405 0.293 0.446 0.611     396.900 0.00 0 1   0.358 0.467 0.261 0.268   0.268 1.1310   0.325 0.401 0.141 0.218   0.218 0.5430 286.40 20.79                       129.30         6.215 6.215 0.000
UPLMET_235 2018-04-18 20:10:00 235 46891.0   0.345 0.407 0.224 0.161   100.000   0.223 0.150 0.479 0.852 4.219 0.405 0.293 0.446 0.611     397.000 0.10 0 1   0.361 0.434 0.225 0.244   0.244 1.2920   0.326 0.376 0.099 0.204   0.202 0.6120 284.70 21.50                       128.90         6.208 6.208 0.000
UPLMET_235 2018-04-18 20:05:00 235 46891.0   0.397 0.444 0.276 0.180   100.000   0.276 0.150 0.479 0.852 4.218 0.405 0.293 0.446 0.611     396.900 0.30 0 1   0.427 0.474 0.211 0.316   0.314 1.2470   0.358 0.409 0.137 0.250   0.250 0.3980 282.20 14.15                       128.10         6.232 6.232 0.000
UPLMET_235 2018-04-18 20:00:00 235 46891.0   0.446 0.498 0.339 0.216   100.000   0.338 0.150 0.479 0.852 4.218 0.405 0.293 0.446 0.611     396.600 0.20 0 1   0.485 0.536 0.259 0.361   0.362 1.4080   0.422 0.478 0.146 0.316   0.316 0.2830 335.40 13.30                       130.10         6.260 6.260 0.000
UPLMET_235 2018-04-18 19:55:00 235 46891.0   0.490 0.552 0.403 0.314   100.000   0.402 0.150 0.479 0.852 4.219 0.406 0.293 0.447 0.611     396.400 0.00 0 1   0.499 0.557 0.331 0.440   0.437 0.7930   0.482 0.540 0.275 0.365   0.365 0.3130 52.28 78.39                       130.00         6.289 6.289 0.000
UPLMET_235 2018-04-18 19:50:00 235 46891.0   0.498 0.592 0.483 0.305   100.000   0.478 0.149 0.479 0.851 4.218 0.405 0.293 0.447 0.611     396.300 0.00 0 1   0.536 0.631 0.405 0.532   0.527 0.0710   0.457 0.547 0.215 0.437   0.432 0.0040 53.64 0.00                       130.00         6.326 6.324 0.000
UPLMET_235 2018-04-18 19:45:00 235 46891.0   0.590 0.694 0.581 0.430   100.000   0.578 0.149 0.479 0.851 4.218 0.406 0.293 0.447 0.611     396.300 0.00 0 1   0.622 0.736 0.539 0.614   0.614 0.0000   0.532 0.628 0.319 0.519   0.511 0.0000 0.00 0.00                       130.00         6.371 6.370 0.000
UPLMET_235 2018-04-18 19:40:00 235 46891.0   0.595 0.716 0.606 0.502   100.000   0.605 0.149 0.478 0.851 4.218 0.406 0.293 0.447 0.611     396.300 0.00 0 1   0.608 0.734 0.531 0.620   0.616 0.0000   0.575 0.688 0.427 0.590   0.589 0.0000 0.00 0.00                       129.90         6.382 6.382 -0.000
UPLMET_235 2018-04-18 19:35:00 235 46891.0   0.612 0.738 0.636 0.496   100.000   0.634 0.149 0.478 0.851 4.218 0.406 0.293 0.447 0.611     396.400 0.00 0 1   0.653 0.765 0.583 0.649   0.649 0.0000   0.572 0.688 0.412 0.616   0.611 0.0000 0.00 0.00                       129.80         6.396 6.395 0.000
UPLMET_235 2018-04-18 19:30:00 235 46891.0   0.602 0.729 0.608 0.541   99.900   0.597 0.149 0.478 0.851 4.218 0.406 0.293 0.447 0.611     396.400 0.10 0 1   0.656 0.765 0.646 0.652   0.653 0.0000   0.566 0.701 0.445 0.589   0.567 0.0000 0.00 0.00                       129.60         6.383 6.378 0.006
UPLMET_235 2018-04-18 19:25:00 235 46891.0   0.603 0.727 0.625 0.472   99.800   0.592 0.149 0.478 0.851 4.219 0.406 0.293 0.447 0.611     396.300 0.00 0 1   0.618 0.737 0.489 0.651   0.612 0.0000   0.593 0.717 0.440 0.585   0.561 0.0000 0.00 0.00                       129.20         6.391 6.376 0.013
UPLMET_235 2018-04-18 19:20:00 235 46891.0   0.672 0.783 0.674 0.517   99.800   0.642 0.149 0.478 0.851 4.219 0.406 0.293 0.447 0.611     396.300 0.10 0 1   0.700 0.802 0.565 0.690   0.660 0.0000   0.623 0.742 0.440 0.651   0.613 0.0000 0.00 0.00                       128.50         6.414 6.399 0.013
UPLMET_235 2018-04-18 19:15:00 235 46891.0   0.712 0.806 0.695 0.548   99.600   0.646 0.149 0.478 0.851 4.220 0.406 0.293 0.447 0.611     396.000 0.00 0 1   0.751 0.833 0.561 0.712   0.664 0.0000   0.688 0.794 0.530 0.673   0.623 0.0000 0.00 0.00                       130.80         6.424 6.401 0.026
UPLMET_235 2018-04-18 19:10:00 235 46891.0   0.794 0.867 0.759 0.548   99.600   0.702 0.148 0.478 0.851 4.219 0.406 0.293 0.447 0.611     396.200 0.00 0 1   0.852 0.920 0.582 0.807   0.754 0.0000   0.756 0.838 0.498 0.715   0.663 0.0000 0.00 0.00                       130.80         6.454 6.427 0.026
UPLMET_235 2018-04-18 19:05:00 235 46891.0   0.883 0.963 0.840 0.675   99.600   0.787 0.149 0.478 0.851 4.218 0.406 0.293 0.447 0.611     396.100 0.00 0 1   0.910 1.001 0.695 0.885   0.829 0.4450   0.859 0.927 0.617 0.803   0.754 0.0970 62.28 0.01                       130.90         6.491 6.467 0.026
UPLMET_235 2018-04-18 19:00:00 235 46891.0   0.985 1.060 0.955 0.802   99.600   0.899 0.148 0.477 0.851 4.217 0.406 0.293 0.447 0.611     396.000 0.00 0 1   1.009 1.083 0.875 0.994   0.939 0.0000   0.915 1.005 0.691 0.889   0.830 0.0000 0.00 0.00                       130.90         6.546 6.519 0.026
UPLMET_235 2018-04-18 18:55:00 235 46891.0   0.994 1.091 1.014 0.762   99.500   0.946 0.148 0.478 0.851 4.218 0.406 0.293 0.447 0.611     396.000 0.00 0 1   1.030 1.143 0.851 1.069   0.993 0.0000   0.979 1.066 0.688 0.977   0.915 0.0000 0.00 0.00                       131.00         6.573 6.541 0.033
UPLMET_235 2018-04-18 18:50:00 235 46891.0   1.096 1.215 1.092 0.857   99.500   1.026 0.148 0.477 0.850 4.219 0.406 0.294 0.447 0.611     395.900 0.00 0 1   1.157 1.246 0.983 1.105   1.037 0.0000   1.038 1.152 0.740 1.072   1.003 0.0000 0.00 0.00                       131.10         6.611 6.579 0.033
UPLMET_235 2018-04-18 18:45:00 235 46891.0   1.191 1.263 1.113 0.990   99.400   1.033 0.148 0.478 0.850 4.219 0.406 0.294 0.447 0.611     395.800 0.00 0 1   1.208 1.274 1.017 1.143   1.054 0.2760   1.157 1.244 0.949 1.091   1.017 0.0340 60.10 0.01                       131.10         6.621 6.583 0.040
UPLMET_235 2018-04-18 18:40:00 235 46891.0   1.216 1.284 1.162 1.017   99.200   1.057 0.148 0.478 0.850 4.219 0.406 0.294 0.447 0.611     395.800 0.00 0 1   1.231 1.291 1.049 1.185   1.078 0.0000   1.195 1.272 0.950 1.133   1.040 0.0000 0.00 0.00                       131.20         6.644 6.594 0.053
UPLMET_235 2018-04-18 18:35:00 235 46891.0   1.260 1.332 1.230 1.015   99.100   1.105 0.148 0.478 0.851 4.218 0.406 0.294 0.447 0.611     395.800 0.00 0 1   1.302 1.368 1.140 1.250   1.129 0.2850   1.202 1.272 0.867 1.188   1.058 0.0240 58.53 1.08                       131.20         6.677 6.617 0.060
UPLMET_235 2018-04-18 18:30:00 235 46891.0   1.297 1.367 1.247 1.081   98.900   1.088 0.148 0.478 0.851 4.217 0.406 0.294 0.447 0.611     395.700 0.00 0 1   1.321 1.389 1.137 1.262   1.104 0.9530   1.281 1.355 0.994 1.233   1.071 0.2850 47.49 12.34                       131.30         6.685 6.609 0.074
UPLMET_235 2018-04-18 18:25:00 235 46891.0   1.317 1.399 1.270 1.133   98.600   1.080 0.148 0.477 0.851 4.218 0.406 0.294 0.447 0.611     395.800 0.00 0 1   1.332 1.407 1.161 1.290   1.099 0.0000   1.308 1.393 1.084 1.258   1.063 0.0000 0.00 0.00                       131.40         6.696 6.605 0.094
UPLMET_235 2018-04-18 18:20:00 235 46891.0   1.252 1.339 1.212 1.135   98.300   0.968 0.148 0.477 0.850 4.218 0.406 0.294 0.448 0.611     395.700 0.00 0 1   1.315 1.409 1.224 1.287   1.083 0.3300   1.185 1.273 1.008 1.157   0.886 0.0670 291.80 42.25                       131.40         6.668 6.552 0.113
UPLMET_235 2018-04-18 18:15:00 235 46891.0   1.152 1.249 1.145 0.963   98.000   0.866 0.147 0.477 0.850 4.217 0.406 0.294 0.448 0.611     395.800 0.00 0 1   1.171 1.262 1.028 1.160   0.884 0.0000   1.136 1.242 0.926 1.116   0.832 0.0000 0.00 0.00                       131.50         6.636 6.504 0.133
UPLMET_235 2018-04-18 18:10:00 235 46891.0   1.166 1.270 1.118 0.993   97.900   0.829 0.147 0.477 0.850 4.217 0.406 0.294 0.448 0.611     395.700 0.00 0 1   1.185 1.282 1.049 1.132   0.848 0.5520   1.154 1.260 0.947 1.102   0.806 0.0950 234.00 0.01                       131.60         6.623 6.486 0.139
UPLMET_235 2018-04-18 18:05:00 235 46891.0   1.158 1.258 1.117 0.983   97.800   0.813 0.147 0.477 0.850 4.217 0.406 0.294 0.448 0.611     395.700 0.00 0 1   1.175 1.272 1.009 1.135   0.832 0.3830   1.135 1.231 0.958 1.091   0.777 0.1080 234.00 0.00                       131.60         6.623 6.479 0.146
UPLMET_235 2018-04-18 18:00:00 235 46891.0   1.117 1.207 1.093 0.925   97.600   0.756 0.148 0.477 0.850 4.218 0.406 0.294 0.448 0.612     395.600 0.00 0 1   1.132 1.226 0.968 1.118   0.794 0.5260   1.109 1.198 0.883 1.064   0.711 0.0680 234.00 0.00                       131.70         6.611 6.452 0.159
UPLMET_235 2018-04-18 17:55:00 235 46891.0   1.147 1.243 1.111 0.921   97.200   0.725 0.148 0.477 0.850 4.218 0.406 0.294 0.448 0.612     395.700 0.00 0 1   1.182 1.277 0.985 1.152   0.754 0.9440   1.114 1.208 0.874 1.070   0.701 0.3060 233.90 0.08                       131.80         6.620 6.438 0.185
UPLMET_235 2018-04-18 17:50:00 235 46891.0   1.182 1.271 1.216 0.972   96.700   0.753 0.147 0.477 0.850 4.217 0.406 0.294 0.448 0.612     395.600 0.00 0 1   1.214 1.282 1.005 1.297   0.774 1.0160   1.164 1.257 0.931 1.155   0.733 0.7270 245.80 11.13                       131.90         6.670 6.451 0.220
UPLMET_235 2018-04-18 17:45:00 235 46891.0   1.362 1.403 1.428 0.979   96.300   0.909 0.148 0.477 0.851 4.217 0.406 0.294 0.448 0.612     395.600 0.00 0 1   1.473 1.528 1.206 1.491   1.002 0.8290   1.229 1.295 0.914 1.310   0.784 0.4430 259.20 10.96                       132.10         6.772 6.524 0.251
UPLMET_235 2018-04-18 17:40:00 235 46891.0   1.570 1.654 1.535 1.284   96.200   1.003 0.147 0.477 0.850 4.217 0.406 0.294 0.448 0.612     395.700 0.00 0 1   1.689 1.774 1.339 1.619   1.062 1.1490   1.479 1.537 1.214 1.471   0.961 0.4010 230.40 1.35                       132.20         6.825 6.568 0.259
UPLMET_235 2018-04-18 17:35:00 235 46891.0   1.796 1.887 1.739 1.485   95.800   1.146 0.147 0.477 0.851 4.217 0.406 0.294 0.448 0.612     395.700 0.00 0 1   1.898 1.993 1.611 1.856   1.231 0.9180   1.699 1.786 1.354 1.626   1.067 0.6720 225.60 1.14                       132.30         6.925 6.636 0.291
UPLMET_235 2018-04-18 17:30:00 235 46891.0   2.013 2.086 1.972 1.693   95.400   1.309 0.147 0.476 0.851 4.218 0.406 0.294 0.448 0.612     395.800 0.00 0 1   2.102 2.165 1.756 2.057   1.348 0.8020   1.910 2.001 1.617 1.873   1.244 0.1940 227.60 0.08                       132.50         7.042 6.715 0.324
UPLMET_235 2018-04-18 17:25:00 235 46891.0   2.200 2.269 2.148 1.843   94.500   1.354 0.147 0.476 0.851 4.217 0.406 0.294 0.448 0.612     395.800 0.00 0 1   2.290 2.367 1.921 2.242   1.381 0.5080   2.106 2.176 1.772 2.070   1.331 0.2520 227.60 0.12                       132.80         7.131 6.737 0.392
UPLMET_235 2018-04-18 17:20:00 235 46891.0   2.392 2.474 2.346 1.973   93.600   1.422 0.147 0.476 0.851 4.217 0.406 0.294 0.448 0.612     395.700 0.00 0 1   2.472 2.561 2.009 2.417   1.459 0.6410   2.291 2.374 1.919 2.252   1.368 0.4670 227.40 0.02                       133.10         7.233 6.770 0.463
UPLMET_235 2018-04-18 17:15:00 235 46891.0   2.606 2.726 2.568 2.075   92.300   1.440 0.147 0.476 0.851 4.217 0.406 0.294 0.448 0.612     395.900 0.00 0 1   2.754 2.910 2.168 2.740   1.481 0.8460   2.484 2.573 1.997 2.427   1.414 0.6980 221.90 4.65                       133.30         7.348 6.778 0.566
UPLMET_235 2018-04-18 17:10:00 235 46891.0   3.020 3.219 2.978 2.293   90.200   1.528 0.147 0.477 0.851 4.216 0.406 0.294 0.448 0.612     395.800 0.00 0 1   3.286 3.496 2.436 3.190   1.572 0.6590   2.773 2.930 2.179 2.747   1.463 0.3500 209.50 4.72                       133.60         7.565 6.821 0.741
UPLMET_235 2018-04-18 17:05:00 235 46891.0   3.687 3.819 3.516 2.486   88.500   1.803 0.147 0.477 0.851 4.216 0.406 0.294 0.448 0.612     395.900 0.00 0 1   3.852 3.950 2.536 3.688   1.916 0.3650   3.321 3.525 2.418 3.229   1.582 0.0820 143.30 12.90                       133.90         7.859 6.957 0.904
UPLMET_235 2018-04-18 17:00:00 235 46891.0   3.758 3.725 3.667 2.458   87.000   1.704 0.147 0.477 0.851 4.217 0.406 0.294 0.448 0.612     395.900 0.00 0 1   3.840 3.928 2.515 3.757   1.909 0.5790   3.733 3.642 2.409 3.632   1.620 0.1900 26.40 0.05                       134.10         7.944 6.908 1.033
UPLMET_235 2018-04-18 16:55:00 235 46891.0   4.002 3.994 3.924 2.523   86.700   1.912 0.148 0.477 0.851 4.216 0.406 0.294 0.448 0.612     395.900 0.00 0 1   4.206 4.263 2.680 4.157   2.074 1.0690   3.842 3.744 2.421 3.770   1.743 0.3700 30.80 5.20                       134.40         8.089 7.012 1.076
UPLMET_235 2018-04-18 16:50:00 235 46891.0   4.675 4.842 4.578 2.333   82.900   1.928 0.147 0.476 0.851 4.218 0.406 0.294 0.449 0.612     395.900 0.00 0 1   4.947 5.138 2.484 4.861   2.058 0.9180   4.242 4.332 2.078 4.197   1.734 0.4290 45.83 9.62                       134.40         8.469 7.020 1.448
UPLMET_235 2018-04-18 16:45:00 235 46891.0   4.918 5.240 4.991 2.492   79.060   1.667 0.147 0.477 0.851 4.217 0.407 0.294 0.449 0.612     395.900 0.00 0 1   5.107 5.359 2.692 5.058   1.972 0.3740   4.798 5.092 2.323 4.884   1.294 0.0560 43.74 4.00                       134.20         8.717 6.890 1.825
UPLMET_235 2018-04-18 16:40:00 235 46891.0   4.591 4.906 4.784 3.034   75.380   0.804 0.147 0.477 0.851 4.217 0.407 0.294 0.449 0.612     395.800 0.00 0 1   4.891 5.078 3.225 4.943   1.269 0.3560   4.401 4.799 2.763 4.549   0.468 0.0430 300.20 20.13                       134.40         8.592 6.475 2.115
UPLMET_235 2018-04-18 16:35:00 235 46891.0   4.444 4.880 4.493 2.816   77.000   0.815 0.146 0.476 0.851 4.218 0.407 0.294 0.449 0.612     395.900 0.00 0 1   4.542 5.002 2.914 4.559   1.190 0.2230   4.353 4.810 2.667 4.434   0.549 0.0110 288.90 0.00                       134.20         8.419 6.480 1.936
UPLMET_235 2018-04-18 16:30:00 235 46891.0   4.640 4.948 4.587 2.673   76.420   0.802 0.146 0.476 0.850 4.218 0.407 0.294 0.449 0.612     395.800 0.00 0 1   4.804 5.050 2.758 4.671   1.288 0.0090   4.554 4.848 2.585 4.523   0.524 0.0000 286.60 0.00                       134.00         8.474 6.474 1.998
UPLMET_235 2018-04-18 16:25:00 235 46891.0   4.577 4.793 4.564 2.634   76.460   0.787 0.146 0.476 0.850 4.218 0.407 0.294 0.449 0.612     395.700 0.00 0 1   4.733 4.887 2.687 4.598   1.033 0.0000   4.450 4.709 2.587 4.522   0.507 0.0000 0.00 0.00                       133.90         8.461 6.467 1.992
UPLMET_235 2018-04-18 16:20:00 235 46891.0   4.350 4.544 4.295 2.512   79.940   1.142 0.146 0.476 0.850 4.218 0.407 0.294 0.449 0.612     395.800 0.00 0 1   4.730 4.860 2.674 4.522   1.356 0.0000   4.006 4.224 2.354 4.099   0.927 0.0000 0.00 0.00                       133.90         8.303 6.634 1.666
UPLMET_235 2018-04-18 16:15:00 235 46891.0   4.131 4.283 4.064 2.533   79.270   0.802 0.146 0.476 0.850 4.217 0.407 0.294 0.449 0.612     395.900 0.00 0 1   4.303 4.391 2.629 4.118   1.066 0.5080   3.973 4.195 2.466 4.013   0.657 0.1150 265.90 9.14                       133.90         8.169 6.474 1.693
UPLMET_235 2018-04-18 16:10:00 235 46891.0   4.279 4.369 4.113 2.562   78.650   0.741 0.146 0.476 0.850 4.218 0.407 0.294 0.449 0.612     396.000 0.00 0 1   4.382 4.469 2.692 4.194   0.838 1.1490   4.207 4.296 2.441 4.042   0.629 0.2830 285.10 12.21                       133.90         8.197 6.445 1.750
UPLMET_235 2018-04-18 16:05:00 235 46891.0   4.384 4.542 4.329 2.453   78.210   0.872 0.146 0.476 0.850 4.218 0.407 0.294 0.449 0.612     395.800 0.00 0 1   4.449 4.646 2.641 4.464   0.994 0.8290   4.307 4.465 2.308 4.174   0.750 0.1910 290.20 51.31                       134.00         8.322 6.506 1.813
UPLMET_235 2018-04-18 16:00:00 235 46891.0   4.158 4.286 4.029 2.495   78.870   0.697 0.146 0.476 0.849 4.217 0.407 0.294 0.449 0.612     396.000 0.00 0 1   4.322 4.442 2.649 4.272   0.921 0.0000   4.059 4.166 2.377 3.876   0.406 0.0000 0.00 0.00                       134.10         8.149 6.425 1.722
UPLMET_235 2018-04-18 15:55:00 235 46891.0   4.224 4.387 4.009 2.366   82.400   1.281 0.146 0.476 0.850 4.218 0.407 0.294 0.449 0.612     395.900 0.00 0 1   4.349 4.487 2.445 4.077   1.563 0.3300   4.137 4.283 2.278 3.925   0.696 0.0330 306.40 8.16                       134.10         8.137 6.701 1.432
UPLMET_235 2018-04-18 15:50:00 235 46891.0   4.075 4.306 3.823 2.417   84.100   1.382 0.146 0.475 0.850 4.218 0.407 0.294 0.449 0.612     395.800 0.00 0 1   4.171 4.380 2.594 3.954   1.528 0.0000   4.030 4.275 2.344 3.712   1.215 0.0000 0.00 0.00                       134.20         8.031 6.750 1.277
UPLMET_235 2018-04-18 15:45:00 235 46891.0   4.273 4.288 3.879 2.265   85.400   1.663 0.146 0.476 0.850 4.217 0.407 0.294 0.449 0.612     395.900 0.00 0 1   4.400 4.364 2.364 3.924   1.877 0.8820   4.166 4.183 2.126 3.759   1.305 0.1500 76.20 14.11                       134.20         8.063 6.888 1.177
UPLMET_235 2018-04-18 15:40:00 235 46891.0   4.126 4.154 3.813 2.154   85.100   1.540 0.146 0.475 0.849 4.217 0.407 0.294 0.449 0.612     395.700 0.00 0 1   4.379 4.364 2.228 4.013   1.846 0.7930   3.763 3.858 2.038 3.616   1.263 0.1860 76.48 5.16                       134.00         8.026 6.827 1.196
UPLMET_235 2018-04-18 15:35:00 235 46891.0   3.649 3.718 3.541 2.185   84.900   1.247 0.146 0.476 0.850 4.217 0.407 0.294 0.449 0.612     395.900 0.00 0 1   3.770 3.827 2.289 3.619   1.382 1.0070   3.442 3.545 2.032 3.447   1.138 0.2750 358.30 37.89                       133.60         7.873 6.685 1.189
UPLMET_235 2018-04-18 15:30:00 235 46891.0   3.526 3.703 3.486 2.040   86.100   1.388 0.145 0.475 0.849 4.218 0.407 0.294 0.449 0.612     395.900 0.00 0 1   3.765 3.959 2.155 3.589   1.646 0.9620   3.396 3.572 1.912 3.371   1.098 0.3080 46.06 6.00                       133.40         7.843 6.753 1.090
UPLMET_235 2018-04-18 15:25:00 235 46891.0   3.779 4.018 3.541 2.112   87.100   1.604 0.145 0.475 0.850 4.218 0.407 0.294 0.449 0.612     395.800 0.00 0 1   3.841 4.045 2.186 3.582   1.688 0.4540   3.658 3.953 1.989 3.509   1.493 0.1190 295.90 21.65                       133.20         7.873 6.859 1.016
UPLMET_235 2018-04-18 15:20:00 235 46891.0   3.737 4.206 3.793 2.073   86.200   1.710 0.145 0.475 0.849 4.218 0.407 0.294 0.450 0.612     395.900 0.00 0 1   3.922 4.432 2.160 3.997   1.929 0.7220   3.609 3.964 1.985 3.565   1.510 0.1230 358.80 5.27                       133.30         8.014 6.911 1.106
UPLMET_235 2018-04-18 15:15:00 235 46891.0   4.133 4.508 4.044 2.198   84.300   1.637 0.145 0.475 0.849 4.219 0.407 0.294 0.450 0.612     396.100 0.00 0 1   4.331 4.575 2.326 4.103   1.844 0.6680   3.968 4.443 2.068 4.001   1.333 0.2260 26.91 9.20                       133.50         8.157 6.875 1.281
UPLMET_235 2018-04-18 15:10:00 235 46891.0   4.579 4.719 4.226 2.330   82.400   1.505 0.145 0.475 0.849 4.218 0.407 0.294 0.450 0.612     395.900 0.00 0 1   4.774 4.916 2.389 4.380   2.007 0.4370   4.377 4.521 2.223 4.093   1.260 0.0640 11.00 18.82                       133.80         8.262 6.810 1.454
UPLMET_235 2018-04-18 15:05:00 235 46891.0   4.718 5.224 4.475 2.404   80.400   1.388 0.145 0.475 0.849 4.218 0.407 0.294 0.450 0.612     395.900 0.00 0 1   4.880 5.463 2.509 4.578   1.904 0.6240   4.564 4.956 2.291 4.380   1.027 0.2240 32.08 8.97                       134.00         8.408 6.753 1.648
UPLMET_235 2018-04-18 15:00:00 235 46891.0   4.480 5.146 4.388 2.323   81.700   1.542 0.144 0.475 0.849 4.218 0.407 0.294 0.450 0.612     395.900 0.00 0 1   4.843 5.452 2.447 4.531   1.888 0.7130   4.268 5.001 2.213 4.320   1.177 0.1340 29.94 8.45                       134.00         8.357 6.828 1.529
UPLMET_235 2018-04-18 14:55:00 235 46891.0   4.438 4.864 4.276 2.392   78.400   0.855 0.145 0.475 0.849 4.218 0.407 0.294 0.450 0.612     395.900 0.00 0 1   4.620 5.108 2.699 4.468   1.559 0.4370   4.188 4.535 2.253 3.906   0.397 0.0470 32.51 8.09                       134.10         8.292 6.498 1.791
UPLMET_235 2018-04-18 14:50:00 235 46891.0   3.911 4.320 3.751 2.377   81.200   0.817 0.145 0.475 0.849 4.218 0.407 0.294 0.450 0.612     395.900 0.00 0 1   4.135 4.504 2.669 3.906   1.134 0.0000   3.668 4.068 2.014 3.556   0.350 0.0000 0.00 0.00                       134.10         7.991 6.481 1.502
UPLMET_235 2018-04-18 14:45:00 235 46891.0   3.467 3.953 3.592 2.355   80.300   0.508 0.144 0.475 0.849 4.218 0.407 0.294 0.450 0.612     395.800 0.00 0 1   3.675 4.170 2.533 3.896   1.143 1.8090   3.373 3.887 2.051 3.500   -0.310 0.6040 34.07 56.71                       134.30         7.902 6.337 1.557
UPLMET_235 2018-04-18 14:40:00 235 46891.0   4.234 4.835 4.291 2.631   73.640   -0.003 0.144 0.475 0.849 4.217 0.407 0.294 0.450 0.612     395.900 0.00 0 1   4.449 5.064 2.658 4.425   0.983 0.9890   3.746 4.282 2.572 3.966   -0.420 0.3220 303.00 10.19                       134.70         8.300 6.106 2.188
UPLMET_235 2018-04-18 14:35:00 235 46891.0   4.148 4.435 4.084 2.648   75.880   0.213 0.144 0.475 0.849 4.218 0.407 0.294 0.450 0.612     395.800 0.00 0 1   4.474 4.768 2.869 4.332